Home > Products > Valid Products > OSO

000
SXUS55 KMSO 030423
OSOMSO
MONTANA AWOS SUMMARY
NATIONAL WEATHER SERVICE MISSOULA MT
1023 PM MDT SUN AUG 2 2015

Montana AWOS Reports

MALTA       |KM75 030415Z AUTO 00000KT 40SM 20/12 A2997 RMK AO1 T02000122
ROUNDUP     |KRPX 030415Z AUTO 00000KT 40SM 23/04 A2995 RMK AO1 T02330044






000
SXUS55 KMSO 030413
OSOMSO
MONTANA AWOS SUMMARY
NATIONAL WEATHER SERVICE MISSOULA MT
1013 PM MDT SUN AUG 2 2015

Montana AWOS Reports

ROUNDUP     |KRPX 030355Z AUTO 00000KT 40SM 23/04 A2995 RMK AO1 T02330039
MALTA       |KM75 030355Z AUTO 00000KT 40SM 21/13 A2996 RMK AO1 T02060128
EKALAKA     |K97M 030355Z AUTO 00000KT 40SM 19/07 A3004 RMK AO1 T01940067
PLAINS      |KS34 030355Z AUTO 00000KT 25SM 26/03 A2987 RMK AO1 T02560033






000
SXUS55 KMSO 030403
OSOMSO
MONTANA AWOS SUMMARY
NATIONAL WEATHER SERVICE MISSOULA MT
1002 PM MDT SUN AUG 2 2015

Montana AWOS Reports

LAUREL      |K6S8 030355Z AUTO 00000KT 40SM 23/04 A3000 RMK AO1 T02330039
TWIN BRIDGES|K7S1 030355Z AUTO 03008KT 25SM 25/01 A3000 RMK AO1 T02500006
SCOBEY      |K9S2 030355Z AUTO 00000KT 40SM 15/07 A3003 RMK AO1 T01500072






000
SXUS55 KMSO 030343
OSOMSO
MONTANA AWOS SUMMARY
NATIONAL WEATHER SERVICE MISSOULA MT
943 PM MDT SUN AUG 2 2015

Montana AWOS Reports

ROUNDUP     |KRPX 030335Z AUTO 00000KT 40SM 24/04 A2994 RMK AO1 T02440039
MALTA       |KM75 030335Z AUTO 00000KT 40SM 21/13 A2996 RMK AO1 T02110128






000
SXUS55 KMSO 030343
OSOMSO
MONTANA AWOS SUMMARY
NATIONAL WEATHER SERVICE MISSOULA MT
943 PM MDT SUN AUG 2 2015

Montana AWOS Reports

ROUNDUP     |KRPX 030335Z AUTO 00000KT 40SM 24/04 A2994 RMK AO1 T02440039
MALTA       |KM75 030335Z AUTO 00000KT 40SM 21/13 A2996 RMK AO1 T02110128






000
SXUS55 KMSO 030323
OSOMSO
MONTANA AWOS SUMMARY
NATIONAL WEATHER SERVICE MISSOULA MT
923 PM MDT SUN AUG 2 2015

Montana AWOS Reports

LAUREL      |K6S8 030315Z AUTO 00000KT 40SM 24/04 A3000 RMK AO1 T02440039
MALTA       |KM75 030315Z AUTO 00000KT 40SM 22/13 A2996 RMK AO1 T02170128
ROUNDUP     |KRPX 030315Z AUTO 05004KT 40SM 26/04 A2994 RMK AO1 T02560039






000
SXUS55 KMSO 030323
OSOMSO
MONTANA AWOS SUMMARY
NATIONAL WEATHER SERVICE MISSOULA MT
923 PM MDT SUN AUG 2 2015

Montana AWOS Reports

LAUREL      |K6S8 030315Z AUTO 00000KT 40SM 24/04 A3000 RMK AO1 T02440039
MALTA       |KM75 030315Z AUTO 00000KT 40SM 22/13 A2996 RMK AO1 T02170128
ROUNDUP     |KRPX 030315Z AUTO 05004KT 40SM 26/04 A2994 RMK AO1 T02560039






000
SXUS55 KMSO 030313
OSOMSO
MONTANA AWOS SUMMARY
NATIONAL WEATHER SERVICE MISSOULA MT
913 PM MDT SUN AUG 2 2015

Montana AWOS Reports

SCOBEY      |K9S2 030255Z AUTO 00000KT 40SM 18/08 A3002 RMK AO1 T01830078
PLAINS      |KS34 030255Z AUTO 00000KT 15SM 31/03 A2985 RMK AO1 T03110033
EKALAKA     |K97M 030255Z AUTO 05005KT 40SM 21/07 A3002 RMK AO1 T02110067






000
SXUS55 KMSO 030303
OSOMSO
MONTANA AWOS SUMMARY
NATIONAL WEATHER SERVICE MISSOULA MT
902 PM MDT SUN AUG 2 2015

Montana AWOS Reports

LAUREL      |K6S8 030255Z AUTO 00000KT 40SM 24/04 A2999 RMK AO1 T02440039
TWIN BRIDGES|K7S1 030255Z AUTO 35007KT 25SM 27/03 A2999 RMK AO1 T02720028






000
SXUS55 KMSO 030243
OSOMSO
MONTANA AWOS SUMMARY
NATIONAL WEATHER SERVICE MISSOULA MT
843 PM MDT SUN AUG 2 2015

Montana AWOS Reports

ROUNDUP     |KRPX 030235Z AUTO 04004KT 40SM 26/04 A2992 RMK AO1 T02610039
MALTA       |KM75 030235Z AUTO 00000KT 40SM 25/13 A2995 RMK AO1 T02500133






000
SXUS55 KMSO 030243
OSOMSO
MONTANA AWOS SUMMARY
NATIONAL WEATHER SERVICE MISSOULA MT
843 PM MDT SUN AUG 2 2015

Montana AWOS Reports

ROUNDUP     |KRPX 030235Z AUTO 04004KT 40SM 26/04 A2992 RMK AO1 T02610039
MALTA       |KM75 030235Z AUTO 00000KT 40SM 25/13 A2995 RMK AO1 T02500133






000
SXUS55 KMSO 030224
OSOMSO
MONTANA AWOS SUMMARY
NATIONAL WEATHER SERVICE MISSOULA MT
823 PM MDT SUN AUG 2 2015

Montana AWOS Reports

LAUREL      |K6S8 030215Z AUTO 00000KT 40SM 27/06 A2998 RMK AO1 T02720056
TWIN BRIDGES|K7S1 030215Z AUTO 35004KT 25SM 30/03 A2999 RMK AO1 T03000028
ROUNDUP     |KRPX 030215Z AUTO 05004KT 40SM 27/04 A2992 RMK AO1 T02720044
MALTA       |KM75 030215Z AUTO 00000KT 40SM 26/13 A2995 RMK AO1 T02610128






000
SXUS55 KMSO 030203
OSOMSO
MONTANA AWOS SUMMARY
NATIONAL WEATHER SERVICE MISSOULA MT
803 PM MDT SUN AUG 2 2015

Montana AWOS Reports

LAUREL      |K6S8 030155Z AUTO 00000KT 40SM 28/06 A2998 RMK AO1 T02830056
TWIN BRIDGES|K7S1 030155Z AUTO 34006KT 25SM 32/M01 A2999 RMK AO1 T03171005
EKALAKA     |K97M 030155Z AUTO 04008KT 40SM 24/07 A3001 RMK AO1 T02440072
PLAINS      |KS34 030155Z AUTO 28008KT 25SM 35/02 A2983 RMK AO1 T03500022
ROUNDUP     |KRPX 030155Z AUTO 05005KT 40SM 28/05 A2992 RMK AO1 T02830050
MALTA       |KM75 030155Z AUTO 00000KT 40SM 27/12 A2995 RMK AO1 T02720117






000
SXUS55 KMSO 030203
OSOMSO
MONTANA AWOS SUMMARY
NATIONAL WEATHER SERVICE MISSOULA MT
803 PM MDT SUN AUG 2 2015

Montana AWOS Reports

LAUREL      |K6S8 030155Z AUTO 00000KT 40SM 28/06 A2998 RMK AO1 T02830056
TWIN BRIDGES|K7S1 030155Z AUTO 34006KT 25SM 32/M01 A2999 RMK AO1 T03171005
EKALAKA     |K97M 030155Z AUTO 04008KT 40SM 24/07 A3001 RMK AO1 T02440072
PLAINS      |KS34 030155Z AUTO 28008KT 25SM 35/02 A2983 RMK AO1 T03500022
ROUNDUP     |KRPX 030155Z AUTO 05005KT 40SM 28/05 A2992 RMK AO1 T02830050
MALTA       |KM75 030155Z AUTO 00000KT 40SM 27/12 A2995 RMK AO1 T02720117






000
SXUS55 KMSO 030144
OSOMSO
MONTANA AWOS SUMMARY
NATIONAL WEATHER SERVICE MISSOULA MT
743 PM MDT SUN AUG 2 2015

Montana AWOS Reports

LAUREL      |K6S8 030135Z AUTO 03006KT 40SM 29/06 A2997 RMK AO1 T02940061
MALTA       |KM75 030135Z AUTO 00000KT 40SM 28/12 A2994 RMK AO1 T02830117
ROUNDUP     |KRPX 030135Z AUTO 00000KT 40SM 29/05 A2992 RMK AO1 T02890050






000
SXUS55 KMSO 030133
OSOMSO
MONTANA AWOS SUMMARY
NATIONAL WEATHER SERVICE MISSOULA MT
733 PM MDT SUN AUG 2 2015

Montana AWOS Reports

ROUNDUP     |KRPX 030115Z AUTO 06004KT 40SM 29/04 A2991 RMK AO1 T02940044






000
SXUS55 KMSO 030133
OSOMSO
MONTANA AWOS SUMMARY
NATIONAL WEATHER SERVICE MISSOULA MT
733 PM MDT SUN AUG 2 2015

Montana AWOS Reports

ROUNDUP     |KRPX 030115Z AUTO 06004KT 40SM 29/04 A2991 RMK AO1 T02940044






000
SXUS55 KMSO 030123
OSOMSO
MONTANA AWOS SUMMARY
NATIONAL WEATHER SERVICE MISSOULA MT
723 PM MDT SUN AUG 2 2015

Montana AWOS Reports

TWIN BRIDGES|K7S1 030115Z AUTO 29005KT 25SM 32/02 A2999 RMK AO1 T03170017
LAUREL      |K6S8 030115Z AUTO 02006KT 40SM 30/06 A2997 RMK AO1 T03000061
MALTA       |KM75 030115Z AUTO 00000KT 40SM 28/12 A2995 RMK AO1 T02830117






000
SXUS55 KMSO 030123
OSOMSO
MONTANA AWOS SUMMARY
NATIONAL WEATHER SERVICE MISSOULA MT
723 PM MDT SUN AUG 2 2015

Montana AWOS Reports

TWIN BRIDGES|K7S1 030115Z AUTO 29005KT 25SM 32/02 A2999 RMK AO1 T03170017
LAUREL      |K6S8 030115Z AUTO 02006KT 40SM 30/06 A2997 RMK AO1 T03000061
MALTA       |KM75 030115Z AUTO 00000KT 40SM 28/12 A2995 RMK AO1 T02830117






000
SXUS55 KMSO 030103
OSOMSO
MONTANA AWOS SUMMARY
NATIONAL WEATHER SERVICE MISSOULA MT
703 PM MDT SUN AUG 2 2015

Montana AWOS Reports

LAUREL      |K6S8 030055Z AUTO 03004KT 40SM 30/06 A2998 RMK AO1 T03000061
MALTA       |KM75 030055Z AUTO 00000KT 40SM 29/11 A2995 RMK AO1 T02890111
SCOBEY      |K9S2 030055Z AUTO 34007KT 40SM 23/07 A3001 RMK AO1 T02330072
ROUNDUP     |KRPX 030055Z AUTO 07008KT 40SM 30/04 A2991 RMK AO1 T03000044






000
SXUS55 KMSO 030044
OSOMSO
MONTANA AWOS SUMMARY
NATIONAL WEATHER SERVICE MISSOULA MT
643 PM MDT SUN AUG 2 2015

Montana AWOS Reports

LAUREL      |K6S8 030035Z AUTO 03004KT 40SM 31/06 A2998 RMK AO1 T03060056
MALTA       |KM75 030035Z AUTO 00000KT 40SM 29/11 A2995 RMK AO1 T02890111
ROUNDUP     |KRPX 030035Z AUTO 04005KT 40SM 30/04 A2992 RMK AO1 T03000039






000
SXUS55 KMSO 030044
OSOMSO
MONTANA AWOS SUMMARY
NATIONAL WEATHER SERVICE MISSOULA MT
643 PM MDT SUN AUG 2 2015

Montana AWOS Reports

LAUREL      |K6S8 030035Z AUTO 03004KT 40SM 31/06 A2998 RMK AO1 T03060056
MALTA       |KM75 030035Z AUTO 00000KT 40SM 29/11 A2995 RMK AO1 T02890111
ROUNDUP     |KRPX 030035Z AUTO 04005KT 40SM 30/04 A2992 RMK AO1 T03000039






000
SXUS55 KMSO 030023
OSOMSO
MONTANA AWOS SUMMARY
NATIONAL WEATHER SERVICE MISSOULA MT
622 PM MDT SUN AUG 2 2015

Montana AWOS Reports

LAUREL      |K6S8 030015Z AUTO 03006KT 40SM 31/06 A2998 RMK AO1 T03060056
TWIN BRIDGES|K7S1 030015Z AUTO 29005KT 40SM 32/00 A3000 RMK AO1 T03220000
ROUNDUP     |KRPX 030015Z AUTO 04004KT 40SM 30/04 A2992 RMK AO1 T03000039
MALTA       |KM75 030015Z AUTO 00000KT 40SM 29/11 A2995 RMK AO1 T02940106






000
SXUS55 KMSO 030023
OSOMSO
MONTANA AWOS SUMMARY
NATIONAL WEATHER SERVICE MISSOULA MT
622 PM MDT SUN AUG 2 2015

Montana AWOS Reports

LAUREL      |K6S8 030015Z AUTO 03006KT 40SM 31/06 A2998 RMK AO1 T03060056
TWIN BRIDGES|K7S1 030015Z AUTO 29005KT 40SM 32/00 A3000 RMK AO1 T03220000
ROUNDUP     |KRPX 030015Z AUTO 04004KT 40SM 30/04 A2992 RMK AO1 T03000039
MALTA       |KM75 030015Z AUTO 00000KT 40SM 29/11 A2995 RMK AO1 T02940106






000
SXUS55 KMSO 030003
OSOMSO
MONTANA AWOS SUMMARY
NATIONAL WEATHER SERVICE MISSOULA MT
603 PM MDT SUN AUG 2 2015

Montana AWOS Reports

ROUNDUP     |KRPX 022355Z AUTO 05004KT 40SM 31/04 A2992 RMK AO1 T03060044
MALTA       |KM75 022355Z AUTO 00000KT 40SM 30/12 A2996 RMK AO1 T03000117
EKALAKA     |K97M 022355Z AUTO 36005KT 40SM 28/07 A3000 RMK AO1 T02780072
PLAINS      |KS34 022355Z AUTO 00000KT 25SM 39/03 A2985 RMK AO1 T03890033






000
SXUS55 KMSO 030003
OSOMSO
MONTANA AWOS SUMMARY
NATIONAL WEATHER SERVICE MISSOULA MT
603 PM MDT SUN AUG 2 2015

Montana AWOS Reports

ROUNDUP     |KRPX 022355Z AUTO 05004KT 40SM 31/04 A2992 RMK AO1 T03060044
MALTA       |KM75 022355Z AUTO 00000KT 40SM 30/12 A2996 RMK AO1 T03000117
EKALAKA     |K97M 022355Z AUTO 36005KT 40SM 28/07 A3000 RMK AO1 T02780072
PLAINS      |KS34 022355Z AUTO 00000KT 25SM 39/03 A2985 RMK AO1 T03890033






000
SXUS55 KMSO 022343
OSOMSO
MONTANA AWOS SUMMARY
NATIONAL WEATHER SERVICE MISSOULA MT
543 PM MDT SUN AUG 2 2015

Montana AWOS Reports

LAUREL      |K6S8 022335Z AUTO 03006KT 40SM 31/06 A2999 RMK AO1 T03110061
MALTA       |KM75 022335Z AUTO 00000KT 40SM 29/12 A2996 RMK AO1 T02940117
ROUNDUP     |KRPX 022335Z AUTO 04006KT 40SM 31/05 A2992 RMK AO1 T03060050






000
SXUS55 KMSO 022333
OSOMSO
MONTANA AWOS SUMMARY
NATIONAL WEATHER SERVICE MISSOULA MT
533 PM MDT SUN AUG 2 2015

Montana AWOS Reports

ROUNDUP     |KRPX 022315Z AUTO 10004KT 40SM 31/04 A2993 RMK AO1 T03060044






000
SXUS55 KMSO 022323
OSOMSO
MONTANA AWOS SUMMARY
NATIONAL WEATHER SERVICE MISSOULA MT
523 PM MDT SUN AUG 2 2015

Montana AWOS Reports

TWIN BRIDGES|K7S1 022315Z AUTO 15004KT 40SM 33/M02 A3000 RMK AO1 T03281016
LAUREL      |K6S8 022315Z AUTO 03004KT 40SM 31/06 A2999 RMK AO1 T03110061
MALTA       |KM75 022315Z AUTO 00000KT 40SM 29/11 A2996 RMK AO1 T02940111






000
SXUS55 KMSO 022313
OSOMSO
MONTANA AWOS SUMMARY
NATIONAL WEATHER SERVICE MISSOULA MT
512 PM MDT SUN AUG 2 2015

Montana AWOS Reports

EKALAKA     |K97M 022255Z AUTO 04005KT 40SM 29/07 A3001 RMK AO1 T02890067






000
SXUS55 KMSO 022313
OSOMSO
MONTANA AWOS SUMMARY
NATIONAL WEATHER SERVICE MISSOULA MT
512 PM MDT SUN AUG 2 2015

Montana AWOS Reports

EKALAKA     |K97M 022255Z AUTO 04005KT 40SM 29/07 A3001 RMK AO1 T02890067






000
SXUS55 KMSO 022303
OSOMSO
MONTANA AWOS SUMMARY
NATIONAL WEATHER SERVICE MISSOULA MT
503 PM MDT SUN AUG 2 2015

Montana AWOS Reports

LAUREL      |K6S8 022255Z AUTO 05007KT 40SM 31/06 A3000 RMK AO1 T03060056
MALTA       |KM75 022255Z AUTO 00000KT 40SM 29/11 A2996 RMK AO1 T02890111
ROUNDUP     |KRPX 022255Z AUTO 00000KT 40SM 30/04 A2993 RMK AO1 T03000044
PLAINS      |KS34 022255Z AUTO 32004KT 25SM 38/04 A2986 RMK AO1 T03830039
TWIN BRIDGES|K7S1 022255Z AUTO 19006KT 40SM 33/M02 A3001 RMK AO1 T03281016
SCOBEY      |K9S2 022255Z AUTO 33009KT 40SM 25/07 A3002 RMK AO1 T02500072






000
SXUS55 KMSO 022243
OSOMSO
MONTANA AWOS SUMMARY
NATIONAL WEATHER SERVICE MISSOULA MT
443 PM MDT SUN AUG 2 2015

Montana AWOS Reports

TWIN BRIDGES|K7S1 022235Z AUTO 15004KT 40SM 33/M02 A3002 RMK AO1 T03281016
LAUREL      |K6S8 022235Z AUTO 05005KT 40SM 31/07 A3000 RMK AO1 T03060067
ROUNDUP     |KRPX 022235Z AUTO 06004KT 40SM 30/06 A2994 RMK AO1 T03000056
MALTA       |KM75 022235Z AUTO 09004KT 40SM 29/12 A2996 RMK AO1 T02940117






000
SXUS55 KMSO 022243
OSOMSO
MONTANA AWOS SUMMARY
NATIONAL WEATHER SERVICE MISSOULA MT
443 PM MDT SUN AUG 2 2015

Montana AWOS Reports

TWIN BRIDGES|K7S1 022235Z AUTO 15004KT 40SM 33/M02 A3002 RMK AO1 T03281016
LAUREL      |K6S8 022235Z AUTO 05005KT 40SM 31/07 A3000 RMK AO1 T03060067
ROUNDUP     |KRPX 022235Z AUTO 06004KT 40SM 30/06 A2994 RMK AO1 T03000056
MALTA       |KM75 022235Z AUTO 09004KT 40SM 29/12 A2996 RMK AO1 T02940117






000
SXUS55 KMSO 022223
OSOMSO
MONTANA AWOS SUMMARY
NATIONAL WEATHER SERVICE MISSOULA MT
423 PM MDT SUN AUG 2 2015

Montana AWOS Reports

LAUREL      |K6S8 022215Z AUTO 05005KT 40SM 31/07 A3001 RMK AO1 T03060067
TWIN BRIDGES|K7S1 022215Z AUTO 11005KT 40SM 32/M03 A3003 RMK AO1 T03221032
ROUNDUP     |KRPX 022215Z AUTO 05004KT 40SM 30/06 A2994 RMK AO1 T03000056
MALTA       |KM75 022215Z AUTO 00000KT 40SM 30/12 A2997 RMK AO1 T03000117






000
SXUS55 KMSO 022213
OSOMSO
MONTANA AWOS SUMMARY
NATIONAL WEATHER SERVICE MISSOULA MT
412 PM MDT SUN AUG 2 2015

Montana AWOS Reports

SCOBEY      |K9S2 022155Z AUTO 31007KT 40SM 25/08 A3002 RMK AO1 T02500078
EKALAKA     |K97M 022155Z AUTO 00000KT 40SM 28/06 A3001 RMK AO1 T02830056






000
SXUS55 KMSO 022203
OSOMSO
MONTANA AWOS SUMMARY
NATIONAL WEATHER SERVICE MISSOULA MT
403 PM MDT SUN AUG 2 2015

Montana AWOS Reports

LAUREL      |K6S8 022155Z AUTO 05006KT 40SM 30/08 A3001 RMK AO1 T03000083
MALTA       |KM75 022155Z AUTO 00000KT 40SM 29/11 A2997 RMK AO1 T02940111
ROUNDUP     |KRPX 022155Z AUTO 11005KT 40SM 30/06 A2994 RMK AO1 T03000056






000
SXUS55 KMSO 022153
OSOMSO
MONTANA AWOS SUMMARY
NATIONAL WEATHER SERVICE MISSOULA MT
352 PM MDT SUN AUG 2 2015

Montana AWOS Reports

ROUNDUP     |KRPX 022135Z AUTO 03005KT 40SM 29/05 A2995 RMK AO1 T02940050
MALTA       |KM75 022135Z AUTO 00000KT 40SM 29/11 A2998 RMK AO1 T02940111






000
SXUS55 KMSO 022143
OSOMSO
MONTANA AWOS SUMMARY
NATIONAL WEATHER SERVICE MISSOULA MT
343 PM MDT SUN AUG 2 2015

Montana AWOS Reports

LAUREL      |K6S8 022135Z AUTO 03007KT 40SM 30/08 A3002 RMK AO1 T03000083
TWIN BRIDGES|K7S1 022135Z AUTO 00000KT 40SM 32/M04 A3004 RMK AO1 T03171038






000
SXUS55 KMSO 022123
OSOMSO
MONTANA AWOS SUMMARY
NATIONAL WEATHER SERVICE MISSOULA MT
322 PM MDT SUN AUG 2 2015

Montana AWOS Reports

ROUNDUP     |KRPX 022115Z AUTO 00000KT 40SM 29/05 A2996 RMK AO1 T02940050
MALTA       |KM75 022115Z AUTO 00000KT 40SM 29/11 A2998 RMK AO1 T02890111






000
SXUS55 KMSO 022113
OSOMSO
MONTANA AWOS SUMMARY
NATIONAL WEATHER SERVICE MISSOULA MT
313 PM MDT SUN AUG 2 2015

Montana AWOS Reports

EKALAKA     |K97M 022055Z AUTO 00000KT 40SM 29/06 A3002 RMK AO1 T02890061
PLAINS      |KS34 022055Z AUTO 00000KT 25SM 38/03 A2991 RMK AO1 T03780033
SCOBEY      |K9S2 022055Z AUTO 36007KT 40SM 24/08 A3003 RMK AO1 T02440078






000
SXUS55 KMSO 022103
OSOMSO
MONTANA AWOS SUMMARY
NATIONAL WEATHER SERVICE MISSOULA MT
302 PM MDT SUN AUG 2 2015

Montana AWOS Reports

LAUREL      |K6S8 022055Z AUTO 03007KT 40SM 29/08 A3003 RMK AO1 T02940083
TWIN BRIDGES|K7S1 022055Z AUTO 21004KT 40SM 31/M03 A3005 RMK AO1 T03111027
ROUNDUP     |KRPX 022055Z AUTO VRB06KT 40SM 29/06 A2996 RMK AO1 T02940061
MALTA       |KM75 022055Z AUTO 00000KT 40SM 29/11 A2999 RMK AO1 T02890111






000
SXUS55 KMSO 022103
OSOMSO
MONTANA AWOS SUMMARY
NATIONAL WEATHER SERVICE MISSOULA MT
302 PM MDT SUN AUG 2 2015

Montana AWOS Reports

LAUREL      |K6S8 022055Z AUTO 03007KT 40SM 29/08 A3003 RMK AO1 T02940083
TWIN BRIDGES|K7S1 022055Z AUTO 21004KT 40SM 31/M03 A3005 RMK AO1 T03111027
ROUNDUP     |KRPX 022055Z AUTO VRB06KT 40SM 29/06 A2996 RMK AO1 T02940061
MALTA       |KM75 022055Z AUTO 00000KT 40SM 29/11 A2999 RMK AO1 T02890111






000
SXUS55 KMSO 022043
OSOMSO
MONTANA AWOS SUMMARY
NATIONAL WEATHER SERVICE MISSOULA MT
243 PM MDT SUN AUG 2 2015

Montana AWOS Reports

ROUNDUP     |KRPX 022035Z AUTO 35006KT 40SM 29/06 A2997 RMK AO1 T02890056
MALTA       |KM75 022035Z AUTO 07004KT 40SM 29/12 A2999 RMK AO1 T02890117






000
SXUS55 KMSO 022023
OSOMSO
MONTANA AWOS SUMMARY
NATIONAL WEATHER SERVICE MISSOULA MT
223 PM MDT SUN AUG 2 2015

Montana AWOS Reports

MALTA       |KM75 022015Z AUTO 00000KT 40SM 28/11 A3000 RMK AO1 T02780111
ROUNDUP     |KRPX 022015Z AUTO 00000KT 40SM 28/06 A2998 RMK AO1 T02830056






000
SXUS55 KMSO 022023
OSOMSO
MONTANA AWOS SUMMARY
NATIONAL WEATHER SERVICE MISSOULA MT
223 PM MDT SUN AUG 2 2015

Montana AWOS Reports

MALTA       |KM75 022015Z AUTO 00000KT 40SM 28/11 A3000 RMK AO1 T02780111
ROUNDUP     |KRPX 022015Z AUTO 00000KT 40SM 28/06 A2998 RMK AO1 T02830056






000
SXUS55 KMSO 022003
OSOMSO
MONTANA AWOS SUMMARY
NATIONAL WEATHER SERVICE MISSOULA MT
203 PM MDT SUN AUG 2 2015

Montana AWOS Reports

LAUREL      |K6S8 021955Z AUTO 06008KT 40SM 28/09 A3004 RMK AO1 T02830089
ROUNDUP     |KRPX 021955Z AUTO 00000KT 40SM 28/06 A2998 RMK AO1 T02830056
MALTA       |KM75 021955Z AUTO 00000KT 40SM 28/12 A3000 RMK AO1 T02780117
SCOBEY      |K9S2 021955Z AUTO 33006KT 40SM 24/07 A3003 RMK AO1 T02440072
EKALAKA     |K97M 021955Z AUTO 08009KT 40SM 28/06 A3002 RMK AO1 T02830056
PLAINS      |KS34 021955Z AUTO 00000KT 7SM 33/04 A2993 RMK AO1 T03280044






000
SXUS55 KMSO 021943
OSOMSO
MONTANA AWOS SUMMARY
NATIONAL WEATHER SERVICE MISSOULA MT
143 PM MDT SUN AUG 2 2015

Montana AWOS Reports

ROUNDUP     |KRPX 021935Z AUTO 07004KT 40SM 28/06 A2998 RMK AO1 T02780061
MALTA       |KM75 021935Z AUTO 00000KT 40SM 28/12 A3001 RMK AO1 T02780117






000
SXUS55 KMSO 021943
OSOMSO
MONTANA AWOS SUMMARY
NATIONAL WEATHER SERVICE MISSOULA MT
143 PM MDT SUN AUG 2 2015

Montana AWOS Reports

ROUNDUP     |KRPX 021935Z AUTO 07004KT 40SM 28/06 A2998 RMK AO1 T02780061
MALTA       |KM75 021935Z AUTO 00000KT 40SM 28/12 A3001 RMK AO1 T02780117






000
SXUS55 KMSO 021923
OSOMSO
MONTANA AWOS SUMMARY
NATIONAL WEATHER SERVICE MISSOULA MT
123 PM MDT SUN AUG 2 2015

Montana AWOS Reports

LAUREL      |K6S8 021915Z AUTO 02008KT 40SM 28/08 A3004 RMK AO1 T02830083
TWIN BRIDGES|K7S1 021915Z AUTO 18006KT 40SM 28/02 A3008 RMK AO1 T02780022
MALTA       |KM75 021915Z AUTO 04004KT 40SM 27/12 A3001 RMK AO1 T02720117
ROUNDUP     |KRPX 021915Z AUTO 08005KT 40SM 28/07 A2998 RMK AO1 T02780067






000
SXUS55 KMSO 021913
OSOMSO
MONTANA AWOS SUMMARY
NATIONAL WEATHER SERVICE MISSOULA MT
112 PM MDT SUN AUG 2 2015

Montana AWOS Reports

ROUNDUP     |KRPX 021855Z AUTO 00000KT 40SM 27/07 A2998 RMK AO1 T02720067
MALTA       |KM75 021855Z AUTO 00000KT 40SM 27/13 A3001 RMK AO1 T02720133
EKALAKA     |K97M 021855Z AUTO 05006KT 40SM 28/07 A3002 RMK AO1 T02780072






000
SXUS55 KMSO 021903
OSOMSO
MONTANA AWOS SUMMARY
NATIONAL WEATHER SERVICE MISSOULA MT
103 PM MDT SUN AUG 2 2015

Montana AWOS Reports

LAUREL      |K6S8 021855Z AUTO 05010G16KT 40SM 28/09 A3004 RMK AO1 T02780089
TWIN BRIDGES|K7S1 021855Z AUTO 18004KT 40SM 27/03 A3008 RMK AO1 T02720033
SCOBEY      |K9S2 021855Z AUTO 29006KT 40SM 23/08 A3003 RMK AO1 T02330083
PLAINS      |KS34 021855Z AUTO 00000KT 10SM 29/03 A2996 RMK AO1 T02940033






000
SXUS55 KMSO 021843
OSOMSO
MONTANA AWOS SUMMARY
NATIONAL WEATHER SERVICE MISSOULA MT
1243 PM MDT SUN AUG 2 2015

Montana AWOS Reports

TWIN BRIDGES|K7S1 021835Z AUTO 18004KT 40SM 26/07 A3009 RMK AO1 T02560067
LAUREL      |K6S8 021835Z AUTO 04007KT 40SM 27/09 A3005 RMK AO1 T02720089
MALTA       |KM75 021835Z AUTO 00000KT 40SM 26/12 A3001 RMK AO1 T02610122
ROUNDUP     |KRPX 021835Z AUTO 07006KT 40SM 27/07 A2999 RMK AO1 T02720067






000
SXUS55 KMSO 021843
OSOMSO
MONTANA AWOS SUMMARY
NATIONAL WEATHER SERVICE MISSOULA MT
1243 PM MDT SUN AUG 2 2015

Montana AWOS Reports

TWIN BRIDGES|K7S1 021835Z AUTO 18004KT 40SM 26/07 A3009 RMK AO1 T02560067
LAUREL      |K6S8 021835Z AUTO 04007KT 40SM 27/09 A3005 RMK AO1 T02720089
MALTA       |KM75 021835Z AUTO 00000KT 40SM 26/12 A3001 RMK AO1 T02610122
ROUNDUP     |KRPX 021835Z AUTO 07006KT 40SM 27/07 A2999 RMK AO1 T02720067






000
SXUS55 KMSO 021833
OSOMSO
MONTANA AWOS SUMMARY
NATIONAL WEATHER SERVICE MISSOULA MT
1233 PM MDT SUN AUG 2 2015

Montana AWOS Reports

ROUNDUP     |KRPX 021815Z AUTO 00000KT 40SM 26/06 A2999 RMK AO1 T02610056






000
SXUS55 KMSO 021823
OSOMSO
MONTANA AWOS SUMMARY
NATIONAL WEATHER SERVICE MISSOULA MT
1223 PM MDT SUN AUG 2 2015

Montana AWOS Reports

TWIN BRIDGES|K7S1 021815Z AUTO 00000KT 40SM 24/07 A3009 RMK AO1 T02440072
LAUREL      |K6S8 021815Z AUTO 05009G13KT 40SM 27/09 A3005 RMK AO1 T02670089
MALTA       |KM75 021815Z AUTO 00000KT 40SM 26/13 A3001 RMK AO1 T02610128






000
SXUS55 KMSO 021823
OSOMSO
MONTANA AWOS SUMMARY
NATIONAL WEATHER SERVICE MISSOULA MT
1223 PM MDT SUN AUG 2 2015

Montana AWOS Reports

TWIN BRIDGES|K7S1 021815Z AUTO 00000KT 40SM 24/07 A3009 RMK AO1 T02440072
LAUREL      |K6S8 021815Z AUTO 05009G13KT 40SM 27/09 A3005 RMK AO1 T02670089
MALTA       |KM75 021815Z AUTO 00000KT 40SM 26/13 A3001 RMK AO1 T02610128






000
SXUS55 KMSO 021803
OSOMSO
MONTANA AWOS SUMMARY
NATIONAL WEATHER SERVICE MISSOULA MT
1203 PM MDT SUN AUG 2 2015

Montana AWOS Reports

LAUREL      |K6S8 021755Z AUTO 07005KT 40SM 26/09 A3005 RMK AO1 T02610089
MALTA       |KM75 021755Z AUTO 00000KT 40SM 26/13 A3002 RMK AO1 T02560128
ROUNDUP     |KRPX 021755Z AUTO 05007KT 40SM 26/07 A2999 RMK AO1 T02610072
PLAINS      |KS34 021755Z AUTO 00000KT 25SM 27/03 A2998 RMK AO1 T02670033
EKALAKA     |K97M 021755Z AUTO 05008KT 010V090 40SM 26/07 A3003 RMK AO1 T02610067






000
SXUS55 KMSO 021743
OSOMSO
MONTANA AWOS SUMMARY
NATIONAL WEATHER SERVICE MISSOULA MT
1143 AM MDT SUN AUG 2 2015

Montana AWOS Reports

LAUREL      |K6S8 021735Z AUTO 03007KT 40SM 26/09 A3006 RMK AO1 T02610094
ROUNDUP     |KRPX 021735Z AUTO 02006KT 40SM 25/08 A2999 RMK AO1 T02500078






000
SXUS55 KMSO 021723
OSOMSO
MONTANA AWOS SUMMARY
NATIONAL WEATHER SERVICE MISSOULA MT
1123 AM MDT SUN AUG 2 2015

Montana AWOS Reports

LAUREL      |K6S8 021715Z AUTO 00000KT 40SM 26/09 A3006 RMK AO1 T02560089
ROUNDUP     |KRPX 021715Z AUTO 07006KT 40SM 24/07 A3000 RMK AO1 T02390072
MALTA       |KM75 021715Z AUTO 00000KT 40SM 24/13 A3003 RMK AO1 T02440128






000
SXUS55 KMSO 021704
OSOMSO
MONTANA AWOS SUMMARY
NATIONAL WEATHER SERVICE MISSOULA MT
1103 AM MDT SUN AUG 2 2015

Montana AWOS Reports

LAUREL      |K6S8 021655Z AUTO 02006KT 40SM 25/08 A3006 RMK AO1 T02500078
MALTA       |KM75 021655Z AUTO 00000KT 40SM 25/13 A3003 RMK AO1 T02500128
SCOBEY      |K9S2 021655Z AUTO 32008KT 25SM 21/08 A3003 RMK AO1 T02110078
ROUNDUP     |KRPX 021655Z AUTO 00000KT 40SM 23/08 A3000 RMK AO1 T02330083
EKALAKA     |K97M 021655Z AUTO 06009G14KT 40SM 26/08 A3003 RMK AO1 T02560078
PLAINS      |KS34 021655Z AUTO 00000KT 25SM 23/03 A3001 RMK AO1 T02280028






000
SXUS55 KMSO 021704
OSOMSO
MONTANA AWOS SUMMARY
NATIONAL WEATHER SERVICE MISSOULA MT
1103 AM MDT SUN AUG 2 2015

Montana AWOS Reports

LAUREL      |K6S8 021655Z AUTO 02006KT 40SM 25/08 A3006 RMK AO1 T02500078
MALTA       |KM75 021655Z AUTO 00000KT 40SM 25/13 A3003 RMK AO1 T02500128
SCOBEY      |K9S2 021655Z AUTO 32008KT 25SM 21/08 A3003 RMK AO1 T02110078
ROUNDUP     |KRPX 021655Z AUTO 00000KT 40SM 23/08 A3000 RMK AO1 T02330083
EKALAKA     |K97M 021655Z AUTO 06009G14KT 40SM 26/08 A3003 RMK AO1 T02560078
PLAINS      |KS34 021655Z AUTO 00000KT 25SM 23/03 A3001 RMK AO1 T02280028






000
SXUS55 KMSO 021653
OSOMSO
MONTANA AWOS SUMMARY
NATIONAL WEATHER SERVICE MISSOULA MT
1053 AM MDT SUN AUG 2 2015

Montana AWOS Reports

ROUNDUP     |KRPX 021635Z AUTO 03008KT 40SM 23/08 A3000 RMK AO1 T02330083
MALTA       |KM75 021635Z AUTO 00000KT 40SM 24/13 A3003 RMK AO1 T02390128






000
SXUS55 KMSO 021653
OSOMSO
MONTANA AWOS SUMMARY
NATIONAL WEATHER SERVICE MISSOULA MT
1053 AM MDT SUN AUG 2 2015

Montana AWOS Reports

ROUNDUP     |KRPX 021635Z AUTO 03008KT 40SM 23/08 A3000 RMK AO1 T02330083
MALTA       |KM75 021635Z AUTO 00000KT 40SM 24/13 A3003 RMK AO1 T02390128






000
SXUS55 KMSO 021643
OSOMSO
MONTANA AWOS SUMMARY
NATIONAL WEATHER SERVICE MISSOULA MT
1042 AM MDT SUN AUG 2 2015

Montana AWOS Reports

LAUREL      |K6S8 021635Z AUTO 00000KT 40SM 24/08 A3005 RMK AO1 T02440078






000
SXUS55 KMSO 021643
OSOMSO
MONTANA AWOS SUMMARY
NATIONAL WEATHER SERVICE MISSOULA MT
1042 AM MDT SUN AUG 2 2015

Montana AWOS Reports

LAUREL      |K6S8 021635Z AUTO 00000KT 40SM 24/08 A3005 RMK AO1 T02440078






000
SXUS55 KMSO 021623
OSOMSO
MONTANA AWOS SUMMARY
NATIONAL WEATHER SERVICE MISSOULA MT
1023 AM MDT SUN AUG 2 2015

Montana AWOS Reports

LAUREL      |K6S8 021615Z AUTO 00000KT 40SM 24/07 A3006 RMK AO1 T02390072
TWIN BRIDGES|K7S1 021615Z AUTO 00000KT 40SM 20/06 A3012 RMK AO1 T02000056
ROUNDUP     |KRPX 021615Z AUTO 02006KT 40SM 22/08 A3000 RMK AO1 T02220078
MALTA       |KM75 021615Z AUTO 00000KT 40SM 23/12 A3003 RMK AO1 T02280122






000
SXUS55 KMSO 021623
OSOMSO
MONTANA AWOS SUMMARY
NATIONAL WEATHER SERVICE MISSOULA MT
1023 AM MDT SUN AUG 2 2015

Montana AWOS Reports

LAUREL      |K6S8 021615Z AUTO 00000KT 40SM 24/07 A3006 RMK AO1 T02390072
TWIN BRIDGES|K7S1 021615Z AUTO 00000KT 40SM 20/06 A3012 RMK AO1 T02000056
ROUNDUP     |KRPX 021615Z AUTO 02006KT 40SM 22/08 A3000 RMK AO1 T02220078
MALTA       |KM75 021615Z AUTO 00000KT 40SM 23/12 A3003 RMK AO1 T02280122






000
SXUS55 KMSO 021603
OSOMSO
MONTANA AWOS SUMMARY
NATIONAL WEATHER SERVICE MISSOULA MT
1002 AM MDT SUN AUG 2 2015

Montana AWOS Reports

LAUREL      |K6S8 021555Z AUTO 03005KT 40SM 23/07 A3005 RMK AO1 T02330067
TWIN BRIDGES|K7S1 021555Z AUTO 17005KT 40SM 19/05 A3012 RMK AO1 T01890050
SCOBEY      |K9S2 021555Z AUTO 32007KT 40SM 21/08 A3003 RMK AO1 T02060083
PLAINS      |KS34 021555Z AUTO 00000KT 25SM 17/04 A3002 RMK AO1 T01670039
ROUNDUP     |KRPX 021555Z AUTO 02006KT 40SM 22/08 A3000 RMK AO1 T02220083
MALTA       |KM75 021555Z AUTO 00000KT 40SM 22/13 A3003 RMK AO1 T02220128
EKALAKA     |K97M 021555Z AUTO 03012G16KT 40SM 24/07 A3002 RMK AO1 T02390072






000
SXUS55 KMSO 021543
OSOMSO
MONTANA AWOS SUMMARY
NATIONAL WEATHER SERVICE MISSOULA MT
943 AM MDT SUN AUG 2 2015

Montana AWOS Reports

ROUNDUP     |KRPX 021535Z AUTO 00000KT 40SM 22/09 A3000 RMK AO1 T02170089
MALTA       |KM75 021535Z AUTO 00000KT 40SM 22/12 A3003 RMK AO1 T02170122






000
SXUS55 KMSO 021524
OSOMSO
MONTANA AWOS SUMMARY
NATIONAL WEATHER SERVICE MISSOULA MT
923 AM MDT SUN AUG 2 2015

Montana AWOS Reports

LAUREL      |K6S8 021515Z AUTO 00000KT 40SM 21/06 A3004 RMK AO1 T02110056
TWIN BRIDGES|K7S1 021515Z AUTO 12004KT 40SM 17/06 A3012 RMK AO1 T01720056
MALTA       |KM75 021515Z AUTO 00000KT 40SM 21/13 A3002 RMK AO1 T02110128
ROUNDUP     |KRPX 021515Z AUTO 01008KT 40SM 21/08 A2999 RMK AO1 T02110083






000
SXUS55 KMSO 021524
OSOMSO
MONTANA AWOS SUMMARY
NATIONAL WEATHER SERVICE MISSOULA MT
923 AM MDT SUN AUG 2 2015

Montana AWOS Reports

LAUREL      |K6S8 021515Z AUTO 00000KT 40SM 21/06 A3004 RMK AO1 T02110056
TWIN BRIDGES|K7S1 021515Z AUTO 12004KT 40SM 17/06 A3012 RMK AO1 T01720056
MALTA       |KM75 021515Z AUTO 00000KT 40SM 21/13 A3002 RMK AO1 T02110128
ROUNDUP     |KRPX 021515Z AUTO 01008KT 40SM 21/08 A2999 RMK AO1 T02110083






000
SXUS55 KMSO 021513
OSOMSO
MONTANA AWOS SUMMARY
NATIONAL WEATHER SERVICE MISSOULA MT
913 AM MDT SUN AUG 2 2015

Montana AWOS Reports

SCOBEY      |K9S2 021455Z AUTO 33007KT 40SM 18/10 A3004 RMK AO1 T01830100
PLAINS      |KS34 021455Z AUTO 00000KT 25SM 14/03 A3002 RMK AO1 T01390028






000
SXUS55 KMSO 021513
OSOMSO
MONTANA AWOS SUMMARY
NATIONAL WEATHER SERVICE MISSOULA MT
913 AM MDT SUN AUG 2 2015

Montana AWOS Reports

SCOBEY      |K9S2 021455Z AUTO 33007KT 40SM 18/10 A3004 RMK AO1 T01830100
PLAINS      |KS34 021455Z AUTO 00000KT 25SM 14/03 A3002 RMK AO1 T01390028






000
SXUS55 KMSO 021503
OSOMSO
MONTANA AWOS SUMMARY
NATIONAL WEATHER SERVICE MISSOULA MT
903 AM MDT SUN AUG 2 2015

Montana AWOS Reports

LAUREL      |K6S8 021455Z AUTO 00000KT 40SM 21/05 A3004 RMK AO1 T02110050
TWIN BRIDGES|K7S1 021455Z AUTO 00000KT 40SM 15/06 A3012 RMK AO1 T01500056
ROUNDUP     |KRPX 021455Z AUTO 02007KT 40SM 20/08 A2998 RMK AO1 T02000083
MALTA       |KM75 021455Z AUTO 00000KT 40SM 20/12 A3002 RMK AO1 T02000122






000
SXUS55 KMSO 021503
OSOMSO
MONTANA AWOS SUMMARY
NATIONAL WEATHER SERVICE MISSOULA MT
903 AM MDT SUN AUG 2 2015

Montana AWOS Reports

LAUREL      |K6S8 021455Z AUTO 00000KT 40SM 21/05 A3004 RMK AO1 T02110050
TWIN BRIDGES|K7S1 021455Z AUTO 00000KT 40SM 15/06 A3012 RMK AO1 T01500056
ROUNDUP     |KRPX 021455Z AUTO 02007KT 40SM 20/08 A2998 RMK AO1 T02000083
MALTA       |KM75 021455Z AUTO 00000KT 40SM 20/12 A3002 RMK AO1 T02000122






000
SXUS55 KMSO 021453
OSOMSO
MONTANA AWOS SUMMARY
NATIONAL WEATHER SERVICE MISSOULA MT
852 AM MDT SUN AUG 2 2015

Montana AWOS Reports

ROUNDUP     |KRPX 021435Z AUTO 01009G15KT 40SM 19/08 A2997 RMK AO1 T01940083






000
SXUS55 KMSO 021443
OSOMSO
MONTANA AWOS SUMMARY
NATIONAL WEATHER SERVICE MISSOULA MT
843 AM MDT SUN AUG 2 2015

Montana AWOS Reports

LAUREL      |K6S8 021435Z AUTO 34005KT 40SM 21/07 A3004 RMK AO1 T02060067
TWIN BRIDGES|K7S1 021435Z AUTO 00000KT 40SM 14/06 A3012 RMK AO1 T01440056
MALTA       |KM75 021435Z AUTO 00000KT 40SM 18/12 A3002 RMK AO1 T01830117






000
SXUS55 KMSO 021423
OSOMSO
MONTANA AWOS SUMMARY
NATIONAL WEATHER SERVICE MISSOULA MT
823 AM MDT SUN AUG 2 2015

Montana AWOS Reports

LAUREL      |K6S8 021415Z AUTO 00000KT 40SM 21/04 A3003 RMK AO1 T02060044
MALTA       |KM75 021415Z AUTO 00000KT 40SM 17/12 A3002 RMK AO1 T01720122
ROUNDUP     |KRPX 021415Z AUTO 02010G15KT 40SM 19/09 A2997 RMK AO1 T01940094






000
SXUS55 KMSO 021423
OSOMSO
MONTANA AWOS SUMMARY
NATIONAL WEATHER SERVICE MISSOULA MT
823 AM MDT SUN AUG 2 2015

Montana AWOS Reports

LAUREL      |K6S8 021415Z AUTO 00000KT 40SM 21/04 A3003 RMK AO1 T02060044
MALTA       |KM75 021415Z AUTO 00000KT 40SM 17/12 A3002 RMK AO1 T01720122
ROUNDUP     |KRPX 021415Z AUTO 02010G15KT 40SM 19/09 A2997 RMK AO1 T01940094






000
SXUS55 KMSO 021403
OSOMSO
MONTANA AWOS SUMMARY
NATIONAL WEATHER SERVICE MISSOULA MT
803 AM MDT SUN AUG 2 2015

Montana AWOS Reports

ROUNDUP     |KRPX 021355Z AUTO 01009G15KT 40SM 19/10 A2996 RMK AO1 T01890100
MALTA       |KM75 021355Z AUTO 00000KT 40SM 16/12 A3002 RMK AO1 T01610117
SCOBEY      |K9S2 021355Z AUTO 34006KT 40SM 16/12 A3002 RMK AO1 T01560117






000
SXUS55 KMSO 021403
OSOMSO
MONTANA AWOS SUMMARY
NATIONAL WEATHER SERVICE MISSOULA MT
803 AM MDT SUN AUG 2 2015

Montana AWOS Reports

ROUNDUP     |KRPX 021355Z AUTO 01009G15KT 40SM 19/10 A2996 RMK AO1 T01890100
MALTA       |KM75 021355Z AUTO 00000KT 40SM 16/12 A3002 RMK AO1 T01610117
SCOBEY      |K9S2 021355Z AUTO 34006KT 40SM 16/12 A3002 RMK AO1 T01560117






000
SXUS55 KMSO 021343
OSOMSO
MONTANA AWOS SUMMARY
NATIONAL WEATHER SERVICE MISSOULA MT
743 AM MDT SUN AUG 2 2015

Montana AWOS Reports

LAUREL      |K6S8 021335Z AUTO 00000KT 40SM 19/02 A3001 RMK AO1 T01940022
MALTA       |KM75 021335Z AUTO 00000KT 40SM 16/12 A3002 RMK AO1 T01560117
ROUNDUP     |KRPX 021335Z AUTO 34009G14KT 40SM 18/10 A2996 RMK AO1 T01780100






000
SXUS55 KMSO 021334
OSOMSO
MONTANA AWOS SUMMARY
NATIONAL WEATHER SERVICE MISSOULA MT
733 AM MDT SUN AUG 2 2015

Montana AWOS Reports

SCOBEY      |K9S2 021255Z AUTO 36004KT 40SM 13/11 A3001 RMK AO1 T01280106
EKALAKA     |K97M 021255Z AUTO 05005KT 40SM 19/05 A2998 RMK AO1 T01890050






000
SXUS55 KMSO 021334
OSOMSO
MONTANA AWOS SUMMARY
NATIONAL WEATHER SERVICE MISSOULA MT
733 AM MDT SUN AUG 2 2015

Montana AWOS Reports

SCOBEY      |K9S2 021255Z AUTO 36004KT 40SM 13/11 A3001 RMK AO1 T01280106
EKALAKA     |K97M 021255Z AUTO 05005KT 40SM 19/05 A2998 RMK AO1 T01890050






000
SXUS55 KMSO 021323
OSOMSO
MONTANA AWOS SUMMARY
NATIONAL WEATHER SERVICE MISSOULA MT
723 AM MDT SUN AUG 2 2015

Montana AWOS Reports

LAUREL      |K6S8 021315Z AUTO 00000KT 40SM 19/02 A3001 RMK AO1 T01890017
TWIN BRIDGES|K7S1 021315Z AUTO 08004KT 40SM 11/04 A3011 RMK AO1 T01060039
MALTA       |KM75 021315Z AUTO 00000KT 40SM 14/12 A3002 RMK AO1 T01440117






000
SXUS55 KMSO 021323
OSOMSO
MONTANA AWOS SUMMARY
NATIONAL WEATHER SERVICE MISSOULA MT
723 AM MDT SUN AUG 2 2015

Montana AWOS Reports

LAUREL      |K6S8 021315Z AUTO 00000KT 40SM 19/02 A3001 RMK AO1 T01890017
TWIN BRIDGES|K7S1 021315Z AUTO 08004KT 40SM 11/04 A3011 RMK AO1 T01060039
MALTA       |KM75 021315Z AUTO 00000KT 40SM 14/12 A3002 RMK AO1 T01440117






000
SXUS55 KMSO 021313
OSOMSO
MONTANA AWOS SUMMARY
NATIONAL WEATHER SERVICE MISSOULA MT
712 AM MDT SUN AUG 2 2015

Montana AWOS Reports

MALTA       |KM75 021255Z AUTO 00000KT 40SM 14/11 A3001 RMK AO1 T01390111
ROUNDUP     |KRPX 021255Z AUTO 34004KT 40SM 16/09 A2995 RMK AO1 T01610094
PLAINS      |KS34 021255Z AUTO 00000KT 25SM 08/01 A3000 RMK AO1 T00830011






000
SXUS55 KMSO 021313
OSOMSO
MONTANA AWOS SUMMARY
NATIONAL WEATHER SERVICE MISSOULA MT
712 AM MDT SUN AUG 2 2015

Montana AWOS Reports

MALTA       |KM75 021255Z AUTO 00000KT 40SM 14/11 A3001 RMK AO1 T01390111
ROUNDUP     |KRPX 021255Z AUTO 34004KT 40SM 16/09 A2995 RMK AO1 T01610094
PLAINS      |KS34 021255Z AUTO 00000KT 25SM 08/01 A3000 RMK AO1 T00830011






000
SXUS55 KMSO 021303
OSOMSO
MONTANA AWOS SUMMARY
NATIONAL WEATHER SERVICE MISSOULA MT
703 AM MDT SUN AUG 2 2015

Montana AWOS Reports

LAUREL      |K6S8 021255Z AUTO 00000KT 40SM 18/01 A3000 RMK AO1 T01830011
TWIN BRIDGES|K7S1 021255Z AUTO 00000KT 40SM 09/03 A3011 RMK AO1 T00890028






000
SXUS55 KMSO 021253
OSOMSO
MONTANA AWOS SUMMARY
NATIONAL WEATHER SERVICE MISSOULA MT
652 AM MDT SUN AUG 2 2015

Montana AWOS Reports

ROUNDUP     |KRPX 021235Z AUTO 35006KT 40SM 16/09 A2994 RMK AO1 T01560094






000
SXUS55 KMSO 021243
OSOMSO
MONTANA AWOS SUMMARY
NATIONAL WEATHER SERVICE MISSOULA MT
643 AM MDT SUN AUG 2 2015

Montana AWOS Reports

TWIN BRIDGES|K7S1 021235Z AUTO 00000KT 40SM 09/03 A3010 RMK AO1 T00890028
LAUREL      |K6S8 021235Z AUTO 00000KT 40SM 17/01 A3000 RMK AO1 T01720011
MALTA       |KM75 021235Z AUTO 00000KT 40SM 13/10 A3001 RMK AO1 T01280100






000
SXUS55 KMSO 021233
OSOMSO
MONTANA AWOS SUMMARY
NATIONAL WEATHER SERVICE MISSOULA MT
633 AM MDT SUN AUG 2 2015

Montana AWOS Reports

ROUNDUP     |KRPX 021215Z AUTO 34004KT 40SM 15/09 A2994 RMK AO1 T01500089
MALTA       |KM75 021215Z AUTO 00000KT 40SM 13/10 A3000 RMK AO1 T01330100






000
SXUS55 KMSO 021233
OSOMSO
MONTANA AWOS SUMMARY
NATIONAL WEATHER SERVICE MISSOULA MT
633 AM MDT SUN AUG 2 2015

Montana AWOS Reports

ROUNDUP     |KRPX 021215Z AUTO 34004KT 40SM 15/09 A2994 RMK AO1 T01500089
MALTA       |KM75 021215Z AUTO 00000KT 40SM 13/10 A3000 RMK AO1 T01330100






000
SXUS55 KMSO 021223
OSOMSO
MONTANA AWOS SUMMARY
NATIONAL WEATHER SERVICE MISSOULA MT
623 AM MDT SUN AUG 2 2015

Montana AWOS Reports

LAUREL      |K6S8 021215Z AUTO 00000KT 40SM 18/01 A2999 RMK AO1 T01780011
TWIN BRIDGES|K7S1 021215Z AUTO 00000KT 40SM 11/03 A3010 RMK AO1 T01060033






000
SXUS55 KMSO 021223
OSOMSO
MONTANA AWOS SUMMARY
NATIONAL WEATHER SERVICE MISSOULA MT
623 AM MDT SUN AUG 2 2015

Montana AWOS Reports

LAUREL      |K6S8 021215Z AUTO 00000KT 40SM 18/01 A2999 RMK AO1 T01780011
TWIN BRIDGES|K7S1 021215Z AUTO 00000KT 40SM 11/03 A3010 RMK AO1 T01060033






000
SXUS55 KMSO 021213
OSOMSO
MONTANA AWOS SUMMARY
NATIONAL WEATHER SERVICE MISSOULA MT
613 AM MDT SUN AUG 2 2015

Montana AWOS Reports

EKALAKA     |K97M 021155Z AUTO 12005KT 40SM 17/07 A2997 RMK AO1 T01670067






000
SXUS55 KMSO 021213
OSOMSO
MONTANA AWOS SUMMARY
NATIONAL WEATHER SERVICE MISSOULA MT
613 AM MDT SUN AUG 2 2015

Montana AWOS Reports

EKALAKA     |K97M 021155Z AUTO 12005KT 40SM 17/07 A2997 RMK AO1 T01670067






000
SXUS55 KMSO 021203
OSOMSO
MONTANA AWOS SUMMARY
NATIONAL WEATHER SERVICE MISSOULA MT
603 AM MDT SUN AUG 2 2015

Montana AWOS Reports

LAUREL      |K6S8 021155Z AUTO 00000KT 40SM 18/01 A2997 RMK AO1 T01830006
MALTA       |KM75 021155Z AUTO 00000KT 40SM 14/10 A2999 RMK AO1 T01390100
ROUNDUP     |KRPX 021155Z AUTO 00000KT 40SM 16/09 A2993 RMK AO1 T01560089
SCOBEY      |K9S2 021155Z AUTO 00000KT 25SM 11/08 A3000 RMK AO1 T01060078
PLAINS      |KS34 021155Z AUTO 00000KT 25SM 09/03 A2998 RMK AO1 T00940028






000
SXUS55 KMSO 021203
OSOMSO
MONTANA AWOS SUMMARY
NATIONAL WEATHER SERVICE MISSOULA MT
603 AM MDT SUN AUG 2 2015

Montana AWOS Reports

LAUREL      |K6S8 021155Z AUTO 00000KT 40SM 18/01 A2997 RMK AO1 T01830006
MALTA       |KM75 021155Z AUTO 00000KT 40SM 14/10 A2999 RMK AO1 T01390100
ROUNDUP     |KRPX 021155Z AUTO 00000KT 40SM 16/09 A2993 RMK AO1 T01560089
SCOBEY      |K9S2 021155Z AUTO 00000KT 25SM 11/08 A3000 RMK AO1 T01060078
PLAINS      |KS34 021155Z AUTO 00000KT 25SM 09/03 A2998 RMK AO1 T00940028






000
SXUS55 KMSO 021153
OSOMSO
MONTANA AWOS SUMMARY
NATIONAL WEATHER SERVICE MISSOULA MT
553 AM MDT SUN AUG 2 2015

Montana AWOS Reports

ROUNDUP     |KRPX 021135Z AUTO 01004KT 40SM 16/09 A2992 RMK AO1 T01560089
MALTA       |KM75 021135Z AUTO 00000KT 40SM 14/10 A2999 RMK AO1 T01440100






000
SXUS55 KMSO 021143
OSOMSO
MONTANA AWOS SUMMARY
NATIONAL WEATHER SERVICE MISSOULA MT
542 AM MDT SUN AUG 2 2015

Montana AWOS Reports

LAUREL      |K6S8 021135Z AUTO 00000KT 40SM 16/01 A2997 RMK AO1 T01560006
TWIN BRIDGES|K7S1 021135Z AUTO 00000KT 40SM 11/03 A3009 RMK AO1 T01110033






000
SXUS55 KMSO 021143
OSOMSO
MONTANA AWOS SUMMARY
NATIONAL WEATHER SERVICE MISSOULA MT
542 AM MDT SUN AUG 2 2015

Montana AWOS Reports

LAUREL      |K6S8 021135Z AUTO 00000KT 40SM 16/01 A2997 RMK AO1 T01560006
TWIN BRIDGES|K7S1 021135Z AUTO 00000KT 40SM 11/03 A3009 RMK AO1 T01110033






000
SXUS55 KMSO 021123
OSOMSO
MONTANA AWOS SUMMARY
NATIONAL WEATHER SERVICE MISSOULA MT
523 AM MDT SUN AUG 2 2015

Montana AWOS Reports

ROUNDUP     |KRPX 021115Z AUTO 02004KT 40SM 17/09 A2991 RMK AO1 T01670089
MALTA       |KM75 021115Z AUTO 00000KT 40SM 15/10 A2998 RMK AO1 T01500100






000
SXUS55 KMSO 021123
OSOMSO
MONTANA AWOS SUMMARY
NATIONAL WEATHER SERVICE MISSOULA MT
523 AM MDT SUN AUG 2 2015

Montana AWOS Reports

ROUNDUP     |KRPX 021115Z AUTO 02004KT 40SM 17/09 A2991 RMK AO1 T01670089
MALTA       |KM75 021115Z AUTO 00000KT 40SM 15/10 A2998 RMK AO1 T01500100






000
SXUS55 KMSO 021113
OSOMSO
MONTANA AWOS SUMMARY
NATIONAL WEATHER SERVICE MISSOULA MT
513 AM MDT SUN AUG 2 2015

Montana AWOS Reports

ROUNDUP     |KRPX 021055Z AUTO 02007KT 40SM 16/08 A2991 RMK AO1 T01610078
MALTA       |KM75 021055Z AUTO 00000KT 40SM 15/10 A2998 RMK AO1 T01500100
SCOBEY      |K9S2 021055Z AUTO 00000KT 25SM 11/08 A2998 RMK AO1 T01060078
PLAINS      |KS34 021055Z AUTO 00000KT 40SM 11/03 A2997 RMK AO1 T01060028






000
SXUS55 KMSO 021113
OSOMSO
MONTANA AWOS SUMMARY
NATIONAL WEATHER SERVICE MISSOULA MT
513 AM MDT SUN AUG 2 2015

Montana AWOS Reports

ROUNDUP     |KRPX 021055Z AUTO 02007KT 40SM 16/08 A2991 RMK AO1 T01610078
MALTA       |KM75 021055Z AUTO 00000KT 40SM 15/10 A2998 RMK AO1 T01500100
SCOBEY      |K9S2 021055Z AUTO 00000KT 25SM 11/08 A2998 RMK AO1 T01060078
PLAINS      |KS34 021055Z AUTO 00000KT 40SM 11/03 A2997 RMK AO1 T01060028






000
SXUS55 KMSO 021104
OSOMSO
MONTANA AWOS SUMMARY
NATIONAL WEATHER SERVICE MISSOULA MT
503 AM MDT SUN AUG 2 2015

Montana AWOS Reports

LAUREL      |K6S8 021055Z AUTO 00000KT 40SM 16/01 A2996 RMK AO1 T01610011
TWIN BRIDGES|K7S1 021055Z AUTO 00000KT 40SM 11/03 A3009 RMK AO1 T01110033
EKALAKA     |K97M 021055Z AUTO 00000KT 40SM 17/07 A2997 RMK AO1 T01720067






000
SXUS55 KMSO 021043
OSOMSO
MONTANA AWOS SUMMARY
NATIONAL WEATHER SERVICE MISSOULA MT
443 AM MDT SUN AUG 2 2015

Montana AWOS Reports

LAUREL      |K6S8 021035Z AUTO 00000KT 40SM 17/02 A2996 RMK AO1 T01670022
TWIN BRIDGES|K7S1 021035Z AUTO 00000KT 40SM 11/03 A3009 RMK AO1 T01060033
ROUNDUP     |KRPX 021035Z AUTO 01008KT 40SM 16/07 A2990 RMK AO1 T01610067
MALTA       |KM75 021035Z AUTO 00000KT 40SM 16/10 A2997 RMK AO1 T01560100






000
SXUS55 KMSO 021023
OSOMSO
MONTANA AWOS SUMMARY
NATIONAL WEATHER SERVICE MISSOULA MT
423 AM MDT SUN AUG 2 2015

Montana AWOS Reports

ROUNDUP     |KRPX 021015Z AUTO 00000KT 40SM 16/04 A2990 RMK AO1 T01610044
MALTA       |KM75 021015Z AUTO 00000KT 40SM 16/10 A2997 RMK AO1 T01560100






000
SXUS55 KMSO 021023
OSOMSO
MONTANA AWOS SUMMARY
NATIONAL WEATHER SERVICE MISSOULA MT
423 AM MDT SUN AUG 2 2015

Montana AWOS Reports

ROUNDUP     |KRPX 021015Z AUTO 00000KT 40SM 16/04 A2990 RMK AO1 T01610044
MALTA       |KM75 021015Z AUTO 00000KT 40SM 16/10 A2997 RMK AO1 T01560100






000
SXUS55 KMSO 021003
OSOMSO
MONTANA AWOS SUMMARY
NATIONAL WEATHER SERVICE MISSOULA MT
402 AM MDT SUN AUG 2 2015

Montana AWOS Reports

ROUNDUP     |KRPX 020955Z AUTO 00000KT 40SM 16/03 A2990 RMK AO1 T01610028
MALTA       |KM75 020955Z AUTO 00000KT 40SM 16/11 A2997 RMK AO1 T01610106
SCOBEY      |K9S2 020955Z AUTO 00000KT 25SM 11/08 A2996 RMK AO1 T01060078
PLAINS      |KS34 020955Z AUTO 00000KT 25SM 12/03 A2997 RMK AO1 T01170028
EKALAKA     |K97M 020955Z AUTO 05006KT 40SM 18/08 A2995 RMK AO1 T01830078






000
SXUS55 KMSO 021003
OSOMSO
MONTANA AWOS SUMMARY
NATIONAL WEATHER SERVICE MISSOULA MT
402 AM MDT SUN AUG 2 2015

Montana AWOS Reports

ROUNDUP     |KRPX 020955Z AUTO 00000KT 40SM 16/03 A2990 RMK AO1 T01610028
MALTA       |KM75 020955Z AUTO 00000KT 40SM 16/11 A2997 RMK AO1 T01610106
SCOBEY      |K9S2 020955Z AUTO 00000KT 25SM 11/08 A2996 RMK AO1 T01060078
PLAINS      |KS34 020955Z AUTO 00000KT 25SM 12/03 A2997 RMK AO1 T01170028
EKALAKA     |K97M 020955Z AUTO 05006KT 40SM 18/08 A2995 RMK AO1 T01830078






000
SXUS55 KMSO 020943
OSOMSO
MONTANA AWOS SUMMARY
NATIONAL WEATHER SERVICE MISSOULA MT
343 AM MDT SUN AUG 2 2015

Montana AWOS Reports

MALTA       |KM75 020935Z AUTO 00000KT 40SM 17/11 A2996 RMK AO1 T01670106
ROUNDUP     |KRPX 020935Z AUTO 00000KT 40SM 16/02 A2989 RMK AO1 T01560017






000
SXUS55 KMSO 020923
OSOMSO
MONTANA AWOS SUMMARY
NATIONAL WEATHER SERVICE MISSOULA MT
323 AM MDT SUN AUG 2 2015

Montana AWOS Reports

TWIN BRIDGES|K7S1 020915Z AUTO 00000KT 40SM 12/03 A3008 RMK AO1 T01170033
LAUREL      |K6S8 020915Z AUTO 00000KT 40SM 18/02 A2994 RMK AO1 T01830017
MALTA       |KM75 020915Z AUTO 00000KT 40SM 17/11 A2995 RMK AO1 T01670111
ROUNDUP     |KRPX 020915Z AUTO 00000KT 40SM 15/01 A2989 RMK AO1 T01500006






000
SXUS55 KMSO 020913
OSOMSO
MONTANA AWOS SUMMARY
NATIONAL WEATHER SERVICE MISSOULA MT
312 AM MDT SUN AUG 2 2015

Montana AWOS Reports

ROUNDUP     |KRPX 020855Z AUTO 00000KT 40SM 16/01 A2988 RMK AO1 T01560011
MALTA       |KM75 020855Z AUTO 00000KT 40SM 17/11 A2995 RMK AO1 T01720106
SCOBEY      |K9S2 020855Z AUTO 00000KT 15SM 11/08 A2995 RMK AO1 T01110083
PLAINS      |KS34 020855Z AUTO 00000KT 40SM 12/03 A2996 RMK AO1 T01220033






000
SXUS55 KMSO 020913
OSOMSO
MONTANA AWOS SUMMARY
NATIONAL WEATHER SERVICE MISSOULA MT
312 AM MDT SUN AUG 2 2015

Montana AWOS Reports

ROUNDUP     |KRPX 020855Z AUTO 00000KT 40SM 16/01 A2988 RMK AO1 T01560011
MALTA       |KM75 020855Z AUTO 00000KT 40SM 17/11 A2995 RMK AO1 T01720106
SCOBEY      |K9S2 020855Z AUTO 00000KT 15SM 11/08 A2995 RMK AO1 T01110083
PLAINS      |KS34 020855Z AUTO 00000KT 40SM 12/03 A2996 RMK AO1 T01220033






000
SXUS55 KMSO 020903
OSOMSO
MONTANA AWOS SUMMARY
NATIONAL WEATHER SERVICE MISSOULA MT
303 AM MDT SUN AUG 2 2015

Montana AWOS Reports

LAUREL      |K6S8 020855Z AUTO 00000KT 40SM 19/02 A2994 RMK AO1 T01890022
TWIN BRIDGES|K7S1 020855Z AUTO 00000KT 40SM 12/03 A3008 RMK AO1 T01220033






000
SXUS55 KMSO 020843
OSOMSO
MONTANA AWOS SUMMARY
NATIONAL WEATHER SERVICE MISSOULA MT
243 AM MDT SUN AUG 2 2015

Montana AWOS Reports

LAUREL      |K6S8 020835Z AUTO 00000KT 40SM 19/02 A2994 RMK AO1 T01890017
MALTA       |KM75 020835Z AUTO 00000KT 40SM 18/11 A2995 RMK AO1 T01830111
ROUNDUP     |KRPX 020835Z AUTO 00000KT 40SM 17/01 A2988 RMK AO1 T01720006






000
SXUS55 KMSO 020833
OSOMSO
MONTANA AWOS SUMMARY
NATIONAL WEATHER SERVICE MISSOULA MT
233 AM MDT SUN AUG 2 2015

Montana AWOS Reports

ROUNDUP     |KRPX 020815Z AUTO 00000KT 40SM 17/01 A2989 RMK AO1 T01720006






000
SXUS55 KMSO 020823
OSOMSO
MONTANA AWOS SUMMARY
NATIONAL WEATHER SERVICE MISSOULA MT
223 AM MDT SUN AUG 2 2015

Montana AWOS Reports

LAUREL      |K6S8 020815Z AUTO 00000KT 40SM 19/03 A2994 RMK AO1 T01940028
TWIN BRIDGES|K7S1 020815Z AUTO 09004KT 40SM 12/04 A3007 RMK AO1 T01220039
MALTA       |KM75 020815Z AUTO 00000KT 40SM 18/11 A2994 RMK AO1 T01830111






000
SXUS55 KMSO 020823
OSOMSO
MONTANA AWOS SUMMARY
NATIONAL WEATHER SERVICE MISSOULA MT
223 AM MDT SUN AUG 2 2015

Montana AWOS Reports

LAUREL      |K6S8 020815Z AUTO 00000KT 40SM 19/03 A2994 RMK AO1 T01940028
TWIN BRIDGES|K7S1 020815Z AUTO 09004KT 40SM 12/04 A3007 RMK AO1 T01220039
MALTA       |KM75 020815Z AUTO 00000KT 40SM 18/11 A2994 RMK AO1 T01830111






000
SXUS55 KMSO 020803
OSOMSO
MONTANA AWOS SUMMARY
NATIONAL WEATHER SERVICE MISSOULA MT
203 AM MDT SUN AUG 2 2015

Montana AWOS Reports

LAUREL      |K6S8 020755Z AUTO 00000KT 40SM 21/00 A2994 RMK AO1 T02060000
TWIN BRIDGES|K7S1 020755Z AUTO 00000KT 40SM 13/04 A3007 RMK AO1 T01330044
MALTA       |KM75 020755Z AUTO 00000KT 40SM 18/11 A2993 RMK AO1 T01830111
PLAINS      |KS34 020755Z AUTO 00000KT 25SM 14/03 A2996 RMK AO1 T01390028
ROUNDUP     |KRPX 020755Z AUTO 00000KT 40SM 18/01 A2989 RMK AO1 T01780011
SCOBEY      |K9S2 020755Z AUTO 00000KT 25SM 12/08 A2995 RMK AO1 T01170083
EKALAKA     |K97M 020755Z AUTO 00000KT 40SM 21/00 A2993 RMK AO1 T02110000






000
SXUS55 KMSO 020744
OSOMSO
MONTANA AWOS SUMMARY
NATIONAL WEATHER SERVICE MISSOULA MT
143 AM MDT SUN AUG 2 2015

Montana AWOS Reports

LAUREL      |K6S8 020735Z AUTO 00000KT 40SM 21/01 A2995 RMK AO1 T02060006
TWIN BRIDGES|K7S1 020735Z AUTO 11004KT 40SM 15/03 A3007 RMK AO1 T01500033
ROUNDUP     |KRPX 020735Z AUTO 00000KT 40SM 18/00 A2988 RMK AO1 T01780000
MALTA       |KM75 020735Z AUTO 00000KT 40SM 19/12 A2993 RMK AO1 T01890117






000
SXUS55 KMSO 020733
OSOMSO
MONTANA AWOS SUMMARY
NATIONAL WEATHER SERVICE MISSOULA MT
132 AM MDT SUN AUG 2 2015

Montana AWOS Reports

ROUNDUP     |KRPX 020715Z AUTO 00000KT 40SM 18/01 A2988 RMK AO1 T01780011






000
SXUS55 KMSO 020733
OSOMSO
MONTANA AWOS SUMMARY
NATIONAL WEATHER SERVICE MISSOULA MT
132 AM MDT SUN AUG 2 2015

Montana AWOS Reports

ROUNDUP     |KRPX 020715Z AUTO 00000KT 40SM 18/01 A2988 RMK AO1 T01780011






000
SXUS55 KMSO 020723
OSOMSO
MONTANA AWOS SUMMARY
NATIONAL WEATHER SERVICE MISSOULA MT
122 AM MDT SUN AUG 2 2015

Montana AWOS Reports

EKALAKA     |K97M 020655Z AUTO 10004KT 40SM 22/M02 A2993 RMK AO1 T02171021
TWIN BRIDGES|K7S1 020715Z AUTO 00000KT 40SM 16/02 A3007 RMK AO1 T01610017
LAUREL      |K6S8 020715Z AUTO 00000KT 40SM 21/01 A2995 RMK AO1 T02110006
MALTA       |KM75 020715Z AUTO 00000KT 40SM 19/12 A2993 RMK AO1 T01890117






000
SXUS55 KMSO 020703
OSOMSO
MONTANA AWOS SUMMARY
NATIONAL WEATHER SERVICE MISSOULA MT
103 AM MDT SUN AUG 2 2015

Montana AWOS Reports

LAUREL      |K6S8 020655Z AUTO 00000KT 40SM 22/01 A2995 RMK AO1 T02220011
TWIN BRIDGES|K7S1 020655Z AUTO 00000KT 40SM 15/04 A3007 RMK AO1 T01500039
MALTA       |KM75 020655Z AUTO 00000KT 40SM 18/12 A2992 RMK AO1 T01830117
SCOBEY      |K9S2 020655Z AUTO 00000KT 25SM 13/10 A2993 RMK AO1 T01330100
ROUNDUP     |KRPX 020655Z AUTO 00000KT 40SM 19/02 A2987 RMK AO1 T01890017
PLAINS      |KS34 020655Z AUTO 00000KT 25SM 14/03 A2996 RMK AO1 T01440028






000
SXUS55 KMSO 020653
OSOMSO
MONTANA AWOS SUMMARY
NATIONAL WEATHER SERVICE MISSOULA MT
1253 AM MDT SUN AUG 2 2015

Montana AWOS Reports

TWIN BRIDGES|K7S1 020635Z AUTO 00000KT 40SM 15/03 A3006 RMK AO1 T01500028
ROUNDUP     |KRPX 020635Z AUTO 00000KT 40SM 19/01 A2986 RMK AO1 T01890011
MALTA       |KM75 020635Z AUTO 00000KT 40SM 19/12 A2991 RMK AO1 T01890122






000
SXUS55 KMSO 020653
OSOMSO
MONTANA AWOS SUMMARY
NATIONAL WEATHER SERVICE MISSOULA MT
1253 AM MDT SUN AUG 2 2015

Montana AWOS Reports

TWIN BRIDGES|K7S1 020635Z AUTO 00000KT 40SM 15/03 A3006 RMK AO1 T01500028
ROUNDUP     |KRPX 020635Z AUTO 00000KT 40SM 19/01 A2986 RMK AO1 T01890011
MALTA       |KM75 020635Z AUTO 00000KT 40SM 19/12 A2991 RMK AO1 T01890122






000
SXUS55 KMSO 020643
OSOMSO
MONTANA AWOS SUMMARY
NATIONAL WEATHER SERVICE MISSOULA MT
1242 AM MDT SUN AUG 2 2015

Montana AWOS Reports

LAUREL      |K6S8 020635Z AUTO 00000KT 40SM 21/01 A2995 RMK AO1 T02110011






000
SXUS55 KMSO 020643
OSOMSO
MONTANA AWOS SUMMARY
NATIONAL WEATHER SERVICE MISSOULA MT
1242 AM MDT SUN AUG 2 2015

Montana AWOS Reports

LAUREL      |K6S8 020635Z AUTO 00000KT 40SM 21/01 A2995 RMK AO1 T02110011






000
SXUS55 KMSO 020623
OSOMSO
MONTANA AWOS SUMMARY
NATIONAL WEATHER SERVICE MISSOULA MT
1222 AM MDT SUN AUG 2 2015

Montana AWOS Reports

LAUREL      |K6S8 020615Z AUTO 00000KT 40SM 22/00 A2994 RMK AO1 T02220000
TWIN BRIDGES|K7S1 020615Z AUTO 00000KT 40SM 17/02 A3006 RMK AO1 T01720022
ROUNDUP     |KRPX 020615Z AUTO 00000KT 40SM 19/02 A2987 RMK AO1 T01940017
MALTA       |KM75 020615Z AUTO 00000KT 40SM 19/12 A2990 RMK AO1 T01890122






000
SXUS55 KMSO 020623
OSOMSO
MONTANA AWOS SUMMARY
NATIONAL WEATHER SERVICE MISSOULA MT
1222 AM MDT SUN AUG 2 2015

Montana AWOS Reports

LAUREL      |K6S8 020615Z AUTO 00000KT 40SM 22/00 A2994 RMK AO1 T02220000
TWIN BRIDGES|K7S1 020615Z AUTO 00000KT 40SM 17/02 A3006 RMK AO1 T01720022
ROUNDUP     |KRPX 020615Z AUTO 00000KT 40SM 19/02 A2987 RMK AO1 T01940017
MALTA       |KM75 020615Z AUTO 00000KT 40SM 19/12 A2990 RMK AO1 T01890122






000
SXUS55 KMSO 020613
OSOMSO
MONTANA AWOS SUMMARY
NATIONAL WEATHER SERVICE MISSOULA MT
1213 AM MDT SUN AUG 2 2015

Montana AWOS Reports

EKALAKA     |K97M 020555Z AUTO 00000KT 40SM 26/M02 A2992 RMK AO1 T02561021






000
SXUS55 KMSO 020613
OSOMSO
MONTANA AWOS SUMMARY
NATIONAL WEATHER SERVICE MISSOULA MT
1213 AM MDT SUN AUG 2 2015

Montana AWOS Reports

EKALAKA     |K97M 020555Z AUTO 00000KT 40SM 26/M02 A2992 RMK AO1 T02561021






000
SXUS55 KMSO 020603
OSOMSO
MONTANA AWOS SUMMARY
NATIONAL WEATHER SERVICE MISSOULA MT
1202 AM MDT SUN AUG 2 2015

Montana AWOS Reports

LAUREL      |K6S8 020555Z AUTO 00000KT 40SM 24/01 A2994 RMK AO1 T02390011
TWIN BRIDGES|K7S1 020555Z AUTO 00000KT 40SM 18/03 A3006 RMK AO1 T01780028
ROUNDUP     |KRPX 020555Z AUTO 26004KT 40SM 20/01 A2986 RMK AO1 T02000011
MALTA       |KM75 020555Z AUTO 00000KT 40SM 20/13 A2989 RMK AO1 T02000128
SCOBEY      |K9S2 020555Z AUTO 00000KT 40SM 13/10 A2992 RMK AO1 T01330100
PLAINS      |KS34 020555Z AUTO 00000KT 25SM 17/01 A2994 RMK AO1 T01670006






000
SXUS55 KMSO 020603
OSOMSO
MONTANA AWOS SUMMARY
NATIONAL WEATHER SERVICE MISSOULA MT
1202 AM MDT SUN AUG 2 2015

Montana AWOS Reports

LAUREL      |K6S8 020555Z AUTO 00000KT 40SM 24/01 A2994 RMK AO1 T02390011
TWIN BRIDGES|K7S1 020555Z AUTO 00000KT 40SM 18/03 A3006 RMK AO1 T01780028
ROUNDUP     |KRPX 020555Z AUTO 26004KT 40SM 20/01 A2986 RMK AO1 T02000011
MALTA       |KM75 020555Z AUTO 00000KT 40SM 20/13 A2989 RMK AO1 T02000128
SCOBEY      |K9S2 020555Z AUTO 00000KT 40SM 13/10 A2992 RMK AO1 T01330100
PLAINS      |KS34 020555Z AUTO 00000KT 25SM 17/01 A2994 RMK AO1 T01670006






000
SXUS55 KMSO 020543
OSOMSO
MONTANA AWOS SUMMARY
NATIONAL WEATHER SERVICE MISSOULA MT
1143 PM MDT SAT AUG 1 2015

Montana AWOS Reports

LAUREL      |K6S8 020535Z AUTO 00000KT 40SM 24/00 A2994 RMK AO1 T02390000
TWIN BRIDGES|K7S1 020535Z AUTO 00000KT 40SM 18/03 A3006 RMK AO1 T01780028
ROUNDUP     |KRPX 020535Z AUTO 00000KT 40SM 21/00 A2986 RMK AO1 T02110000
MALTA       |KM75 020535Z AUTO 04007KT 40SM 21/13 A2988 RMK AO1 T02060128






000
SXUS55 KMSO 020533
OSOMSO
MONTANA AWOS SUMMARY
NATIONAL WEATHER SERVICE MISSOULA MT
1132 PM MDT SAT AUG 1 2015

Montana AWOS Reports

LAUREL      |K6S8 020515Z AUTO 00000KT 40SM 24/01 A2995 RMK AO1 T02390006
TWIN BRIDGES|K7S1 020515Z AUTO VRB05KT 40SM 18/06 A3006 RMK AO1 T01830056
MALTA       |KM75 020515Z AUTO 03008KT 40SM 21/13 A2988 RMK AO1 T02110128






000
SXUS55 KMSO 020523
OSOMSO
MONTANA AWOS SUMMARY
NATIONAL WEATHER SERVICE MISSOULA MT
1122 PM MDT SAT AUG 1 2015

Montana AWOS Reports

ROUNDUP     |KRPX 020515Z AUTO 00000KT 40SM 21/M01 A2986 RMK AO1 T02111010






000
SXUS55 KMSO 020523
OSOMSO
MONTANA AWOS SUMMARY
NATIONAL WEATHER SERVICE MISSOULA MT
1122 PM MDT SAT AUG 1 2015

Montana AWOS Reports

ROUNDUP     |KRPX 020515Z AUTO 00000KT 40SM 21/M01 A2986 RMK AO1 T02111010






000
SXUS55 KMSO 020513
OSOMSO
MONTANA AWOS SUMMARY
NATIONAL WEATHER SERVICE MISSOULA MT
1113 PM MDT SAT AUG 1 2015

Montana AWOS Reports

EKALAKA     |K97M 020455Z AUTO 00000KT 40SM 24/M02 A2992 RMK AO1 T02441021






000
SXUS55 KMSO 020513
OSOMSO
MONTANA AWOS SUMMARY
NATIONAL WEATHER SERVICE MISSOULA MT
1113 PM MDT SAT AUG 1 2015

Montana AWOS Reports

EKALAKA     |K97M 020455Z AUTO 00000KT 40SM 24/M02 A2992 RMK AO1 T02441021






000
SXUS55 KMSO 020504
OSOMSO
MONTANA AWOS SUMMARY
NATIONAL WEATHER SERVICE MISSOULA MT
1103 PM MDT SAT AUG 1 2015

Montana AWOS Reports

LAUREL      |K6S8 020455Z AUTO 00000KT 40SM 26/02 A2995 RMK AO1 T02560017
TWIN BRIDGES|K7S1 020455Z AUTO 00000KT 40SM 19/05 A3006 RMK AO1 T01890050
ROUNDUP     |KRPX 020455Z AUTO 00000KT 40SM 26/M01 A2986 RMK AO1 T02611010
MALTA       |KM75 020455Z AUTO 04007KT 40SM 22/13 A2987 RMK AO1 T02220128
SCOBEY      |K9S2 020455Z AUTO 00000KT 40SM 15/11 A2993 RMK AO1 T01500106
PLAINS      |KS34 020455Z AUTO 00000KT 25SM 19/02 A2994 RMK AO1 T01940017






000
SXUS55 KMSO 020504
OSOMSO
MONTANA AWOS SUMMARY
NATIONAL WEATHER SERVICE MISSOULA MT
1103 PM MDT SAT AUG 1 2015

Montana AWOS Reports

LAUREL      |K6S8 020455Z AUTO 00000KT 40SM 26/02 A2995 RMK AO1 T02560017
TWIN BRIDGES|K7S1 020455Z AUTO 00000KT 40SM 19/05 A3006 RMK AO1 T01890050
ROUNDUP     |KRPX 020455Z AUTO 00000KT 40SM 26/M01 A2986 RMK AO1 T02611010
MALTA       |KM75 020455Z AUTO 04007KT 40SM 22/13 A2987 RMK AO1 T02220128
SCOBEY      |K9S2 020455Z AUTO 00000KT 40SM 15/11 A2993 RMK AO1 T01500106
PLAINS      |KS34 020455Z AUTO 00000KT 25SM 19/02 A2994 RMK AO1 T01940017






000
SXUS55 KMSO 020443
OSOMSO
MONTANA AWOS SUMMARY
NATIONAL WEATHER SERVICE MISSOULA MT
1043 PM MDT SAT AUG 1 2015

Montana AWOS Reports

ROUNDUP     |KRPX 020435Z AUTO 00000KT 40SM 27/M02 A2986 RMK AO1 T02671021
LAUREL      |K6S8 020435Z AUTO 00000KT 40SM 27/01 A2994 RMK AO1 T02670011
TWIN BRIDGES|K7S1 020435Z AUTO 00000KT 40SM 22/04 A3005 RMK AO1 T02170039
MALTA       |KM75 020435Z AUTO 03011G15KT 40SM 23/13 A2987 RMK AO1 T02280128






000
SXUS55 KMSO 020433
OSOMSO
MONTANA AWOS SUMMARY
NATIONAL WEATHER SERVICE MISSOULA MT
1033 PM MDT SAT AUG 1 2015

Montana AWOS Reports

EKALAKA     |K97M 020355Z AUTO 00000KT 40SM 24/M02 A2992 RMK AO1 T02441021






000
SXUS55 KMSO 020433
OSOMSO
MONTANA AWOS SUMMARY
NATIONAL WEATHER SERVICE MISSOULA MT
1033 PM MDT SAT AUG 1 2015

Montana AWOS Reports

EKALAKA     |K97M 020355Z AUTO 00000KT 40SM 24/M02 A2992 RMK AO1 T02441021






000
SXUS55 KMSO 020423
OSOMSO
MONTANA AWOS SUMMARY
NATIONAL WEATHER SERVICE MISSOULA MT
1023 PM MDT SAT AUG 1 2015

Montana AWOS Reports

ROUNDUP     |KRPX 020415Z AUTO 00000KT 40SM 27/M02 A2986 RMK AO1 T02721016
LAUREL      |K6S8 020415Z AUTO 00000KT 40SM 27/00 A2993 RMK AO1 T02720000
TWIN BRIDGES|K7S1 020415Z AUTO 12005KT 40SM 22/05 A3005 RMK AO1 T02220050
MALTA       |KM75 020415Z AUTO 03009G15KT 40SM 23/13 A2986 RMK AO1 T02330128






000
SXUS55 KMSO 020403
OSOMSO
MONTANA AWOS SUMMARY
NATIONAL WEATHER SERVICE MISSOULA MT
1003 PM MDT SAT AUG 1 2015

Montana AWOS Reports

TWIN BRIDGES|K7S1 020355Z AUTO 00000KT 40SM 24/04 A3004 RMK AO1 T02390044
ROUNDUP     |KRPX 020355Z AUTO 00000KT 40SM 27/M03 A2986 RMK AO1 T02721027
MALTA       |KM75 020355Z AUTO 03008KT 40SM 24/13 A2986 RMK AO1 T02390133






000
SXUS55 KMSO 020353
OSOMSO
MONTANA AWOS SUMMARY
NATIONAL WEATHER SERVICE MISSOULA MT
952 PM MDT SAT AUG 1 2015

Montana AWOS Reports

PLAINS      |KS34 020255Z AUTO 00000KT 10SM 29/04 A2991 RMK AO1 T02890039






000
SXUS55 KMSO 020343
OSOMSO
MONTANA AWOS SUMMARY
NATIONAL WEATHER SERVICE MISSOULA MT
943 PM MDT SAT AUG 1 2015

Montana AWOS Reports

LAUREL      |K6S8 020335Z AUTO 30005KT 40SM 28/01 A2992 RMK AO1 T02780006
TWIN BRIDGES|K7S1 020335Z AUTO 03005KT 40SM 25/01 A3003 RMK AO1 T02500006
ROUNDUP     |KRPX 020335Z AUTO 00000KT 40SM 28/M02 A2985 RMK AO1 T02831016
MALTA       |KM75 020335Z AUTO 02008KT 40SM 24/13 A2985 RMK AO1 T02440128






000
SXUS55 KMSO 020323
OSOMSO
MONTANA AWOS SUMMARY
NATIONAL WEATHER SERVICE MISSOULA MT
922 PM MDT SAT AUG 1 2015

Montana AWOS Reports

SCOBEY      |K9S2 020255Z AUTO 35006KT 40SM 21/11 A2989 RMK AO1 T02060106
LAUREL      |K6S8 020315Z AUTO 30004KT 40SM 27/00 A2992 RMK AO1 T02670000
TWIN BRIDGES|K7S1 020315Z AUTO 02007KT 40SM 26/01 A3002 RMK AO1 T02610006
ROUNDUP     |KRPX 020315Z AUTO 00000KT 40SM 29/M03 A2985 RMK AO1 T02891027
MALTA       |KM75 020315Z AUTO 00000KT 40SM 25/13 A2984 RMK AO1 T02500128






000
SXUS55 KMSO 020303
OSOMSO
MONTANA AWOS SUMMARY
NATIONAL WEATHER SERVICE MISSOULA MT
903 PM MDT SAT AUG 1 2015

Montana AWOS Reports

LAUREL      |K6S8 020255Z AUTO 00000KT 40SM 28/01 A2992 RMK AO1 T02830006
TWIN BRIDGES|K7S1 020255Z AUTO 00000KT 40SM 27/03 A3002 RMK AO1 T02720028
ROUNDUP     |KRPX 020255Z AUTO 00000KT 40SM 29/M03 A2984 RMK AO1 T02891027
MALTA       |KM75 020255Z AUTO 00000KT 40SM 25/12 A2983 RMK AO1 T02500117
EKALAKA     |K97M 020255Z AUTO 00000KT 40SM 26/M01 A2991 RMK AO1 T02561005






000
SXUS55 KMSO 020253
OSOMSO
MONTANA AWOS SUMMARY
NATIONAL WEATHER SERVICE MISSOULA MT
853 PM MDT SAT AUG 1 2015

Montana AWOS Reports

LAUREL      |K6S8 020235Z AUTO 00000KT 40SM 31/01 A2992 RMK AO1 T03060011






000
SXUS55 KMSO 020243
OSOMSO
MONTANA AWOS SUMMARY
NATIONAL WEATHER SERVICE MISSOULA MT
842 PM MDT SAT AUG 1 2015

Montana AWOS Reports

TWIN BRIDGES|K7S1 020235Z AUTO 00000KT 40SM 27/04 A3002 RMK AO1 T02720044
ROUNDUP     |KRPX 020235Z AUTO 00000KT 40SM 31/M01 A2984 RMK AO1 T03061010
MALTA       |KM75 020235Z AUTO 00000KT 40SM 27/13 A2983 RMK AO1 T02670128






000
SXUS55 KMSO 020243
OSOMSO
MONTANA AWOS SUMMARY
NATIONAL WEATHER SERVICE MISSOULA MT
842 PM MDT SAT AUG 1 2015

Montana AWOS Reports

TWIN BRIDGES|K7S1 020235Z AUTO 00000KT 40SM 27/04 A3002 RMK AO1 T02720044
ROUNDUP     |KRPX 020235Z AUTO 00000KT 40SM 31/M01 A2984 RMK AO1 T03061010
MALTA       |KM75 020235Z AUTO 00000KT 40SM 27/13 A2983 RMK AO1 T02670128






000
SXUS55 KMSO 020223
OSOMSO
MONTANA AWOS SUMMARY
NATIONAL WEATHER SERVICE MISSOULA MT
823 PM MDT SAT AUG 1 2015

Montana AWOS Reports

LAUREL      |K6S8 020215Z AUTO 00000KT 40SM 32/01 A2992 RMK AO1 T03170006
TWIN BRIDGES|K7S1 020215Z AUTO 00000KT 40SM 29/09 A3001 RMK AO1 T02890089
ROUNDUP     |KRPX 020215Z AUTO 00000KT 40SM 32/M02 A2984 RMK AO1 T03171016
MALTA       |KM75 020215Z AUTO 00000KT 40SM 28/13 A2982 RMK AO1 T02780128






000
SXUS55 KMSO 020213
OSOMSO
MONTANA AWOS SUMMARY
NATIONAL WEATHER SERVICE MISSOULA MT
813 PM MDT SAT AUG 1 2015

Montana AWOS Reports

LAUREL      |K6S8 020155Z AUTO 00000KT 40SM 33/01 A2992 RMK AO1 T03330011
TWIN BRIDGES|K7S1 020155Z AUTO 00000KT 40SM 30/07 A3001 RMK AO1 T03000072
ROUNDUP     |KRPX 020155Z AUTO 00000KT 40SM 33/M02 A2984 RMK AO1 T03281016
MALTA       |KM75 020155Z AUTO 00000KT 40SM 29/12 A2981 RMK AO1 T02890117
EKALAKA     |K97M 020155Z AUTO 30004KT 40SM 29/M02 A2990 RMK AO1 T02941021
SCOBEY      |K9S2 020155Z AUTO 36008KT 40SM 24/12 A2986 RMK AO1 T02440122






000
SXUS55 KMSO 020203
OSOMSO
MONTANA AWOS SUMMARY
NATIONAL WEATHER SERVICE MISSOULA MT
803 PM MDT SAT AUG 1 2015

Montana AWOS Reports

PLAINS      |KS34 020155Z AUTO 00000KT 25SM 33/04 A2990 RMK AO1 T03330039






000
SXUS55 KMSO 020144
OSOMSO
MONTANA AWOS SUMMARY
NATIONAL WEATHER SERVICE MISSOULA MT
743 PM MDT SAT AUG 1 2015

Montana AWOS Reports

LAUREL      |K6S8 020135Z AUTO 30006KT 40SM 34/01 A2992 RMK AO1 T03390006
ROUNDUP     |KRPX 020135Z AUTO 00000KT 40SM 34/M01 A2984 RMK AO1 T03391005
MALTA       |KM75 020135Z AUTO 01007KT 40SM 30/12 A2980 RMK AO1 T03000122






000
SXUS55 KMSO 020123
OSOMSO
MONTANA AWOS SUMMARY
NATIONAL WEATHER SERVICE MISSOULA MT
723 PM MDT SAT AUG 1 2015

Montana AWOS Reports

LAUREL      |K6S8 020115Z AUTO 27005KT 40SM 35/00 A2992 RMK AO1 T03500000
TWIN BRIDGES|K7S1 020115Z AUTO 00000KT 40SM 32/01 A3001 RMK AO1 T03220011
ROUNDUP     |KRPX 020115Z AUTO 33008KT 40SM 34/M01 A2984 RMK AO1 T03391005
MALTA       |KM75 020115Z AUTO 02007KT 40SM 31/12 A2980 RMK AO1 T03110117






000
SXUS55 KMSO 020113
OSOMSO
MONTANA AWOS SUMMARY
NATIONAL WEATHER SERVICE MISSOULA MT
713 PM MDT SAT AUG 1 2015

Montana AWOS Reports

EKALAKA     |K97M 020055Z AUTO 29010G14KT 40SM 33/M02 A2989 RMK AO1 T03281016






000
SXUS55 KMSO 020043
OSOMSO
MONTANA AWOS SUMMARY
NATIONAL WEATHER SERVICE MISSOULA MT
643 PM MDT SAT AUG 1 2015

Montana AWOS Reports

LAUREL      |K6S8 020035Z AUTO 30008KT 40SM 36/01 A2992 RMK AO1 T03560006
TWIN BRIDGES|K7S1 020035Z AUTO 00000KT 40SM 32/04 A3002 RMK AO1 T03220039
ROUNDUP     |KRPX 020035Z AUTO 32009G15KT 40SM 35/00 A2983 RMK AO1 T03500000
MALTA       |KM75 020035Z AUTO 01009G13KT 40SM 32/11 A2979 RMK AO1 T03220111






000
SXUS55 KMSO 020043
OSOMSO
MONTANA AWOS SUMMARY
NATIONAL WEATHER SERVICE MISSOULA MT
643 PM MDT SAT AUG 1 2015

Montana AWOS Reports

LAUREL      |K6S8 020035Z AUTO 30008KT 40SM 36/01 A2992 RMK AO1 T03560006
TWIN BRIDGES|K7S1 020035Z AUTO 00000KT 40SM 32/04 A3002 RMK AO1 T03220039
ROUNDUP     |KRPX 020035Z AUTO 32009G15KT 40SM 35/00 A2983 RMK AO1 T03500000
MALTA       |KM75 020035Z AUTO 01009G13KT 40SM 32/11 A2979 RMK AO1 T03220111






000
SXUS55 KMSO 020024
OSOMSO
MONTANA AWOS SUMMARY
NATIONAL WEATHER SERVICE MISSOULA MT
623 PM MDT SAT AUG 1 2015

Montana AWOS Reports

ROUNDUP     |KRPX 020015Z AUTO 33010G16KT 40SM 36/01 A2984 RMK AO1 T03560006
LAUREL      |K6S8 020015Z AUTO 28010KT 40SM 36/01 A2993 RMK AO1 T03560006
TWIN BRIDGES|K7S1 020015Z AUTO 00000KT 40SM 32/07 A3003 RMK AO1 T03170067
MALTA       |KM75 020015Z AUTO 01008KT 40SM 33/11 A2980 RMK AO1 T03280106






000
SXUS55 KMSO 020024
OSOMSO
MONTANA AWOS SUMMARY
NATIONAL WEATHER SERVICE MISSOULA MT
623 PM MDT SAT AUG 1 2015

Montana AWOS Reports

ROUNDUP     |KRPX 020015Z AUTO 33010G16KT 40SM 36/01 A2984 RMK AO1 T03560006
LAUREL      |K6S8 020015Z AUTO 28010KT 40SM 36/01 A2993 RMK AO1 T03560006
TWIN BRIDGES|K7S1 020015Z AUTO 00000KT 40SM 32/07 A3003 RMK AO1 T03170067
MALTA       |KM75 020015Z AUTO 01008KT 40SM 33/11 A2980 RMK AO1 T03280106






000
SXUS55 KMSO 020004
OSOMSO
MONTANA AWOS SUMMARY
NATIONAL WEATHER SERVICE MISSOULA MT
603 PM MDT SAT AUG 1 2015

Montana AWOS Reports

LAUREL      |K6S8 012355Z AUTO 27007KT 40SM 36/01 A2993 RMK AO1 T03560006
TWIN BRIDGES|K7S1 012355Z AUTO 00000KT 40SM 33/01 A3003 RMK AO1 T03280006
ROUNDUP     |KRPX 012355Z AUTO 31006KT 40SM 36/01 A2984 RMK AO1 T03560006
MALTA       |KM75 012355Z AUTO 36009G17KT 40SM 33/10 A2979 RMK AO1 T03330100






000
SXUS55 KMSO 020004
OSOMSO
MONTANA AWOS SUMMARY
NATIONAL WEATHER SERVICE MISSOULA MT
603 PM MDT SAT AUG 1 2015

Montana AWOS Reports

LAUREL      |K6S8 012355Z AUTO 27007KT 40SM 36/01 A2993 RMK AO1 T03560006
TWIN BRIDGES|K7S1 012355Z AUTO 00000KT 40SM 33/01 A3003 RMK AO1 T03280006
ROUNDUP     |KRPX 012355Z AUTO 31006KT 40SM 36/01 A2984 RMK AO1 T03560006
MALTA       |KM75 012355Z AUTO 36009G17KT 40SM 33/10 A2979 RMK AO1 T03330100






000
SXUS55 KMSO 012353
OSOMSO
MONTANA AWOS SUMMARY
NATIONAL WEATHER SERVICE MISSOULA MT
553 PM MDT SAT AUG 1 2015

Montana AWOS Reports

LAUREL      |K6S8 012335Z AUTO 27009G18KT 40SM 36/01 A2994 RMK AO1 T03610011
TWIN BRIDGES|K7S1 012335Z AUTO 00000KT 40SM 33/02 A3003 RMK AO1 T03280017
MALTA       |KM75 012335Z AUTO 33007KT 40SM 36/07 A2979 RMK AO1 T03610072






000
SXUS55 KMSO 012353
OSOMSO
MONTANA AWOS SUMMARY
NATIONAL WEATHER SERVICE MISSOULA MT
553 PM MDT SAT AUG 1 2015

Montana AWOS Reports

LAUREL      |K6S8 012335Z AUTO 27009G18KT 40SM 36/01 A2994 RMK AO1 T03610011
TWIN BRIDGES|K7S1 012335Z AUTO 00000KT 40SM 33/02 A3003 RMK AO1 T03280017
MALTA       |KM75 012335Z AUTO 33007KT 40SM 36/07 A2979 RMK AO1 T03610072






000
SXUS55 KMSO 012343
OSOMSO
MONTANA AWOS SUMMARY
NATIONAL WEATHER SERVICE MISSOULA MT
542 PM MDT SAT AUG 1 2015

Montana AWOS Reports

ROUNDUP     |KRPX 012335Z AUTO 29011G20KT 40SM 36/01 A2984 RMK AO1 T03610011






000
SXUS55 KMSO 012323
OSOMSO
MONTANA AWOS SUMMARY
NATIONAL WEATHER SERVICE MISSOULA MT
523 PM MDT SAT AUG 1 2015

Montana AWOS Reports

LAUREL      |K6S8 012315Z AUTO 27008KT 40SM 36/01 A2994 RMK AO1 T03610011
TWIN BRIDGES|K7S1 012315Z AUTO 00000KT 40SM 33/03 A3004 RMK AO1 T03280028
ROUNDUP     |KRPX 012315Z AUTO 30010G15KT 40SM 36/01 A2985 RMK AO1 T03560006
MALTA       |KM75 012315Z AUTO 27007KT 40SM 36/07 A2979 RMK AO1 T03610072






000
SXUS55 KMSO 012323
OSOMSO
MONTANA AWOS SUMMARY
NATIONAL WEATHER SERVICE MISSOULA MT
523 PM MDT SAT AUG 1 2015

Montana AWOS Reports

LAUREL      |K6S8 012315Z AUTO 27008KT 40SM 36/01 A2994 RMK AO1 T03610011
TWIN BRIDGES|K7S1 012315Z AUTO 00000KT 40SM 33/03 A3004 RMK AO1 T03280028
ROUNDUP     |KRPX 012315Z AUTO 30010G15KT 40SM 36/01 A2985 RMK AO1 T03560006
MALTA       |KM75 012315Z AUTO 27007KT 40SM 36/07 A2979 RMK AO1 T03610072






000
SXUS55 KMSO 012313
OSOMSO
MONTANA AWOS SUMMARY
NATIONAL WEATHER SERVICE MISSOULA MT
512 PM MDT SAT AUG 1 2015

Montana AWOS Reports

LAUREL      |K6S8 012255Z AUTO 28009G18KT 40SM 37/01 A2994 RMK AO1 T03670011
TWIN BRIDGES|K7S1 012255Z AUTO 12005KT 40SM 33/04 A3004 RMK AO1 T03280044
MALTA       |KM75 012255Z AUTO 28010G19KT 40SM 36/06 A2979 RMK AO1 T03610056
SCOBEY      |K9S2 012255Z AUTO 31013G20KT 40SM 31/12 A2983 RMK AO1 T03110122
PLAINS      |KS34 012255Z AUTO 24012G16KT 40SM 37/07 A2990 RMK AO1 T03720067
EKALAKA     |K97M 012255Z AUTO 27006KT 40SM 34/M01 A2990 RMK AO1 T03441005






000
SXUS55 KMSO 012313
OSOMSO
MONTANA AWOS SUMMARY
NATIONAL WEATHER SERVICE MISSOULA MT
512 PM MDT SAT AUG 1 2015

Montana AWOS Reports

LAUREL      |K6S8 012255Z AUTO 28009G18KT 40SM 37/01 A2994 RMK AO1 T03670011
TWIN BRIDGES|K7S1 012255Z AUTO 12005KT 40SM 33/04 A3004 RMK AO1 T03280044
MALTA       |KM75 012255Z AUTO 28010G19KT 40SM 36/06 A2979 RMK AO1 T03610056
SCOBEY      |K9S2 012255Z AUTO 31013G20KT 40SM 31/12 A2983 RMK AO1 T03110122
PLAINS      |KS34 012255Z AUTO 24012G16KT 40SM 37/07 A2990 RMK AO1 T03720067
EKALAKA     |K97M 012255Z AUTO 27006KT 40SM 34/M01 A2990 RMK AO1 T03441005






000
SXUS55 KMSO 012303
OSOMSO
MONTANA AWOS SUMMARY
NATIONAL WEATHER SERVICE MISSOULA MT
503 PM MDT SAT AUG 1 2015

Montana AWOS Reports

ROUNDUP     |KRPX 012255Z AUTO 29013KT 40SM 36/01 A2985 RMK AO1 T03560006






000
SXUS55 KMSO 012243
OSOMSO
MONTANA AWOS SUMMARY
NATIONAL WEATHER SERVICE MISSOULA MT
443 PM MDT SAT AUG 1 2015

Montana AWOS Reports

LAUREL      |K6S8 012235Z AUTO 24012G17KT 40SM 36/01 A2995 RMK AO1 T03610011
TWIN BRIDGES|K7S1 012235Z AUTO 13005KT 40SM 33/03 A3005 RMK AO1 T03280028
ROUNDUP     |KRPX 012235Z AUTO 29013G18KT 40SM 36/00 A2985 RMK AO1 T03610000
MALTA       |KM75 012235Z AUTO 26008KT 40SM 36/05 A2980 RMK AO1 T03560050






000
SXUS55 KMSO 012243
OSOMSO
MONTANA AWOS SUMMARY
NATIONAL WEATHER SERVICE MISSOULA MT
443 PM MDT SAT AUG 1 2015

Montana AWOS Reports

LAUREL      |K6S8 012235Z AUTO 24012G17KT 40SM 36/01 A2995 RMK AO1 T03610011
TWIN BRIDGES|K7S1 012235Z AUTO 13005KT 40SM 33/03 A3005 RMK AO1 T03280028
ROUNDUP     |KRPX 012235Z AUTO 29013G18KT 40SM 36/00 A2985 RMK AO1 T03610000
MALTA       |KM75 012235Z AUTO 26008KT 40SM 36/05 A2980 RMK AO1 T03560050






000
SXUS55 KMSO 012223
OSOMSO
MONTANA AWOS SUMMARY
NATIONAL WEATHER SERVICE MISSOULA MT
423 PM MDT SAT AUG 1 2015

Montana AWOS Reports

LAUREL      |K6S8 012215Z AUTO 28012G18KT 240V320 40SM 36/01 A2995 RMK AO1 T03610011
TWIN BRIDGES|K7S1 012215Z AUTO 19006KT 40SM 33/06 A3005 RMK AO1 T03280061
ROUNDUP     |KRPX 012215Z AUTO 27013G22KT 40SM 36/M01 A2986 RMK AO1 T03561005
MALTA       |KM75 012215Z AUTO 24011G17KT 40SM 36/05 A2980 RMK AO1 T03560050






000
SXUS55 KMSO 012223
OSOMSO
MONTANA AWOS SUMMARY
NATIONAL WEATHER SERVICE MISSOULA MT
423 PM MDT SAT AUG 1 2015

Montana AWOS Reports

LAUREL      |K6S8 012215Z AUTO 28012G18KT 240V320 40SM 36/01 A2995 RMK AO1 T03610011
TWIN BRIDGES|K7S1 012215Z AUTO 19006KT 40SM 33/06 A3005 RMK AO1 T03280061
ROUNDUP     |KRPX 012215Z AUTO 27013G22KT 40SM 36/M01 A2986 RMK AO1 T03561005
MALTA       |KM75 012215Z AUTO 24011G17KT 40SM 36/05 A2980 RMK AO1 T03560050






000
SXUS55 KMSO 012203
OSOMSO
MONTANA AWOS SUMMARY
NATIONAL WEATHER SERVICE MISSOULA MT
403 PM MDT SAT AUG 1 2015

Montana AWOS Reports

LAUREL      |K6S8 012155Z AUTO 28012G20KT 40SM 36/01 A2996 RMK AO1 T03560006
TWIN BRIDGES|K7S1 012155Z AUTO 11005KT 40SM 32/02 A3006 RMK AO1 T03220022
ROUNDUP     |KRPX 012155Z AUTO 28016G23KT 40SM 36/M01 A2986 RMK AO1 T03561005
MALTA       |KM75 012155Z AUTO 22011G16KT 40SM 36/07 A2980 RMK AO1 T03560067
SCOBEY      |K9S2 012155Z AUTO 27021G33KT 40SM 34/04 A2981 RMK AO1 T03390039
EKALAKA     |K97M 012155Z AUTO 30012G18KT 40SM 34/M01 A2992 RMK AO1 T03441005
PLAINS      |KS34 012155Z AUTO 25SM 37/04 A2991 RMK AO1 T03720039






000
SXUS55 KMSO 012203
OSOMSO
MONTANA AWOS SUMMARY
NATIONAL WEATHER SERVICE MISSOULA MT
403 PM MDT SAT AUG 1 2015

Montana AWOS Reports

LAUREL      |K6S8 012155Z AUTO 28012G20KT 40SM 36/01 A2996 RMK AO1 T03560006
TWIN BRIDGES|K7S1 012155Z AUTO 11005KT 40SM 32/02 A3006 RMK AO1 T03220022
ROUNDUP     |KRPX 012155Z AUTO 28016G23KT 40SM 36/M01 A2986 RMK AO1 T03561005
MALTA       |KM75 012155Z AUTO 22011G16KT 40SM 36/07 A2980 RMK AO1 T03560067
SCOBEY      |K9S2 012155Z AUTO 27021G33KT 40SM 34/04 A2981 RMK AO1 T03390039
EKALAKA     |K97M 012155Z AUTO 30012G18KT 40SM 34/M01 A2992 RMK AO1 T03441005
PLAINS      |KS34 012155Z AUTO 25SM 37/04 A2991 RMK AO1 T03720039






000
SXUS55 KMSO 012143
OSOMSO
MONTANA AWOS SUMMARY
NATIONAL WEATHER SERVICE MISSOULA MT
342 PM MDT SAT AUG 1 2015

Montana AWOS Reports

LAUREL      |K6S8 012135Z AUTO 23010G18KT 40SM 36/01 A2996 RMK AO1 T03610011
TWIN BRIDGES|K7S1 012135Z AUTO 00000KT 40SM 33/02 A3007 RMK AO1 T03280017
ROUNDUP     |KRPX 012135Z AUTO 29011G18KT 40SM 36/M01 A2987 RMK AO1 T03561005
MALTA       |KM75 012135Z AUTO 26012G18KT 40SM 36/06 A2981 RMK AO1 T03610061






000
SXUS55 KMSO 012123
OSOMSO
MONTANA AWOS SUMMARY
NATIONAL WEATHER SERVICE MISSOULA MT
323 PM MDT SAT AUG 1 2015

Montana AWOS Reports

LAUREL      |K6S8 012115Z AUTO 26006KT 40SM 35/00 A2997 RMK AO1 T03500000
TWIN BRIDGES|K7S1 012115Z AUTO VRB06KT 40SM 33/02 A3008 RMK AO1 T03280017
ROUNDUP     |KRPX 012115Z AUTO 27009G15KT 40SM 36/M01 A2988 RMK AO1 T03561005
MALTA       |KM75 012115Z AUTO 23013G18KT 40SM 36/06 A2981 RMK AO1 T03560061






000
SXUS55 KMSO 012113
OSOMSO
MONTANA AWOS SUMMARY
NATIONAL WEATHER SERVICE MISSOULA MT
313 PM MDT SAT AUG 1 2015

Montana AWOS Reports

LAUREL      |K6S8 012055Z AUTO 28014G20KT 40SM 36/01 A2997 RMK AO1 T03610011
TWIN BRIDGES|K7S1 012055Z AUTO VRB06KT 40SM 32/01 A3008 RMK AO1 T03220011
MALTA       |KM75 012055Z AUTO 23009G17KT 40SM 36/07 A2982 RMK AO1 T03560067
SCOBEY      |K9S2 012055Z AUTO 27015G21KT 40SM 34/06 A2981 RMK AO1 T03390061
PLAINS      |KS34 012055Z AUTO 23014G28KT 7SM 37/06 A2993 RMK AO1 T03670061






000
SXUS55 KMSO 012103
OSOMSO
MONTANA AWOS SUMMARY
NATIONAL WEATHER SERVICE MISSOULA MT
303 PM MDT SAT AUG 1 2015

Montana AWOS Reports

ROUNDUP     |KRPX 012055Z AUTO 26015G21KT 40SM 35/M03 A2988 RMK AO1 T03501027
EKALAKA     |K97M 012055Z AUTO 28015G21KT 40SM 34/M02 A2994 RMK AO1 T03441016






000
SXUS55 KMSO 012044
OSOMSO
MONTANA AWOS SUMMARY
NATIONAL WEATHER SERVICE MISSOULA MT
243 PM MDT SAT AUG 1 2015

Montana AWOS Reports

LAUREL      |K6S8 012035Z AUTO 29006KT 40SM 36/02 A2998 RMK AO1 T03560017
TWIN BRIDGES|K7S1 012035Z AUTO 15006KT 40SM 32/02 A3009 RMK AO1 T03220022
ROUNDUP     |KRPX 012035Z AUTO 27014G19KT 40SM 35/M03 A2988 RMK AO1 T03501027
MALTA       |KM75 012035Z AUTO 25011G18KT 40SM 35/07 A2982 RMK AO1 T03500072






000
SXUS55 KMSO 012023
OSOMSO
MONTANA AWOS SUMMARY
NATIONAL WEATHER SERVICE MISSOULA MT
222 PM MDT SAT AUG 1 2015

Montana AWOS Reports

LAUREL      |K6S8 012015Z AUTO 24009G15KT 40SM 36/02 A2999 RMK AO1 T03560017
TWIN BRIDGES|K7S1 012015Z AUTO 17006KT 40SM 31/04 A3010 RMK AO1 T03110039
ROUNDUP     |KRPX 012015Z AUTO 26014KT 40SM 35/M03 A2989 RMK AO1 T03501027
MALTA       |KM75 012015Z AUTO 23010G16KT 40SM 35/09 A2982 RMK AO1 T03500089






000
SXUS55 KMSO 012023
OSOMSO
MONTANA AWOS SUMMARY
NATIONAL WEATHER SERVICE MISSOULA MT
222 PM MDT SAT AUG 1 2015

Montana AWOS Reports

LAUREL      |K6S8 012015Z AUTO 24009G15KT 40SM 36/02 A2999 RMK AO1 T03560017
TWIN BRIDGES|K7S1 012015Z AUTO 17006KT 40SM 31/04 A3010 RMK AO1 T03110039
ROUNDUP     |KRPX 012015Z AUTO 26014KT 40SM 35/M03 A2989 RMK AO1 T03501027
MALTA       |KM75 012015Z AUTO 23010G16KT 40SM 35/09 A2982 RMK AO1 T03500089






000
SXUS55 KMSO 012013
OSOMSO
MONTANA AWOS SUMMARY
NATIONAL WEATHER SERVICE MISSOULA MT
213 PM MDT SAT AUG 1 2015

Montana AWOS Reports

LAUREL      |K6S8 011955Z AUTO 25007KT 40SM 35/01 A2999 RMK AO1 T03500011
TWIN BRIDGES|K7S1 011955Z AUTO 00000KT 40SM 30/06 A3010 RMK AO1 T03000056
ROUNDUP     |KRPX 011955Z AUTO 22004KT 40SM 34/M03 A2989 RMK AO1 T03441032
MALTA       |KM75 011955Z AUTO 21011KT 40SM 34/09 A2982 RMK AO1 T03440089
SCOBEY      |K9S2 011955Z AUTO 25014G22KT 40SM 34/07 A2981 RMK AO1 T03390072






000
SXUS55 KMSO 012003
OSOMSO
MONTANA AWOS SUMMARY
NATIONAL WEATHER SERVICE MISSOULA MT
202 PM MDT SAT AUG 1 2015

Montana AWOS Reports

EKALAKA     |K97M 011955Z AUTO 30008KT 40SM 33/00 A2996 RMK AO1 T03330000
PLAINS      |KS34 011955Z AUTO 00000KT 25SM 37/05 A2994 RMK AO1 T03670050






000
SXUS55 KMSO 012003
OSOMSO
MONTANA AWOS SUMMARY
NATIONAL WEATHER SERVICE MISSOULA MT
202 PM MDT SAT AUG 1 2015

Montana AWOS Reports

EKALAKA     |K97M 011955Z AUTO 30008KT 40SM 33/00 A2996 RMK AO1 T03330000
PLAINS      |KS34 011955Z AUTO 00000KT 25SM 37/05 A2994 RMK AO1 T03670050






000
SXUS55 KMSO 011943
OSOMSO
MONTANA AWOS SUMMARY
NATIONAL WEATHER SERVICE MISSOULA MT
143 PM MDT SAT AUG 1 2015

Montana AWOS Reports

LAUREL      |K6S8 011935Z AUTO 00000KT 40SM 36/01 A3000 RMK AO1 T03560006
TWIN BRIDGES|K7S1 011935Z AUTO 00000KT 40SM 29/04 A3011 RMK AO1 T02890039
ROUNDUP     |KRPX 011935Z AUTO 29011G24KT 40SM 35/M03 A2989 RMK AO1 T03501027
MALTA       |KM75 011935Z AUTO 22009G13KT 40SM 34/11 A2983 RMK AO1 T03390106






000
SXUS55 KMSO 011923
OSOMSO
MONTANA AWOS SUMMARY
NATIONAL WEATHER SERVICE MISSOULA MT
123 PM MDT SAT AUG 1 2015

Montana AWOS Reports

LAUREL      |K6S8 011915Z AUTO 29008KT 40SM 35/00 A3000 RMK AO1 T03500000
ROUNDUP     |KRPX 011915Z AUTO 27013G19KT 40SM 35/M01 A2990 RMK AO1 T03501010
MALTA       |KM75 011915Z AUTO 24010G14KT 40SM 33/11 A2983 RMK AO1 T03330106






000
SXUS55 KMSO 011913
OSOMSO
MONTANA AWOS SUMMARY
NATIONAL WEATHER SERVICE MISSOULA MT
112 PM MDT SAT AUG 1 2015

Montana AWOS Reports

LAUREL      |K6S8 011855Z AUTO 23008KT 40SM 35/01 A3000 RMK AO1 T03500011
TWIN BRIDGES|K7S1 011855Z AUTO 00000KT 40SM 28/03 A3012 RMK AO1 T02780028
ROUNDUP     |KRPX 011855Z AUTO 20007KT 40SM 34/M01 A2990 RMK AO1 T03441005
MALTA       |KM75 011855Z AUTO 23010G15KT 40SM 33/10 A2984 RMK AO1 T03330100
SCOBEY      |K9S2 011855Z AUTO 22014G19KT 40SM 33/08 A2983 RMK AO1 T03330083
PLAINS      |KS34 011855Z AUTO 00000KT 40SM 36/05 A2996 RMK AO1 T03560050






000
SXUS55 KMSO 011913
OSOMSO
MONTANA AWOS SUMMARY
NATIONAL WEATHER SERVICE MISSOULA MT
112 PM MDT SAT AUG 1 2015

Montana AWOS Reports

LAUREL      |K6S8 011855Z AUTO 23008KT 40SM 35/01 A3000 RMK AO1 T03500011
TWIN BRIDGES|K7S1 011855Z AUTO 00000KT 40SM 28/03 A3012 RMK AO1 T02780028
ROUNDUP     |KRPX 011855Z AUTO 20007KT 40SM 34/M01 A2990 RMK AO1 T03441005
MALTA       |KM75 011855Z AUTO 23010G15KT 40SM 33/10 A2984 RMK AO1 T03330100
SCOBEY      |K9S2 011855Z AUTO 22014G19KT 40SM 33/08 A2983 RMK AO1 T03330083
PLAINS      |KS34 011855Z AUTO 00000KT 40SM 36/05 A2996 RMK AO1 T03560050






000
SXUS55 KMSO 011903
OSOMSO
MONTANA AWOS SUMMARY
NATIONAL WEATHER SERVICE MISSOULA MT
103 PM MDT SAT AUG 1 2015

Montana AWOS Reports

EKALAKA     |K97M 011855Z AUTO 26010KT 40SM 33/M01 A2998 RMK AO1 T03281005






000
SXUS55 KMSO 011843
OSOMSO
MONTANA AWOS SUMMARY
NATIONAL WEATHER SERVICE MISSOULA MT
1242 PM MDT SAT AUG 1 2015

Montana AWOS Reports

LAUREL      |K6S8 011835Z AUTO 21004KT 40SM 34/02 A3001 RMK AO1 T03440017
TWIN BRIDGES|K7S1 011835Z AUTO 00000KT 40SM 27/05 A3013 RMK AO1 T02670050
ROUNDUP     |KRPX 011835Z AUTO 25013G18KT 40SM 34/M01 A2991 RMK AO1 T03441005
MALTA       |KM75 011835Z AUTO 21009G15KT 40SM 32/11 A2984 RMK AO1 T03220111






000
SXUS55 KMSO 011823
OSOMSO
MONTANA AWOS SUMMARY
NATIONAL WEATHER SERVICE MISSOULA MT
1223 PM MDT SAT AUG 1 2015

Montana AWOS Reports

LAUREL      |K6S8 011815Z AUTO 18007KT 40SM 34/04 A3002 RMK AO1 T03390039
TWIN BRIDGES|K7S1 011815Z AUTO 00000KT 40SM 26/04 A3014 RMK AO1 T02610039
ROUNDUP     |KRPX 011815Z AUTO 32015G34KT 40SM 34/01 A2990 RMK AO1 T03440006
MALTA       |KM75 011815Z AUTO 22010G14KT 40SM 32/11 A2985 RMK AO1 T03170106






000
SXUS55 KMSO 011813
OSOMSO
MONTANA AWOS SUMMARY
NATIONAL WEATHER SERVICE MISSOULA MT
1213 PM MDT SAT AUG 1 2015

Montana AWOS Reports

EKALAKA     |K97M 011755Z AUTO 25006KT 40SM 32/M01 A3000 RMK AO1 T03171005






000
SXUS55 KMSO 011803
OSOMSO
MONTANA AWOS SUMMARY
NATIONAL WEATHER SERVICE MISSOULA MT
1203 PM MDT SAT AUG 1 2015

Montana AWOS Reports

LAUREL      |K6S8 011755Z AUTO 19008KT 40SM 32/04 A3002 RMK AO1 T03220039
ROUNDUP     |KRPX 011755Z AUTO 17004KT 40SM 33/02 A2992 RMK AO1 T03330022
MALTA       |KM75 011755Z AUTO 23007KT 40SM 31/11 A2985 RMK AO1 T03110111
SCOBEY      |K9S2 011755Z AUTO 17006KT 40SM 31/10 A2986 RMK AO1 T03110100
PLAINS      |KS34 011755Z AUTO 00000KT 25SM 31/05 A2999 RMK AO1 T03060050
TWIN BRIDGES|K7S1 011755Z AUTO 00000KT 40SM 25/04 A3015 RMK AO1 T02500044






000
SXUS55 KMSO 011803
OSOMSO
MONTANA AWOS SUMMARY
NATIONAL WEATHER SERVICE MISSOULA MT
1203 PM MDT SAT AUG 1 2015

Montana AWOS Reports

LAUREL      |K6S8 011755Z AUTO 19008KT 40SM 32/04 A3002 RMK AO1 T03220039
ROUNDUP     |KRPX 011755Z AUTO 17004KT 40SM 33/02 A2992 RMK AO1 T03330022
MALTA       |KM75 011755Z AUTO 23007KT 40SM 31/11 A2985 RMK AO1 T03110111
SCOBEY      |K9S2 011755Z AUTO 17006KT 40SM 31/10 A2986 RMK AO1 T03110100
PLAINS      |KS34 011755Z AUTO 00000KT 25SM 31/05 A2999 RMK AO1 T03060050
TWIN BRIDGES|K7S1 011755Z AUTO 00000KT 40SM 25/04 A3015 RMK AO1 T02500044






000
SXUS55 KMSO 011743
OSOMSO
MONTANA AWOS SUMMARY
NATIONAL WEATHER SERVICE MISSOULA MT
1143 AM MDT SAT AUG 1 2015

Montana AWOS Reports

LAUREL      |K6S8 011735Z AUTO 18006KT 40SM 32/05 A3003 RMK AO1 T03170050
TWIN BRIDGES|K7S1 011735Z AUTO 15004KT 40SM 24/03 A3015 RMK AO1 T02440033
ROUNDUP     |KRPX 011735Z AUTO 00000KT 40SM 33/03 A2992 RMK AO1 T03280028
MALTA       |KM75 011735Z AUTO 23013KT 40SM 30/09 A2985 RMK AO1 T03000094






000
SXUS55 KMSO 011743
OSOMSO
MONTANA AWOS SUMMARY
NATIONAL WEATHER SERVICE MISSOULA MT
1143 AM MDT SAT AUG 1 2015

Montana AWOS Reports

LAUREL      |K6S8 011735Z AUTO 18006KT 40SM 32/05 A3003 RMK AO1 T03170050
TWIN BRIDGES|K7S1 011735Z AUTO 15004KT 40SM 24/03 A3015 RMK AO1 T02440033
ROUNDUP     |KRPX 011735Z AUTO 00000KT 40SM 33/03 A2992 RMK AO1 T03280028
MALTA       |KM75 011735Z AUTO 23013KT 40SM 30/09 A2985 RMK AO1 T03000094






000
SXUS55 KMSO 011724
OSOMSO
MONTANA AWOS SUMMARY
NATIONAL WEATHER SERVICE MISSOULA MT
1123 AM MDT SAT AUG 1 2015

Montana AWOS Reports

LAUREL      |K6S8 011715Z AUTO 17005KT 40SM 31/04 A3004 RMK AO1 T03060044
TWIN BRIDGES|K7S1 011715Z AUTO 17005KT 40SM 23/04 A3015 RMK AO1 T02330044
ROUNDUP     |KRPX 011715Z AUTO 20006KT 40SM 32/03 A2993 RMK AO1 T03170033
MALTA       |KM75 011715Z AUTO 24010KT 40SM 29/11 A2985 RMK AO1 T02940106






000
SXUS55 KMSO 011724
OSOMSO
MONTANA AWOS SUMMARY
NATIONAL WEATHER SERVICE MISSOULA MT
1123 AM MDT SAT AUG 1 2015

Montana AWOS Reports

LAUREL      |K6S8 011715Z AUTO 17005KT 40SM 31/04 A3004 RMK AO1 T03060044
TWIN BRIDGES|K7S1 011715Z AUTO 17005KT 40SM 23/04 A3015 RMK AO1 T02330044
ROUNDUP     |KRPX 011715Z AUTO 20006KT 40SM 32/03 A2993 RMK AO1 T03170033
MALTA       |KM75 011715Z AUTO 24010KT 40SM 29/11 A2985 RMK AO1 T02940106






000
SXUS55 KMSO 011713
OSOMSO
MONTANA AWOS SUMMARY
NATIONAL WEATHER SERVICE MISSOULA MT
1113 AM MDT SAT AUG 1 2015

Montana AWOS Reports

SCOBEY      |K9S2 011655Z AUTO 16004KT 40SM 28/13 A2988 RMK AO1 T02780128
PLAINS      |KS34 011655Z AUTO 00000KT 40SM 27/04 A3001 RMK AO1 T02670044
EKALAKA     |K97M 011655Z AUTO 28008KT 40SM 32/03 A3001 RMK AO1 T03170033






000
SXUS55 KMSO 011653
OSOMSO
MONTANA AWOS SUMMARY
NATIONAL WEATHER SERVICE MISSOULA MT
1053 AM MDT SAT AUG 1 2015

Montana AWOS Reports

LAUREL      |K6S8 011635Z AUTO 21009G13KT 40SM 28/04 A3004 RMK AO1 T02830044
TWIN BRIDGES|K7S1 011635Z AUTO 18005KT 40SM 21/07 A3016 RMK AO1 T02110067






000
SXUS55 KMSO 011653
OSOMSO
MONTANA AWOS SUMMARY
NATIONAL WEATHER SERVICE MISSOULA MT
1053 AM MDT SAT AUG 1 2015

Montana AWOS Reports

LAUREL      |K6S8 011635Z AUTO 21009G13KT 40SM 28/04 A3004 RMK AO1 T02830044
TWIN BRIDGES|K7S1 011635Z AUTO 18005KT 40SM 21/07 A3016 RMK AO1 T02110067






000
SXUS55 KMSO 011643
OSOMSO
MONTANA AWOS SUMMARY
NATIONAL WEATHER SERVICE MISSOULA MT
1042 AM MDT SAT AUG 1 2015

Montana AWOS Reports

ROUNDUP     |KRPX 011635Z AUTO 21009G15KT 40SM 29/06 A2994 RMK AO1 T02890056
MALTA       |KM75 011635Z AUTO 22009KT 40SM 27/12 A2986 RMK AO1 T02720117






000
SXUS55 KMSO 011643
OSOMSO
MONTANA AWOS SUMMARY
NATIONAL WEATHER SERVICE MISSOULA MT
1042 AM MDT SAT AUG 1 2015

Montana AWOS Reports

ROUNDUP     |KRPX 011635Z AUTO 21009G15KT 40SM 29/06 A2994 RMK AO1 T02890056
MALTA       |KM75 011635Z AUTO 22009KT 40SM 27/12 A2986 RMK AO1 T02720117






000
SXUS55 KMSO 011633
OSOMSO
MONTANA AWOS SUMMARY
NATIONAL WEATHER SERVICE MISSOULA MT
1033 AM MDT SAT AUG 1 2015

Montana AWOS Reports

LAUREL      |K6S8 011615Z AUTO 19009G13KT 40SM 26/04 A3005 RMK AO1 T02610039
TWIN BRIDGES|K7S1 011615Z AUTO 19004KT 40SM 20/06 A3017 RMK AO1 T02000061
MALTA       |KM75 011615Z AUTO 24008KT 7SM 26/12 A2986 RMK AO1 T02610117






000
SXUS55 KMSO 011633
OSOMSO
MONTANA AWOS SUMMARY
NATIONAL WEATHER SERVICE MISSOULA MT
1033 AM MDT SAT AUG 1 2015

Montana AWOS Reports

LAUREL      |K6S8 011615Z AUTO 19009G13KT 40SM 26/04 A3005 RMK AO1 T02610039
TWIN BRIDGES|K7S1 011615Z AUTO 19004KT 40SM 20/06 A3017 RMK AO1 T02000061
MALTA       |KM75 011615Z AUTO 24008KT 7SM 26/12 A2986 RMK AO1 T02610117






000
SXUS55 KMSO 011623
OSOMSO
MONTANA AWOS SUMMARY
NATIONAL WEATHER SERVICE MISSOULA MT
1023 AM MDT SAT AUG 1 2015

Montana AWOS Reports

ROUNDUP     |KRPX 011615Z AUTO 19006KT 40SM 27/05 A2994 RMK AO1 T02670050






000
SXUS55 KMSO 011623
OSOMSO
MONTANA AWOS SUMMARY
NATIONAL WEATHER SERVICE MISSOULA MT
1023 AM MDT SAT AUG 1 2015

Montana AWOS Reports

ROUNDUP     |KRPX 011615Z AUTO 19006KT 40SM 27/05 A2994 RMK AO1 T02670050






000
SXUS55 KMSO 011613
OSOMSO
MONTANA AWOS SUMMARY
NATIONAL WEATHER SERVICE MISSOULA MT
1012 AM MDT SAT AUG 1 2015

Montana AWOS Reports

PLAINS      |KS34 011555Z AUTO 00000KT 40SM 22/03 A3004 RMK AO1 T02220033
SCOBEY      |K9S2 011555Z AUTO 16005KT 40SM 24/12 A2990 RMK AO1 T02390117
EKALAKA     |K97M 011555Z AUTO 34007KT 40SM 31/03 A3000 RMK AO1 T03060028






000
SXUS55 KMSO 011603
OSOMSO
MONTANA AWOS SUMMARY
NATIONAL WEATHER SERVICE MISSOULA MT
1003 AM MDT SAT AUG 1 2015

Montana AWOS Reports

TWIN BRIDGES|K7S1 011555Z AUTO 18004KT 40SM 19/06 A3017 RMK AO1 T01890061
ROUNDUP     |KRPX 011555Z AUTO 19005KT 40SM 25/04 A2995 RMK AO1 T02500044
MALTA       |KM75 011555Z AUTO 26005KT 1/2SM HZ 24/11 A2987 RMK AO1 T02440111
LAUREL      |K6S8 011555Z AUTO 20008KT 40SM 25/04 A3005 RMK AO1 T02500039






000
SXUS55 KMSO 011553
OSOMSO
MONTANA AWOS SUMMARY
NATIONAL WEATHER SERVICE MISSOULA MT
952 AM MDT SAT AUG 1 2015

Montana AWOS Reports

LAUREL      |K6S8 011535Z AUTO 19006KT 40SM 24/04 A3006 RMK AO1 T02390039
TWIN BRIDGES|K7S1 011535Z AUTO 16004KT 40SM 18/06 A3018 RMK AO1 T01780061
MALTA       |KM75 011535Z AUTO 00000KT 3/4SM HZ 23/11 A2988 RMK AO1 T02280111






000
SXUS55 KMSO 011553
OSOMSO
MONTANA AWOS SUMMARY
NATIONAL WEATHER SERVICE MISSOULA MT
952 AM MDT SAT AUG 1 2015

Montana AWOS Reports

LAUREL      |K6S8 011535Z AUTO 19006KT 40SM 24/04 A3006 RMK AO1 T02390039
TWIN BRIDGES|K7S1 011535Z AUTO 16004KT 40SM 18/06 A3018 RMK AO1 T01780061
MALTA       |KM75 011535Z AUTO 00000KT 3/4SM HZ 23/11 A2988 RMK AO1 T02280111






000
SXUS55 KMSO 011543
OSOMSO
MONTANA AWOS SUMMARY
NATIONAL WEATHER SERVICE MISSOULA MT
943 AM MDT SAT AUG 1 2015

Montana AWOS Reports

ROUNDUP     |KRPX 011535Z AUTO 19011KT 40SM 23/04 A2995 RMK AO1 T02330044






000
SXUS55 KMSO 011523
OSOMSO
MONTANA AWOS SUMMARY
NATIONAL WEATHER SERVICE MISSOULA MT
923 AM MDT SAT AUG 1 2015

Montana AWOS Reports

LAUREL      |K6S8 011515Z AUTO 20009G13KT 40SM 22/03 A3006 RMK AO1 T02220028
TWIN BRIDGES|K7S1 011515Z AUTO 19005KT 40SM 16/05 A3018 RMK AO1 T01610050
ROUNDUP     |KRPX 011515Z AUTO 19010G15KT 40SM 22/04 A2995 RMK AO1 T02170044
MALTA       |KM75 011515Z AUTO 40SM 21/13 A2988 RMK AO1 T02110128






000
SXUS55 KMSO 011513
OSOMSO
MONTANA AWOS SUMMARY
NATIONAL WEATHER SERVICE MISSOULA MT
913 AM MDT SAT AUG 1 2015

Montana AWOS Reports

LAUREL      |K6S8 011455Z AUTO 20007KT 40SM 21/04 A3006 RMK AO1 T02060039
TWIN BRIDGES|K7S1 011455Z AUTO 20005KT 40SM 15/04 A3019 RMK AO1 T01500044
ROUNDUP     |KRPX 011455Z AUTO 20005KT 40SM 21/05 A2996 RMK AO1 T02060050
MALTA       |KM75 011455Z AUTO 40SM 21/13 A2988 RMK AO1 T02060128
EKALAKA     |K97M 011455Z AUTO 28004KT 40SM 28/04 A3000 RMK AO1 T02830039
SCOBEY      |K9S2 011455Z AUTO 16004KT 40SM 21/11 A2992 RMK AO1 T02110111






000
SXUS55 KMSO 011513
OSOMSO
MONTANA AWOS SUMMARY
NATIONAL WEATHER SERVICE MISSOULA MT
913 AM MDT SAT AUG 1 2015

Montana AWOS Reports

LAUREL      |K6S8 011455Z AUTO 20007KT 40SM 21/04 A3006 RMK AO1 T02060039
TWIN BRIDGES|K7S1 011455Z AUTO 20005KT 40SM 15/04 A3019 RMK AO1 T01500044
ROUNDUP     |KRPX 011455Z AUTO 20005KT 40SM 21/05 A2996 RMK AO1 T02060050
MALTA       |KM75 011455Z AUTO 40SM 21/13 A2988 RMK AO1 T02060128
EKALAKA     |K97M 011455Z AUTO 28004KT 40SM 28/04 A3000 RMK AO1 T02830039
SCOBEY      |K9S2 011455Z AUTO 16004KT 40SM 21/11 A2992 RMK AO1 T02110111






000
SXUS55 KMSO 011503
OSOMSO
MONTANA AWOS SUMMARY
NATIONAL WEATHER SERVICE MISSOULA MT
902 AM MDT SAT AUG 1 2015

Montana AWOS Reports

PLAINS      |KS34 011455Z AUTO 00000KT 40SM 16/04 A3005 RMK AO1 T01610044






000
SXUS55 KMSO 011453
OSOMSO
MONTANA AWOS SUMMARY
NATIONAL WEATHER SERVICE MISSOULA MT
852 AM MDT SAT AUG 1 2015

Montana AWOS Reports

LAUREL      |K6S8 011435Z AUTO 20005KT 40SM 19/03 A3007 RMK AO1 T01940033
TWIN BRIDGES|K7S1 011435Z AUTO 18006KT 40SM 14/05 A3019 RMK AO1 T01440050
MALTA       |KM75 011435Z AUTO 40SM 21/13 A2989 RMK AO1 T02060128






000
SXUS55 KMSO 011423
OSOMSO
MONTANA AWOS SUMMARY
NATIONAL WEATHER SERVICE MISSOULA MT
823 AM MDT SAT AUG 1 2015

Montana AWOS Reports

LAUREL      |K6S8 011415Z AUTO 21006KT 40SM 18/03 A3006 RMK AO1 T01830028
TWIN BRIDGES|K7S1 011415Z AUTO 14005KT 40SM 14/04 A3019 RMK AO1 T01390044
ROUNDUP     |KRPX 011415Z AUTO 19009G14KT 40SM 18/04 A2996 RMK AO1 T01780044
MALTA       |KM75 011415Z AUTO 00000KT 40SM 19/12 A2989 RMK AO1 T01890122






000
SXUS55 KMSO 011413
OSOMSO
MONTANA AWOS SUMMARY
NATIONAL WEATHER SERVICE MISSOULA MT
813 AM MDT SAT AUG 1 2015

Montana AWOS Reports

LAUREL      |K6S8 011355Z AUTO 21006KT 40SM 17/02 A3006 RMK AO1 T01720017
TWIN BRIDGES|K7S1 011355Z AUTO 18004KT 40SM 12/04 A3019 RMK AO1 T01170044
ROUNDUP     |KRPX 011355Z AUTO 20011G15KT 40SM 17/04 A2996 RMK AO1 T01670044
MALTA       |KM75 011355Z AUTO 00000KT 40SM 18/12 A2989 RMK AO1 T01780122
PLAINS      |KS34 011355Z AUTO 00000KT 40SM 12/04 A3005 RMK AO1 T01220039
SCOBEY      |K9S2 011355Z AUTO 00000KT 40SM 17/09 A2993 RMK AO1 T01670094
EKALAKA     |K97M 011355Z AUTO 00000KT 40SM 23/07 A3001 RMK AO1 T02330072






000
SXUS55 KMSO 011413
OSOMSO
MONTANA AWOS SUMMARY
NATIONAL WEATHER SERVICE MISSOULA MT
813 AM MDT SAT AUG 1 2015

Montana AWOS Reports

LAUREL      |K6S8 011355Z AUTO 21006KT 40SM 17/02 A3006 RMK AO1 T01720017
TWIN BRIDGES|K7S1 011355Z AUTO 18004KT 40SM 12/04 A3019 RMK AO1 T01170044
ROUNDUP     |KRPX 011355Z AUTO 20011G15KT 40SM 17/04 A2996 RMK AO1 T01670044
MALTA       |KM75 011355Z AUTO 00000KT 40SM 18/12 A2989 RMK AO1 T01780122
PLAINS      |KS34 011355Z AUTO 00000KT 40SM 12/04 A3005 RMK AO1 T01220039
SCOBEY      |K9S2 011355Z AUTO 00000KT 40SM 17/09 A2993 RMK AO1 T01670094
EKALAKA     |K97M 011355Z AUTO 00000KT 40SM 23/07 A3001 RMK AO1 T02330072






000
SXUS55 KMSO 011343
OSOMSO
MONTANA AWOS SUMMARY
NATIONAL WEATHER SERVICE MISSOULA MT
743 AM MDT SAT AUG 1 2015

Montana AWOS Reports

LAUREL      |K6S8 011335Z AUTO 00000KT 40SM 17/03 A3006 RMK AO1 T01670028
TWIN BRIDGES|K7S1 011335Z AUTO 00000KT 40SM 11/03 A3019 RMK AO1 T01060028
ROUNDUP     |KRPX 011335Z AUTO 19012KT 40SM 16/04 A2996 RMK AO1 T01560044
MALTA       |KM75 011335Z AUTO 00000KT 25SM 16/12 A2989 RMK AO1 T01610122






000
SXUS55 KMSO 011343
OSOMSO
MONTANA AWOS SUMMARY
NATIONAL WEATHER SERVICE MISSOULA MT
743 AM MDT SAT AUG 1 2015

Montana AWOS Reports

LAUREL      |K6S8 011335Z AUTO 00000KT 40SM 17/03 A3006 RMK AO1 T01670028
TWIN BRIDGES|K7S1 011335Z AUTO 00000KT 40SM 11/03 A3019 RMK AO1 T01060028
ROUNDUP     |KRPX 011335Z AUTO 19012KT 40SM 16/04 A2996 RMK AO1 T01560044
MALTA       |KM75 011335Z AUTO 00000KT 25SM 16/12 A2989 RMK AO1 T01610122






000
SXUS55 KMSO 011323
OSOMSO
MONTANA AWOS SUMMARY
NATIONAL WEATHER SERVICE MISSOULA MT
722 AM MDT SAT AUG 1 2015

Montana AWOS Reports

LAUREL      |K6S8 011315Z AUTO 21006KT 40SM 16/02 A3006 RMK AO1 T01560017
TWIN BRIDGES|K7S1 011315Z AUTO 17004KT 40SM 11/03 A3018 RMK AO1 T01060028
ROUNDUP     |KRPX 011315Z AUTO 20008KT 40SM 15/04 A2996 RMK AO1 T01500044
MALTA       |KM75 011315Z AUTO 00000KT 10SM 14/12 A2989 RMK AO1 T01440117






000
SXUS55 KMSO 011323
OSOMSO
MONTANA AWOS SUMMARY
NATIONAL WEATHER SERVICE MISSOULA MT
722 AM MDT SAT AUG 1 2015

Montana AWOS Reports

LAUREL      |K6S8 011315Z AUTO 21006KT 40SM 16/02 A3006 RMK AO1 T01560017
TWIN BRIDGES|K7S1 011315Z AUTO 17004KT 40SM 11/03 A3018 RMK AO1 T01060028
ROUNDUP     |KRPX 011315Z AUTO 20008KT 40SM 15/04 A2996 RMK AO1 T01500044
MALTA       |KM75 011315Z AUTO 00000KT 10SM 14/12 A2989 RMK AO1 T01440117






000
SXUS55 KMSO 011313
OSOMSO
MONTANA AWOS SUMMARY
NATIONAL WEATHER SERVICE MISSOULA MT
713 AM MDT SAT AUG 1 2015

Montana AWOS Reports

TWIN BRIDGES|K7S1 011255Z AUTO 12005KT 40SM 10/02 A3018 RMK AO1 T01000017






000
SXUS55 KMSO 011313
OSOMSO
MONTANA AWOS SUMMARY
NATIONAL WEATHER SERVICE MISSOULA MT
713 AM MDT SAT AUG 1 2015

Montana AWOS Reports

TWIN BRIDGES|K7S1 011255Z AUTO 12005KT 40SM 10/02 A3018 RMK AO1 T01000017






000
SXUS55 KMSO 011243
OSOMSO
MONTANA AWOS SUMMARY
NATIONAL WEATHER SERVICE MISSOULA MT
643 AM MDT SAT AUG 1 2015

Montana AWOS Reports

LAUREL      |K6S8 011235Z AUTO 00000KT 40SM 13/03 A3006 RMK AO1 T01280028
TWIN BRIDGES|K7S1 011235Z AUTO 11004KT 40SM 10/02 A3018 RMK AO1 T01000022
ROUNDUP     |KRPX 011235Z AUTO 19014G18KT 40SM 14/04 A2996 RMK AO1 T01390044
MALTA       |KM75 011235Z AUTO 00000KT 40SM 12/09 A2989 RMK AO1 T01220094






000
SXUS55 KMSO 011233
OSOMSO
MONTANA AWOS SUMMARY
NATIONAL WEATHER SERVICE MISSOULA MT
633 AM MDT SAT AUG 1 2015

Montana AWOS Reports

LAUREL      |K6S8 011215Z AUTO 00000KT 40SM 12/02 A3006 RMK AO1 T01220017
TWIN BRIDGES|K7S1 011215Z AUTO 00000KT 40SM 11/02 A3018 RMK AO1 T01060022
MALTA       |KM75 011215Z AUTO 00000KT 40SM 12/09 A2989 RMK AO1 T01170089






000
SXUS55 KMSO 011233
OSOMSO
MONTANA AWOS SUMMARY
NATIONAL WEATHER SERVICE MISSOULA MT
633 AM MDT SAT AUG 1 2015

Montana AWOS Reports

LAUREL      |K6S8 011215Z AUTO 00000KT 40SM 12/02 A3006 RMK AO1 T01220017
TWIN BRIDGES|K7S1 011215Z AUTO 00000KT 40SM 11/02 A3018 RMK AO1 T01060022
MALTA       |KM75 011215Z AUTO 00000KT 40SM 12/09 A2989 RMK AO1 T01170089






000
SXUS55 KMSO 011223
OSOMSO
MONTANA AWOS SUMMARY
NATIONAL WEATHER SERVICE MISSOULA MT
623 AM MDT SAT AUG 1 2015

Montana AWOS Reports

ROUNDUP     |KRPX 011215Z AUTO 20010G16KT 40SM 14/05 A2996 RMK AO1 T01390050






000
SXUS55 KMSO 011223
OSOMSO
MONTANA AWOS SUMMARY
NATIONAL WEATHER SERVICE MISSOULA MT
623 AM MDT SAT AUG 1 2015

Montana AWOS Reports

ROUNDUP     |KRPX 011215Z AUTO 20010G16KT 40SM 14/05 A2996 RMK AO1 T01390050






000
SXUS55 KMSO 011213
OSOMSO
MONTANA AWOS SUMMARY
NATIONAL WEATHER SERVICE MISSOULA MT
612 AM MDT SAT AUG 1 2015

Montana AWOS Reports

EKALAKA     |K97M 011155Z AUTO 00000KT 40SM 18/06 A3001 RMK AO1 T01830061






000
SXUS55 KMSO 011213
OSOMSO
MONTANA AWOS SUMMARY
NATIONAL WEATHER SERVICE MISSOULA MT
612 AM MDT SAT AUG 1 2015

Montana AWOS Reports

EKALAKA     |K97M 011155Z AUTO 00000KT 40SM 18/06 A3001 RMK AO1 T01830061






000
SXUS55 KMSO 011203
OSOMSO
MONTANA AWOS SUMMARY
NATIONAL WEATHER SERVICE MISSOULA MT
603 AM MDT SAT AUG 1 2015

Montana AWOS Reports

LAUREL      |K6S8 011155Z AUTO 00000KT 40SM 14/02 A3005 RMK AO1 T01390017
TWIN BRIDGES|K7S1 011155Z AUTO 12006KT 40SM 12/02 A3017 RMK AO1 T01170017
ROUNDUP     |KRPX 011155Z AUTO 20010G16KT 40SM 13/04 A2996 RMK AO1 T01330044
MALTA       |KM75 011155Z AUTO 00000KT 40SM 12/09 A2990 RMK AO1 T01170089
PLAINS      |KS34 011155Z AUTO 00000KT 40SM 10/02 A3003 RMK AO1 T01000017
SCOBEY      |K9S2 011155Z AUTO 00000KT 15SM 11/06 A2995 RMK AO1 T01060061






000
SXUS55 KMSO 011153
OSOMSO
MONTANA AWOS SUMMARY
NATIONAL WEATHER SERVICE MISSOULA MT
553 AM MDT SAT AUG 1 2015

Montana AWOS Reports

LAUREL      |K6S8 011135Z AUTO 00000KT 40SM 14/01 A3005 RMK AO1 T01390011
TWIN BRIDGES|K7S1 011135Z AUTO 13009KT 40SM 11/02 A3017 RMK AO1 T01110017
MALTA       |KM75 011135Z AUTO 00000KT 40SM 12/09 A2990 RMK AO1 T01170089






000
SXUS55 KMSO 011143
OSOMSO
MONTANA AWOS SUMMARY
NATIONAL WEATHER SERVICE MISSOULA MT
542 AM MDT SAT AUG 1 2015

Montana AWOS Reports

ROUNDUP     |KRPX 011135Z AUTO 19009G14KT 40SM 14/05 A2997 RMK AO1 T01390050






000
SXUS55 KMSO 011143
OSOMSO
MONTANA AWOS SUMMARY
NATIONAL WEATHER SERVICE MISSOULA MT
542 AM MDT SAT AUG 1 2015

Montana AWOS Reports

ROUNDUP     |KRPX 011135Z AUTO 19009G14KT 40SM 14/05 A2997 RMK AO1 T01390050






000
SXUS55 KMSO 011123
OSOMSO
MONTANA AWOS SUMMARY
NATIONAL WEATHER SERVICE MISSOULA MT
523 AM MDT SAT AUG 1 2015

Montana AWOS Reports

LAUREL      |K6S8 011115Z AUTO 00000KT 40SM 13/02 A3005 RMK AO1 T01330017
TWIN BRIDGES|K7S1 011115Z AUTO 11005KT 40SM 10/03 A3017 RMK AO1 T01000028
MALTA       |KM75 011115Z AUTO 00000KT 40SM 12/09 A2990 RMK AO1 T01220094






000
SXUS55 KMSO 011123
OSOMSO
MONTANA AWOS SUMMARY
NATIONAL WEATHER SERVICE MISSOULA MT
523 AM MDT SAT AUG 1 2015

Montana AWOS Reports

LAUREL      |K6S8 011115Z AUTO 00000KT 40SM 13/02 A3005 RMK AO1 T01330017
TWIN BRIDGES|K7S1 011115Z AUTO 11005KT 40SM 10/03 A3017 RMK AO1 T01000028
MALTA       |KM75 011115Z AUTO 00000KT 40SM 12/09 A2990 RMK AO1 T01220094






000
SXUS55 KMSO 011103
OSOMSO
MONTANA AWOS SUMMARY
NATIONAL WEATHER SERVICE MISSOULA MT
503 AM MDT SAT AUG 1 2015

Montana AWOS Reports

ROUNDUP     |KRPX 011055Z AUTO 20007KT 40SM 14/05 A2997 RMK AO1 T01390050
LAUREL      |K6S8 011055Z AUTO 00000KT 40SM 13/02 A3006 RMK AO1 T01280022
TWIN BRIDGES|K7S1 011055Z AUTO 00000KT 40SM 10/03 A3017 RMK AO1 T01000028
MALTA       |KM75 011055Z AUTO 00000KT 40SM 12/09 A2991 RMK AO1 T01220094
SCOBEY      |K9S2 011055Z AUTO 00000KT 40SM 13/07 A2997 RMK AO1 T01280072
EKALAKA     |K97M 011055Z AUTO 00000KT 40SM 20/06 A3001 RMK AO1 T02000061
PLAINS      |KS34 011055Z AUTO 00000KT 40SM 11/03 A3003 RMK AO1 T01110033






000
SXUS55 KMSO 011103
OSOMSO
MONTANA AWOS SUMMARY
NATIONAL WEATHER SERVICE MISSOULA MT
503 AM MDT SAT AUG 1 2015

Montana AWOS Reports

ROUNDUP     |KRPX 011055Z AUTO 20007KT 40SM 14/05 A2997 RMK AO1 T01390050
LAUREL      |K6S8 011055Z AUTO 00000KT 40SM 13/02 A3006 RMK AO1 T01280022
TWIN BRIDGES|K7S1 011055Z AUTO 00000KT 40SM 10/03 A3017 RMK AO1 T01000028
MALTA       |KM75 011055Z AUTO 00000KT 40SM 12/09 A2991 RMK AO1 T01220094
SCOBEY      |K9S2 011055Z AUTO 00000KT 40SM 13/07 A2997 RMK AO1 T01280072
EKALAKA     |K97M 011055Z AUTO 00000KT 40SM 20/06 A3001 RMK AO1 T02000061
PLAINS      |KS34 011055Z AUTO 00000KT 40SM 11/03 A3003 RMK AO1 T01110033






000
SXUS55 KMSO 011053
OSOMSO
MONTANA AWOS SUMMARY
NATIONAL WEATHER SERVICE MISSOULA MT
452 AM MDT SAT AUG 1 2015

Montana AWOS Reports

LAUREL      |K6S8 011035Z AUTO 00000KT 40SM 12/03 A3006 RMK AO1 T01220028
TWIN BRIDGES|K7S1 011035Z AUTO 00000KT 40SM 09/03 A3018 RMK AO1 T00890028
ROUNDUP     |KRPX 011035Z AUTO 20010G15KT 40SM 14/05 A2998 RMK AO1 T01390050
MALTA       |KM75 011035Z AUTO 00000KT 40SM 12/09 A2991 RMK AO1 T01220089






000
SXUS55 KMSO 011023
OSOMSO
MONTANA AWOS SUMMARY
NATIONAL WEATHER SERVICE MISSOULA MT
423 AM MDT SAT AUG 1 2015

Montana AWOS Reports

LAUREL      |K6S8 011015Z AUTO 00000KT 40SM 13/03 A3007 RMK AO1 T01280028
TWIN BRIDGES|K7S1 011015Z AUTO 00000KT 40SM 09/03 A3018 RMK AO1 T00890028
ROUNDUP     |KRPX 011015Z AUTO 21010G14KT 40SM 14/05 A2998 RMK AO1 T01390050
MALTA       |KM75 011015Z AUTO 00000KT 40SM 13/09 A2991 RMK AO1 T01280094






000
SXUS55 KMSO 011023
OSOMSO
MONTANA AWOS SUMMARY
NATIONAL WEATHER SERVICE MISSOULA MT
423 AM MDT SAT AUG 1 2015

Montana AWOS Reports

LAUREL      |K6S8 011015Z AUTO 00000KT 40SM 13/03 A3007 RMK AO1 T01280028
TWIN BRIDGES|K7S1 011015Z AUTO 00000KT 40SM 09/03 A3018 RMK AO1 T00890028
ROUNDUP     |KRPX 011015Z AUTO 21010G14KT 40SM 14/05 A2998 RMK AO1 T01390050
MALTA       |KM75 011015Z AUTO 00000KT 40SM 13/09 A2991 RMK AO1 T01280094






000
SXUS55 KMSO 011013
OSOMSO
MONTANA AWOS SUMMARY
NATIONAL WEATHER SERVICE MISSOULA MT
413 AM MDT SAT AUG 1 2015

Montana AWOS Reports

EKALAKA     |K97M 010955Z AUTO 00000KT 40SM 23/07 A3001 RMK AO1 T02330067






000
SXUS55 KMSO 011003
OSOMSO
MONTANA AWOS SUMMARY
NATIONAL WEATHER SERVICE MISSOULA MT
402 AM MDT SAT AUG 1 2015

Montana AWOS Reports

LAUREL      |K6S8 010955Z AUTO 22004KT 40SM 13/02 A3007 RMK AO1 T01330022
TWIN BRIDGES|K7S1 010955Z AUTO 00000KT 40SM 10/03 A3018 RMK AO1 T01000028
ROUNDUP     |KRPX 010955Z AUTO 20007KT 40SM 14/05 A2998 RMK AO1 T01390050
MALTA       |KM75 010955Z AUTO 00000KT 40SM 12/09 A2992 RMK AO1 T01220089






000
SXUS55 KMSO 011003
OSOMSO
MONTANA AWOS SUMMARY
NATIONAL WEATHER SERVICE MISSOULA MT
402 AM MDT SAT AUG 1 2015

Montana AWOS Reports

LAUREL      |K6S8 010955Z AUTO 22004KT 40SM 13/02 A3007 RMK AO1 T01330022
TWIN BRIDGES|K7S1 010955Z AUTO 00000KT 40SM 10/03 A3018 RMK AO1 T01000028
ROUNDUP     |KRPX 010955Z AUTO 20007KT 40SM 14/05 A2998 RMK AO1 T01390050
MALTA       |KM75 010955Z AUTO 00000KT 40SM 12/09 A2992 RMK AO1 T01220089






000
SXUS55 KMSO 010943
OSOMSO
MONTANA AWOS SUMMARY
NATIONAL WEATHER SERVICE MISSOULA MT
343 AM MDT SAT AUG 1 2015

Montana AWOS Reports

LAUREL      |K6S8 010935Z AUTO 00000KT 40SM 14/02 A3007 RMK AO1 T01440017
TWIN BRIDGES|K7S1 010935Z AUTO 00000KT 40SM 09/03 A3018 RMK AO1 T00940028
ROUNDUP     |KRPX 010935Z AUTO 20008KT 40SM 14/06 A2999 RMK AO1 T01440056
MALTA       |KM75 010935Z AUTO 00000KT 40SM 13/09 A2993 RMK AO1 T01280094






000
SXUS55 KMSO 010923
OSOMSO
MONTANA AWOS SUMMARY
NATIONAL WEATHER SERVICE MISSOULA MT
323 AM MDT SAT AUG 1 2015

Montana AWOS Reports

LAUREL      |K6S8 010915Z AUTO 00000KT 40SM 16/01 A3008 RMK AO1 T01560011
TWIN BRIDGES|K7S1 010915Z AUTO 00000KT 40SM 09/03 A3018 RMK AO1 T00940033
ROUNDUP     |KRPX 010915Z AUTO 22005KT 40SM 15/06 A2999 RMK AO1 T01500056
MALTA       |KM75 010915Z AUTO 00000KT 1 3/4SM HZ 13/09 A2994 RMK AO1 T01280094






000
SXUS55 KMSO 010923
OSOMSO
MONTANA AWOS SUMMARY
NATIONAL WEATHER SERVICE MISSOULA MT
323 AM MDT SAT AUG 1 2015

Montana AWOS Reports

LAUREL      |K6S8 010915Z AUTO 00000KT 40SM 16/01 A3008 RMK AO1 T01560011
TWIN BRIDGES|K7S1 010915Z AUTO 00000KT 40SM 09/03 A3018 RMK AO1 T00940033
ROUNDUP     |KRPX 010915Z AUTO 22005KT 40SM 15/06 A2999 RMK AO1 T01500056
MALTA       |KM75 010915Z AUTO 00000KT 1 3/4SM HZ 13/09 A2994 RMK AO1 T01280094






000
SXUS55 KMSO 010913
OSOMSO
MONTANA AWOS SUMMARY
NATIONAL WEATHER SERVICE MISSOULA MT
313 AM MDT SAT AUG 1 2015

Montana AWOS Reports

EKALAKA     |K97M 010855Z AUTO 00000KT 40SM 24/07 A3001 RMK AO1 T02440072






000
SXUS55 KMSO 010903
OSOMSO
MONTANA AWOS SUMMARY
NATIONAL WEATHER SERVICE MISSOULA MT
303 AM MDT SAT AUG 1 2015

Montana AWOS Reports

LAUREL      |K6S8 010855Z AUTO 00000KT 40SM 16/01 A3008 RMK AO1 T01610011
TWIN BRIDGES|K7S1 010855Z AUTO 00000KT 40SM 11/03 A3018 RMK AO1 T01060033
ROUNDUP     |KRPX 010855Z AUTO 00000KT 40SM 16/06 A2999 RMK AO1 T01610056
MALTA       |KM75 010855Z AUTO 00000KT 40SM 13/09 A2993 RMK AO1 T01330094
SCOBEY      |K9S2 010855Z AUTO 00000KT 40SM 17/07 A2999 RMK AO1 T01720072
PLAINS      |KS34 010855Z AUTO 00000KT 40SM 13/04 A3003 RMK AO1 T01330039






000
SXUS55 KMSO 010903
OSOMSO
MONTANA AWOS SUMMARY
NATIONAL WEATHER SERVICE MISSOULA MT
303 AM MDT SAT AUG 1 2015

Montana AWOS Reports

LAUREL      |K6S8 010855Z AUTO 00000KT 40SM 16/01 A3008 RMK AO1 T01610011
TWIN BRIDGES|K7S1 010855Z AUTO 00000KT 40SM 11/03 A3018 RMK AO1 T01060033
ROUNDUP     |KRPX 010855Z AUTO 00000KT 40SM 16/06 A2999 RMK AO1 T01610056
MALTA       |KM75 010855Z AUTO 00000KT 40SM 13/09 A2993 RMK AO1 T01330094
SCOBEY      |K9S2 010855Z AUTO 00000KT 40SM 17/07 A2999 RMK AO1 T01720072
PLAINS      |KS34 010855Z AUTO 00000KT 40SM 13/04 A3003 RMK AO1 T01330039






000
SXUS55 KMSO 010843
OSOMSO
MONTANA AWOS SUMMARY
NATIONAL WEATHER SERVICE MISSOULA MT
243 AM MDT SAT AUG 1 2015

Montana AWOS Reports

LAUREL      |K6S8 010835Z AUTO 00000KT 40SM 17/01 A3008 RMK AO1 T01720011
TWIN BRIDGES|K7S1 010835Z AUTO 00000KT 40SM 11/03 A3018 RMK AO1 T01060033
ROUNDUP     |KRPX 010835Z AUTO 00000KT 40SM 16/06 A2999 RMK AO1 T01610056
MALTA       |KM75 010835Z AUTO 00000KT 40SM 14/10 A2993 RMK AO1 T01390100






000
SXUS55 KMSO 010833
OSOMSO
MONTANA AWOS SUMMARY
NATIONAL WEATHER SERVICE MISSOULA MT
232 AM MDT SAT AUG 1 2015

Montana AWOS Reports

LAUREL      |K6S8 010815Z AUTO 00000KT 40SM 19/01 A3008 RMK AO1 T01890011
TWIN BRIDGES|K7S1 010815Z AUTO 13004KT 40SM 12/04 A3018 RMK AO1 T01220039
MALTA       |KM75 010815Z AUTO 00000KT 40SM 14/10 A2994 RMK AO1 T01390100






000
SXUS55 KMSO 010823
OSOMSO
MONTANA AWOS SUMMARY
NATIONAL WEATHER SERVICE MISSOULA MT
222 AM MDT SAT AUG 1 2015

Montana AWOS Reports

ROUNDUP     |KRPX 010815Z AUTO 21005KT 40SM 16/04 A3000 RMK AO1 T01610044






000
SXUS55 KMSO 010823
OSOMSO
MONTANA AWOS SUMMARY
NATIONAL WEATHER SERVICE MISSOULA MT
222 AM MDT SAT AUG 1 2015

Montana AWOS Reports

ROUNDUP     |KRPX 010815Z AUTO 21005KT 40SM 16/04 A3000 RMK AO1 T01610044






000
SXUS55 KMSO 010813
OSOMSO
MONTANA AWOS SUMMARY
NATIONAL WEATHER SERVICE MISSOULA MT
213 AM MDT SAT AUG 1 2015

Montana AWOS Reports

EKALAKA     |K97M 010755Z AUTO 00000KT 40SM 23/08 A3004 RMK AO1 T02330083






000
SXUS55 KMSO 010803
OSOMSO
MONTANA AWOS SUMMARY
NATIONAL WEATHER SERVICE MISSOULA MT
202 AM MDT SAT AUG 1 2015

Montana AWOS Reports

ROUNDUP     |KRPX 010755Z AUTO 22006KT 40SM 17/05 A3000 RMK AO1 T01670050
LAUREL      |K6S8 010755Z AUTO 00000KT 40SM 18/02 A3008 RMK AO1 T01830017
MALTA       |KM75 010755Z AUTO 00000KT 1 1/2SM HZ 14/10 A2994 RMK AO1 T01390100
TWIN BRIDGES|K7S1 010755Z AUTO 10004KT 40SM 14/02 A3018 RMK AO1 T01390022
SCOBEY      |K9S2 010755Z AUTO 09008KT 40SM 18/08 A2999 RMK AO1 T01830078
PLAINS      |KS34 010755Z AUTO 00000KT 40SM 15/02 A3003 RMK AO1 T01500022






000
SXUS55 KMSO 010743
OSOMSO
MONTANA AWOS SUMMARY
NATIONAL WEATHER SERVICE MISSOULA MT
143 AM MDT SAT AUG 1 2015

Montana AWOS Reports

LAUREL      |K6S8 010735Z AUTO 00000KT 40SM 21/01 A3009 RMK AO1 T02110011
TWIN BRIDGES|K7S1 010735Z AUTO 10006KT 40SM 14/03 A3018 RMK AO1 T01440028
ROUNDUP     |KRPX 010735Z AUTO 00000KT 40SM 18/04 A3000 RMK AO1 T01830044
MALTA       |KM75 010735Z AUTO 00000KT 40SM 14/10 A2995 RMK AO1 T01390100






000
SXUS55 KMSO 010723
OSOMSO
MONTANA AWOS SUMMARY
NATIONAL WEATHER SERVICE MISSOULA MT
123 AM MDT SAT AUG 1 2015

Montana AWOS Reports

LAUREL      |K6S8 010715Z AUTO 29004KT 40SM 23/03 A3009 RMK AO1 T02280033
TWIN BRIDGES|K7S1 010715Z AUTO 09006KT 40SM 13/04 A3018 RMK AO1 T01280039
ROUNDUP     |KRPX 010715Z AUTO 00000KT 40SM 20/03 A3001 RMK AO1 T02000033
MALTA       |KM75 010715Z AUTO 00000KT 40SM 14/11 A2996 RMK AO1 T01440106






000
SXUS55 KMSO 010713
OSOMSO
MONTANA AWOS SUMMARY
NATIONAL WEATHER SERVICE MISSOULA MT
112 AM MDT SAT AUG 1 2015

Montana AWOS Reports

SCOBEY      |K9S2 010655Z AUTO 06005KT 40SM 18/07 A3002 RMK AO1 T01780067
EKALAKA     |K97M 010655Z AUTO 13010G17KT 40SM 24/07 A3004 RMK AO1 T02390067






000
SXUS55 KMSO 010713
OSOMSO
MONTANA AWOS SUMMARY
NATIONAL WEATHER SERVICE MISSOULA MT
112 AM MDT SAT AUG 1 2015

Montana AWOS Reports

SCOBEY      |K9S2 010655Z AUTO 06005KT 40SM 18/07 A3002 RMK AO1 T01780067
EKALAKA     |K97M 010655Z AUTO 13010G17KT 40SM 24/07 A3004 RMK AO1 T02390067






000
SXUS55 KMSO 010643
OSOMSO
MONTANA AWOS SUMMARY
NATIONAL WEATHER SERVICE MISSOULA MT
1242 AM MDT SAT AUG 1 2015

Montana AWOS Reports

LAUREL      |K6S8 010635Z AUTO 00000KT 40SM 21/01 A3010 RMK AO1 T02110011
TWIN BRIDGES|K7S1 010635Z AUTO 00000KT 40SM 14/04 A3018 RMK AO1 T01440039
ROUNDUP     |KRPX 010635Z AUTO 00000KT 40SM 19/03 A3001 RMK AO1 T01940033
MALTA       |KM75 010635Z AUTO 00000KT 40SM 15/10 A2996 RMK AO1 T01500100






000
SXUS55 KMSO 010633
OSOMSO
MONTANA AWOS SUMMARY
NATIONAL WEATHER SERVICE MISSOULA MT
1233 AM MDT SAT AUG 1 2015

Montana AWOS Reports

LAUREL      |K6S8 010615Z AUTO 00000KT 40SM 21/01 A3010 RMK AO1 T02110006
TWIN BRIDGES|K7S1 010615Z AUTO 10004KT 40SM 13/03 A3018 RMK AO1 T01330033
ROUNDUP     |KRPX 010615Z AUTO 00000KT 40SM 19/03 A3002 RMK AO1 T01940033
MALTA       |KM75 010615Z AUTO 00000KT 1SM HZ 16/10 A2996 RMK AO1 T01560100
SCOBEY      |K9S2 010555Z AUTO 06004KT 40SM 18/07 A3003 RMK AO1 T01780072






000
SXUS55 KMSO 010633
OSOMSO
MONTANA AWOS SUMMARY
NATIONAL WEATHER SERVICE MISSOULA MT
1233 AM MDT SAT AUG 1 2015

Montana AWOS Reports

LAUREL      |K6S8 010615Z AUTO 00000KT 40SM 21/01 A3010 RMK AO1 T02110006
TWIN BRIDGES|K7S1 010615Z AUTO 10004KT 40SM 13/03 A3018 RMK AO1 T01330033
ROUNDUP     |KRPX 010615Z AUTO 00000KT 40SM 19/03 A3002 RMK AO1 T01940033
MALTA       |KM75 010615Z AUTO 00000KT 1SM HZ 16/10 A2996 RMK AO1 T01560100
SCOBEY      |K9S2 010555Z AUTO 06004KT 40SM 18/07 A3003 RMK AO1 T01780072






000
SXUS55 KMSO 010613
OSOMSO
MONTANA AWOS SUMMARY
NATIONAL WEATHER SERVICE MISSOULA MT
1213 AM MDT SAT AUG 1 2015

Montana AWOS Reports

MALTA       |KM75 010555Z AUTO 00000KT 1 3/4SM HZ 15/11 A2996 RMK AO1 T01500106
PLAINS      |KS34 010555Z AUTO 00000KT 25SM 18/03 A3002 RMK AO1 T01830028






000
SXUS55 KMSO 010613
OSOMSO
MONTANA AWOS SUMMARY
NATIONAL WEATHER SERVICE MISSOULA MT
1213 AM MDT SAT AUG 1 2015

Montana AWOS Reports

MALTA       |KM75 010555Z AUTO 00000KT 1 3/4SM HZ 15/11 A2996 RMK AO1 T01500106
PLAINS      |KS34 010555Z AUTO 00000KT 25SM 18/03 A3002 RMK AO1 T01830028






000
SXUS55 KMSO 010603
OSOMSO
MONTANA AWOS SUMMARY
NATIONAL WEATHER SERVICE MISSOULA MT
1203 AM MDT SAT AUG 1 2015

Montana AWOS Reports

LAUREL      |K6S8 010555Z AUTO 00000KT 40SM 22/01 A3010 RMK AO1 T02170006
TWIN BRIDGES|K7S1 010555Z AUTO 00000KT 40SM 12/05 A3018 RMK AO1 T01220050
ROUNDUP     |KRPX 010555Z AUTO 00000KT 40SM 20/03 A3001 RMK AO1 T02000033






000
SXUS55 KMSO 010603
OSOMSO
MONTANA AWOS SUMMARY
NATIONAL WEATHER SERVICE MISSOULA MT
1203 AM MDT SAT AUG 1 2015

Montana AWOS Reports

LAUREL      |K6S8 010555Z AUTO 00000KT 40SM 22/01 A3010 RMK AO1 T02170006
TWIN BRIDGES|K7S1 010555Z AUTO 00000KT 40SM 12/05 A3018 RMK AO1 T01220050
ROUNDUP     |KRPX 010555Z AUTO 00000KT 40SM 20/03 A3001 RMK AO1 T02000033






000
SXUS55 KMSO 010544
OSOMSO
MONTANA AWOS SUMMARY
NATIONAL WEATHER SERVICE MISSOULA MT
1143 PM MDT FRI JUL 31 2015

Montana AWOS Reports

LAUREL      |K6S8 010535Z AUTO 00000KT 40SM 22/01 A3010 RMK AO1 T02220006
ROUNDUP     |KRPX 010535Z AUTO 00000KT 40SM 21/04 A3002 RMK AO1 T02060039
MALTA       |KM75 010535Z AUTO 00000KT 40SM 16/11 A2996 RMK AO1 T01610106






000
SXUS55 KMSO 010544
OSOMSO
MONTANA AWOS SUMMARY
NATIONAL WEATHER SERVICE MISSOULA MT
1143 PM MDT FRI JUL 31 2015

Montana AWOS Reports

LAUREL      |K6S8 010535Z AUTO 00000KT 40SM 22/01 A3010 RMK AO1 T02220006
ROUNDUP     |KRPX 010535Z AUTO 00000KT 40SM 21/04 A3002 RMK AO1 T02060039
MALTA       |KM75 010535Z AUTO 00000KT 40SM 16/11 A2996 RMK AO1 T01610106






000
SXUS55 KMSO 010513
OSOMSO
MONTANA AWOS SUMMARY
NATIONAL WEATHER SERVICE MISSOULA MT
1112 PM MDT FRI JUL 31 2015

Montana AWOS Reports

EKALAKA     |K97M 010455Z AUTO 13011G22KT 40SM 24/07 A3006 RMK AO1 T02440067






000
SXUS55 KMSO 010513
OSOMSO
MONTANA AWOS SUMMARY
NATIONAL WEATHER SERVICE MISSOULA MT
1112 PM MDT FRI JUL 31 2015

Montana AWOS Reports

EKALAKA     |K97M 010455Z AUTO 13011G22KT 40SM 24/07 A3006 RMK AO1 T02440067






000
SXUS55 KMSO 010503
OSOMSO
MONTANA AWOS SUMMARY
NATIONAL WEATHER SERVICE MISSOULA MT
1103 PM MDT FRI JUL 31 2015

Montana AWOS Reports

LAUREL      |K6S8 010455Z AUTO 00000KT 40SM 24/00 A3010 RMK AO1 T02390000
ROUNDUP     |KRPX 010455Z AUTO 00000KT 40SM 23/03 A3002 RMK AO1 T02330033
MALTA       |KM75 010455Z AUTO 00000KT 10SM 17/12 A2997 RMK AO1 T01720117
PLAINS      |KS34 010455Z AUTO 00000KT 25SM 21/05 A3002 RMK AO1 T02060050






000
SXUS55 KMSO 010443
OSOMSO
MONTANA AWOS SUMMARY
NATIONAL WEATHER SERVICE MISSOULA MT
1043 PM MDT FRI JUL 31 2015

Montana AWOS Reports

LAUREL      |K6S8 010435Z AUTO 00000KT 40SM 24/01 A3010 RMK AO1 T02440006
TWIN BRIDGES|K7S1 010435Z AUTO 00000KT 40SM 18/04 A3018 RMK AO1 T01830039
ROUNDUP     |KRPX 010435Z AUTO 00000KT 40SM 24/03 A3002 RMK AO1 T02440033
MALTA       |KM75 010435Z AUTO 00000KT 40SM 19/12 A2997 RMK AO1 T01940122






000
SXUS55 KMSO 010433
OSOMSO
MONTANA AWOS SUMMARY
NATIONAL WEATHER SERVICE MISSOULA MT
1032 PM MDT FRI JUL 31 2015

Montana AWOS Reports

EKALAKA     |K97M 010355Z AUTO 12007KT 40SM 24/06 A3006 RMK AO1 T02390056






000
SXUS55 KMSO 010433
OSOMSO
MONTANA AWOS SUMMARY
NATIONAL WEATHER SERVICE MISSOULA MT
1032 PM MDT FRI JUL 31 2015

Montana AWOS Reports

EKALAKA     |K97M 010355Z AUTO 12007KT 40SM 24/06 A3006 RMK AO1 T02390056






000
SXUS55 KMSO 010423
OSOMSO
MONTANA AWOS SUMMARY
NATIONAL WEATHER SERVICE MISSOULA MT
1023 PM MDT FRI JUL 31 2015

Montana AWOS Reports

PLAINS      |KS34 010355Z AUTO 00000KT 40SM 26/03 A3001 RMK AO1 T02560033
LAUREL      |K6S8 010415Z AUTO 00000KT 40SM 26/00 A3010 RMK AO1 T02560000
TWIN BRIDGES|K7S1 010415Z AUTO 00000KT 40SM 18/07 A3018 RMK AO1 T01830067
ROUNDUP     |KRPX 010415Z AUTO 00000KT 40SM 25/03 A3002 RMK AO1 T02500028
MALTA       |KM75 010415Z AUTO 00000KT 15SM 20/12 A2997 RMK AO1 T02000117






000
SXUS55 KMSO 010423
OSOMSO
MONTANA AWOS SUMMARY
NATIONAL WEATHER SERVICE MISSOULA MT
1023 PM MDT FRI JUL 31 2015

Montana AWOS Reports

PLAINS      |KS34 010355Z AUTO 00000KT 40SM 26/03 A3001 RMK AO1 T02560033
LAUREL      |K6S8 010415Z AUTO 00000KT 40SM 26/00 A3010 RMK AO1 T02560000
TWIN BRIDGES|K7S1 010415Z AUTO 00000KT 40SM 18/07 A3018 RMK AO1 T01830067
ROUNDUP     |KRPX 010415Z AUTO 00000KT 40SM 25/03 A3002 RMK AO1 T02500028
MALTA       |KM75 010415Z AUTO 00000KT 15SM 20/12 A2997 RMK AO1 T02000117






000
SXUS55 KMSO 010403
OSOMSO
MONTANA AWOS SUMMARY
NATIONAL WEATHER SERVICE MISSOULA MT
1002 PM MDT FRI JUL 31 2015

Montana AWOS Reports

LAUREL      |K6S8 010355Z AUTO 33004KT 40SM 26/M02 A3009 RMK AO1 T02561021
TWIN BRIDGES|K7S1 010355Z AUTO 17006KT 40SM 23/07 A3017 RMK AO1 T02280072
ROUNDUP     |KRPX 010355Z AUTO 00000KT 40SM 25/03 A3002 RMK AO1 T02500028
MALTA       |KM75 010355Z AUTO 00000KT 15SM 21/12 A2997 RMK AO1 T02110122
SCOBEY      |K9S2 010355Z AUTO 05007KT 40SM 19/08 A3002 RMK AO1 T01890083






000
SXUS55 KMSO 010403
OSOMSO
MONTANA AWOS SUMMARY
NATIONAL WEATHER SERVICE MISSOULA MT
1002 PM MDT FRI JUL 31 2015

Montana AWOS Reports

LAUREL      |K6S8 010355Z AUTO 33004KT 40SM 26/M02 A3009 RMK AO1 T02561021
TWIN BRIDGES|K7S1 010355Z AUTO 17006KT 40SM 23/07 A3017 RMK AO1 T02280072
ROUNDUP     |KRPX 010355Z AUTO 00000KT 40SM 25/03 A3002 RMK AO1 T02500028
MALTA       |KM75 010355Z AUTO 00000KT 15SM 21/12 A2997 RMK AO1 T02110122
SCOBEY      |K9S2 010355Z AUTO 05007KT 40SM 19/08 A3002 RMK AO1 T01890083






000
SXUS55 KMSO 010343
OSOMSO
MONTANA AWOS SUMMARY
NATIONAL WEATHER SERVICE MISSOULA MT
943 PM MDT FRI JUL 31 2015

Montana AWOS Reports

LAUREL      |K6S8 010335Z AUTO 00000KT 40SM 23/M03 A3009 RMK AO1 T02331032
TWIN BRIDGES|K7S1 010335Z AUTO 01004KT 40SM 24/02 A3016 RMK AO1 T02390022
ROUNDUP     |KRPX 010335Z AUTO 00000KT 40SM 26/03 A3002 RMK AO1 T02610033
MALTA       |KM75 010335Z AUTO 00000KT 40SM 22/12 A2997 RMK AO1 T02220122






000
SXUS55 KMSO 010323
OSOMSO
MONTANA AWOS SUMMARY
NATIONAL WEATHER SERVICE MISSOULA MT
923 PM MDT FRI JUL 31 2015

Montana AWOS Reports

TWIN BRIDGES|K7S1 010315Z AUTO 01006KT 40SM 25/03 A3016 RMK AO1 T02500028
LAUREL      |K6S8 010315Z AUTO 00000KT 40SM 25/M03 A3008 RMK AO1 T02501032
ROUNDUP     |KRPX 010315Z AUTO 00000KT 40SM 27/03 A3001 RMK AO1 T02670033
MALTA       |KM75 010315Z AUTO 00000KT 7SM 23/12 A2996 RMK AO1 T02330117






000
SXUS55 KMSO 010303
OSOMSO
MONTANA AWOS SUMMARY
NATIONAL WEATHER SERVICE MISSOULA MT
903 PM MDT FRI JUL 31 2015

Montana AWOS Reports

LAUREL      |K6S8 010255Z AUTO 00000KT 40SM 27/M03 A3008 RMK AO1 T02671032
TWIN BRIDGES|K7S1 010255Z AUTO 36005KT 40SM 27/04 A3015 RMK AO1 T02670044
ROUNDUP     |KRPX 010255Z AUTO 00000KT 40SM 28/03 A3001 RMK AO1 T02780033
SCOBEY      |K9S2 010255Z AUTO 06008KT 40SM 21/09 A3001 RMK AO1 T02110094
MALTA       |KM75 010255Z AUTO 00000KT 2SM HZ 26/13 A2996 RMK AO1 T02560128
PLAINS      |KS34 010255Z AUTO 00000KT 40SM 33/03 A3000 RMK AO1 T03280028
EKALAKA     |K97M 010255Z AUTO 13006KT 40SM 26/04 A3005 RMK AO1 T02610044






000
SXUS55 KMSO 010253
OSOMSO
MONTANA AWOS SUMMARY
NATIONAL WEATHER SERVICE MISSOULA MT
853 PM MDT FRI JUL 31 2015

Montana AWOS Reports

MALTA       |KM75 010235Z AUTO 00000KT 3SM HZ 29/12 A2996 RMK AO1 T02890117






000
SXUS55 KMSO 010243
OSOMSO
MONTANA AWOS SUMMARY
NATIONAL WEATHER SERVICE MISSOULA MT
842 PM MDT FRI JUL 31 2015

Montana AWOS Reports

LAUREL      |K6S8 010235Z AUTO 00000KT 40SM 29/M02 A3007 RMK AO1 T02941021
TWIN BRIDGES|K7S1 010235Z AUTO 00000KT 40SM 28/03 A3015 RMK AO1 T02830033
ROUNDUP     |KRPX 010235Z AUTO 00000KT 40SM 29/04 A3000 RMK AO1 T02890039






000
SXUS55 KMSO 010243
OSOMSO
MONTANA AWOS SUMMARY
NATIONAL WEATHER SERVICE MISSOULA MT
842 PM MDT FRI JUL 31 2015

Montana AWOS Reports

LAUREL      |K6S8 010235Z AUTO 00000KT 40SM 29/M02 A3007 RMK AO1 T02941021
TWIN BRIDGES|K7S1 010235Z AUTO 00000KT 40SM 28/03 A3015 RMK AO1 T02830033
ROUNDUP     |KRPX 010235Z AUTO 00000KT 40SM 29/04 A3000 RMK AO1 T02890039






000
SXUS55 KMSO 010223
OSOMSO
MONTANA AWOS SUMMARY
NATIONAL WEATHER SERVICE MISSOULA MT
823 PM MDT FRI JUL 31 2015

Montana AWOS Reports

LAUREL      |K6S8 010215Z AUTO 32006KT 40SM 31/M01 A3007 RMK AO1 T03111005
TWIN BRIDGES|K7S1 010215Z AUTO 00000KT 40SM 29/04 A3015 RMK AO1 T02890044
ROUNDUP     |KRPX 010215Z AUTO 36004KT 40SM 30/04 A3000 RMK AO1 T03000039
MALTA       |KM75 010215Z AUTO 00000KT 40SM 30/12 A2996 RMK AO1 T03000117






000
SXUS55 KMSO 010213
OSOMSO
MONTANA AWOS SUMMARY
NATIONAL WEATHER SERVICE MISSOULA MT
813 PM MDT FRI JUL 31 2015

Montana AWOS Reports

EKALAKA     |K97M 010155Z AUTO 00000KT 40SM 30/01 A3005 RMK AO1 T03000011






000
SXUS55 KMSO 010203
OSOMSO
MONTANA AWOS SUMMARY
NATIONAL WEATHER SERVICE MISSOULA MT
803 PM MDT FRI JUL 31 2015

Montana AWOS Reports

LAUREL      |K6S8 010155Z AUTO 32006KT 40SM 32/M01 A3006 RMK AO1 T03221010
TWIN BRIDGES|K7S1 010155Z AUTO 00000KT 40SM 30/06 A3015 RMK AO1 T03000061
ROUNDUP     |KRPX 010155Z AUTO 36006KT 40SM 31/03 A3000 RMK AO1 T03110033
MALTA       |KM75 010155Z AUTO 00000KT 40SM 32/10 A2996 RMK AO1 T03170100
SCOBEY      |K9S2 010155Z AUTO 07010G14KT 40SM 26/11 A3000 RMK AO1 T02610111
PLAINS      |KS34 010155Z AUTO 21005KT 25SM 36/03 A3000 RMK AO1 T03560028






000
SXUS55 KMSO 010143
OSOMSO
MONTANA AWOS SUMMARY
NATIONAL WEATHER SERVICE MISSOULA MT
743 PM MDT FRI JUL 31 2015

Montana AWOS Reports

LAUREL      |K6S8 010135Z AUTO 32009G13KT 40SM 33/M01 A3006 RMK AO1 T03331010
TWIN BRIDGES|K7S1 010135Z AUTO 13004KT 40SM 31/03 A3014 RMK AO1 T03110033
ROUNDUP     |KRPX 010135Z AUTO 35005KT 40SM 32/03 A2999 RMK AO1 T03170033
MALTA       |KM75 010135Z AUTO 00000KT 40SM 32/09 A2996 RMK AO1 T03220089






000
SXUS55 KMSO 010143
OSOMSO
MONTANA AWOS SUMMARY
NATIONAL WEATHER SERVICE MISSOULA MT
743 PM MDT FRI JUL 31 2015

Montana AWOS Reports

LAUREL      |K6S8 010135Z AUTO 32009G13KT 40SM 33/M01 A3006 RMK AO1 T03331010
TWIN BRIDGES|K7S1 010135Z AUTO 13004KT 40SM 31/03 A3014 RMK AO1 T03110033
ROUNDUP     |KRPX 010135Z AUTO 35005KT 40SM 32/03 A2999 RMK AO1 T03170033
MALTA       |KM75 010135Z AUTO 00000KT 40SM 32/09 A2996 RMK AO1 T03220089






000
SXUS55 KMSO 010123
OSOMSO
MONTANA AWOS SUMMARY
NATIONAL WEATHER SERVICE MISSOULA MT
722 PM MDT FRI JUL 31 2015

Montana AWOS Reports

LAUREL      |K6S8 010055Z AUTO 29005KT 40SM 34/01 A3006 RMK AO1 T03440006
TWIN BRIDGES|K7S1 010055Z AUTO 00000KT 40SM 32/M01 A3015 RMK AO1 T03171005
ROUNDUP     |KRPX 010055Z AUTO 36009KT 40SM 33/04 A2999 RMK AO1 T03280044
MALTA       |KM75 010055Z AUTO 00000KT 40SM 33/08 A2996 RMK AO1 T03280083
SCOBEY      |K9S2 010055Z AUTO 07007KT 40SM 30/11 A3001 RMK AO1 T03000111
EKALAKA     |K97M 010055Z AUTO 00000KT 40SM 32/01 A3005 RMK AO1 T03220011
PLAINS      |KS34 010055Z AUTO 21004KT 40SM 37/03 A3000 RMK AO1 T03670028
LAUREL      |K6S8 010115Z AUTO 30007KT 40SM 34/M01 A3006 RMK AO1 T03391005
TWIN BRIDGES|K7S1 010115Z AUTO 00000KT 40SM 31/02 A3015 RMK AO1 T03110017
ROUNDUP     |KRPX 010115Z AUTO 34009G14KT 40SM 32/04 A2999 RMK AO1 T03220039
MALTA       |KM75 010115Z AUTO 00000KT 40SM 33/08 A2996 RMK AO1 T03280078






000
SXUS55 KMSO 010043
OSOMSO
MONTANA AWOS SUMMARY
NATIONAL WEATHER SERVICE MISSOULA MT
643 PM MDT FRI JUL 31 2015

Montana AWOS Reports

LAUREL      |K6S8 010035Z AUTO 32006KT 40SM 34/02 A3005 RMK AO1 T03440017
TWIN BRIDGES|K7S1 010035Z AUTO 18005KT 40SM 32/03 A3015 RMK AO1 T03170028
ROUNDUP     |KRPX 010035Z AUTO 35009G16KT 40SM 33/04 A2999 RMK AO1 T03330039
MALTA       |KM75 010035Z AUTO 25005KT 40SM 33/08 A2996 RMK AO1 T03280078






000
SXUS55 KMSO 010043
OSOMSO
MONTANA AWOS SUMMARY
NATIONAL WEATHER SERVICE MISSOULA MT
643 PM MDT FRI JUL 31 2015

Montana AWOS Reports

LAUREL      |K6S8 010035Z AUTO 32006KT 40SM 34/02 A3005 RMK AO1 T03440017
TWIN BRIDGES|K7S1 010035Z AUTO 18005KT 40SM 32/03 A3015 RMK AO1 T03170028
ROUNDUP     |KRPX 010035Z AUTO 35009G16KT 40SM 33/04 A2999 RMK AO1 T03330039
MALTA       |KM75 010035Z AUTO 25005KT 40SM 33/08 A2996 RMK AO1 T03280078






000
SXUS55 KMSO 010023
OSOMSO
MONTANA AWOS SUMMARY
NATIONAL WEATHER SERVICE MISSOULA MT
623 PM MDT FRI JUL 31 2015

Montana AWOS Reports

TWIN BRIDGES|K7S1 010015Z AUTO 10006KT 40SM 32/M01 A3016 RMK AO1 T03171005
LAUREL      |K6S8 010015Z AUTO 32006KT 40SM 34/03 A3006 RMK AO1 T03440028
ROUNDUP     |KRPX 010015Z AUTO 34008KT 40SM 33/03 A2999 RMK AO1 T03330033
MALTA       |KM75 010015Z AUTO 26011G15KT 40SM 33/07 A2997 RMK AO1 T03330067






000
SXUS55 KMSO 010013
OSOMSO
MONTANA AWOS SUMMARY
NATIONAL WEATHER SERVICE MISSOULA MT
612 PM MDT FRI JUL 31 2015

Montana AWOS Reports

LAUREL      |K6S8 312355Z AUTO 31008KT 40SM 35/02 A3006 RMK AO1 T03500022
ROUNDUP     |KRPX 312355Z AUTO 02006KT 40SM 34/04 A2999 RMK AO1 T03390039
MALTA       |KM75 312355Z AUTO 26004KT 40SM 33/08 A2997 RMK AO1 T03330083
SCOBEY      |K9S2 312355Z AUTO 10007KT 40SM 31/09 A3002 RMK AO1 T03110094
EKALAKA     |K97M 312355Z AUTO 28004KT 40SM 32/02 A3007 RMK AO1 T03170017






000
SXUS55 KMSO 010013
OSOMSO
MONTANA AWOS SUMMARY
NATIONAL WEATHER SERVICE MISSOULA MT
612 PM MDT FRI JUL 31 2015

Montana AWOS Reports

LAUREL      |K6S8 312355Z AUTO 31008KT 40SM 35/02 A3006 RMK AO1 T03500022
ROUNDUP     |KRPX 312355Z AUTO 02006KT 40SM 34/04 A2999 RMK AO1 T03390039
MALTA       |KM75 312355Z AUTO 26004KT 40SM 33/08 A2997 RMK AO1 T03330083
SCOBEY      |K9S2 312355Z AUTO 10007KT 40SM 31/09 A3002 RMK AO1 T03110094
EKALAKA     |K97M 312355Z AUTO 28004KT 40SM 32/02 A3007 RMK AO1 T03170017






000
SXUS55 KMSO 010003
OSOMSO
MONTANA AWOS SUMMARY
NATIONAL WEATHER SERVICE MISSOULA MT
603 PM MDT FRI JUL 31 2015

Montana AWOS Reports

TWIN BRIDGES|K7S1 312355Z AUTO 11006KT 40SM 32/02 A3016 RMK AO1 T03170017
PLAINS      |KS34 312355Z AUTO 25012G16KT 25SM 37/02 A3001 RMK AO1 T03720017






000
SXUS55 KMSO 010003
OSOMSO
MONTANA AWOS SUMMARY
NATIONAL WEATHER SERVICE MISSOULA MT
603 PM MDT FRI JUL 31 2015

Montana AWOS Reports

TWIN BRIDGES|K7S1 312355Z AUTO 11006KT 40SM 32/02 A3016 RMK AO1 T03170017
PLAINS      |KS34 312355Z AUTO 25012G16KT 25SM 37/02 A3001 RMK AO1 T03720017






000
SXUS55 KMSO 312343
OSOMSO
MONTANA AWOS SUMMARY
NATIONAL WEATHER SERVICE MISSOULA MT
543 PM MDT FRI JUL 31 2015

Montana AWOS Reports

LAUREL      |K6S8 312335Z AUTO 29004KT 40SM 35/02 A3006 RMK AO1 T03500022
TWIN BRIDGES|K7S1 312335Z AUTO 15004KT 40SM 32/02 A3017 RMK AO1 T03220022
ROUNDUP     |KRPX 312335Z AUTO 34012KT 40SM 34/04 A2999 RMK AO1 T03440039
MALTA       |KM75 312335Z AUTO 25006KT 40SM 33/07 A2998 RMK AO1 T03330067






000
SXUS55 KMSO 312324
OSOMSO
MONTANA AWOS SUMMARY
NATIONAL WEATHER SERVICE MISSOULA MT
523 PM MDT FRI JUL 31 2015

Montana AWOS Reports

LAUREL      |K6S8 312315Z AUTO 31005KT 40SM 34/02 A3007 RMK AO1 T03440017
TWIN BRIDGES|K7S1 312315Z AUTO 14006KT 40SM 32/02 A3017 RMK AO1 T03170017
ROUNDUP     |KRPX 312315Z AUTO 26006KT 40SM 34/01 A3000 RMK AO1 T03390006
MALTA       |KM75 312315Z AUTO 24009G15KT 40SM 33/09 A2998 RMK AO1 T03330089






000
SXUS55 KMSO 312324
OSOMSO
MONTANA AWOS SUMMARY
NATIONAL WEATHER SERVICE MISSOULA MT
523 PM MDT FRI JUL 31 2015

Montana AWOS Reports

LAUREL      |K6S8 312315Z AUTO 31005KT 40SM 34/02 A3007 RMK AO1 T03440017
TWIN BRIDGES|K7S1 312315Z AUTO 14006KT 40SM 32/02 A3017 RMK AO1 T03170017
ROUNDUP     |KRPX 312315Z AUTO 26006KT 40SM 34/01 A3000 RMK AO1 T03390006
MALTA       |KM75 312315Z AUTO 24009G15KT 40SM 33/09 A2998 RMK AO1 T03330089






000
SXUS55 KMSO 312313
OSOMSO
MONTANA AWOS SUMMARY
NATIONAL WEATHER SERVICE MISSOULA MT
513 PM MDT FRI JUL 31 2015

Montana AWOS Reports

LAUREL      |K6S8 312255Z AUTO 29012G17KT 40SM 35/02 A3007 RMK AO1 T03500022
ROUNDUP     |KRPX 312255Z AUTO 00000KT 40SM 34/M01 A3000 RMK AO1 T03441005
MALTA       |KM75 312255Z AUTO 23011G15KT 40SM 34/09 A2998 RMK AO1 T03390094
SCOBEY      |K9S2 312255Z AUTO 00000KT 40SM 31/09 A3004 RMK AO1 T03110089
PLAINS      |KS34 312255Z AUTO 22009G13KT 40SM 37/03 A3003 RMK AO1 T03720028






000
SXUS55 KMSO 312303
OSOMSO
MONTANA AWOS SUMMARY
NATIONAL WEATHER SERVICE MISSOULA MT
502 PM MDT FRI JUL 31 2015

Montana AWOS Reports

TWIN BRIDGES|K7S1 312255Z AUTO 16006KT 40SM 32/05 A3017 RMK AO1 T03170050
EKALAKA     |K97M 312255Z AUTO 26006KT 40SM 33/01 A3008 RMK AO1 T03280006






000
SXUS55 KMSO 312243
OSOMSO
MONTANA AWOS SUMMARY
NATIONAL WEATHER SERVICE MISSOULA MT
443 PM MDT FRI JUL 31 2015

Montana AWOS Reports

LAUREL      |K6S8 312235Z AUTO 29009G16KT 40SM 36/02 A3007 RMK AO1 T03610022
TWIN BRIDGES|K7S1 312235Z AUTO 13008KT 40SM 32/01 A3018 RMK AO1 T03170006
ROUNDUP     |KRPX 312235Z AUTO 00000KT 40SM 34/M01 A3000 RMK AO1 T03441005
MALTA       |KM75 312235Z AUTO 23007KT 40SM 33/10 A2999 RMK AO1 T03330100






000
SXUS55 KMSO 312223
OSOMSO
MONTANA AWOS SUMMARY
NATIONAL WEATHER SERVICE MISSOULA MT
422 PM MDT FRI JUL 31 2015

Montana AWOS Reports

LAUREL      |K6S8 312215Z AUTO 25008KT 40SM 36/M01 A3007 RMK AO1 T03561005
TWIN BRIDGES|K7S1 312215Z AUTO 16007KT 40SM 32/05 A3019 RMK AO1 T03170050
ROUNDUP     |KRPX 312215Z AUTO 24011G23KT 40SM 34/M02 A3000 RMK AO1 T03441016
MALTA       |KM75 312215Z AUTO 20004KT 40SM 34/11 A2999 RMK AO1 T03390106






000
SXUS55 KMSO 312204
OSOMSO
MONTANA AWOS SUMMARY
NATIONAL WEATHER SERVICE MISSOULA MT
403 PM MDT FRI JUL 31 2015

Montana AWOS Reports

LAUREL      |K6S8 312155Z AUTO 24007KT 40SM 36/01 A3008 RMK AO1 T03560006
ROUNDUP     |KRPX 312155Z AUTO 29007KT 40SM 34/M02 A3001 RMK AO1 T03441016
MALTA       |KM75 312155Z AUTO 00000KT 40SM 33/10 A3000 RMK AO1 T03330100
SCOBEY      |K9S2 312155Z AUTO 00000KT 40SM 31/08 A3007 RMK AO1 T03060078
EKALAKA     |K97M 312155Z AUTO 00000KT 40SM 32/02 A3010 RMK AO1 T03220022
TWIN BRIDGES|K7S1 312155Z AUTO VRB06KT 40SM 31/02 A3019 RMK AO1 T03110017






000
SXUS55 KMSO 312204
OSOMSO
MONTANA AWOS SUMMARY
NATIONAL WEATHER SERVICE MISSOULA MT
403 PM MDT FRI JUL 31 2015

Montana AWOS Reports

LAUREL      |K6S8 312155Z AUTO 24007KT 40SM 36/01 A3008 RMK AO1 T03560006
ROUNDUP     |KRPX 312155Z AUTO 29007KT 40SM 34/M02 A3001 RMK AO1 T03441016
MALTA       |KM75 312155Z AUTO 00000KT 40SM 33/10 A3000 RMK AO1 T03330100
SCOBEY      |K9S2 312155Z AUTO 00000KT 40SM 31/08 A3007 RMK AO1 T03060078
EKALAKA     |K97M 312155Z AUTO 00000KT 40SM 32/02 A3010 RMK AO1 T03220022
TWIN BRIDGES|K7S1 312155Z AUTO VRB06KT 40SM 31/02 A3019 RMK AO1 T03110017






000
SXUS55 KMSO 312143
OSOMSO
MONTANA AWOS SUMMARY
NATIONAL WEATHER SERVICE MISSOULA MT
343 PM MDT FRI JUL 31 2015

Montana AWOS Reports

LAUREL      |K6S8 312135Z AUTO 21004KT 40SM 36/04 A3008 RMK AO1 T03560039
TWIN BRIDGES|K7S1 312135Z AUTO 15008KT 120V180 40SM 31/01 A3020 RMK AO1 T03110006
ROUNDUP     |KRPX 312135Z AUTO 24012G17KT 40SM 34/M01 A3001 RMK AO1 T03441005
MALTA       |KM75 312135Z AUTO 22004KT 40SM 33/09 A3000 RMK AO1 T03330094






000
SXUS55 KMSO 312124
OSOMSO
MONTANA AWOS SUMMARY
NATIONAL WEATHER SERVICE MISSOULA MT
323 PM MDT FRI JUL 31 2015

Montana AWOS Reports

LAUREL      |K6S8 312115Z AUTO 26018G26KT 220V300 40SM 36/03 A3008 RMK AO1 T03560028
TWIN BRIDGES|K7S1 312115Z AUTO 13008KT 40SM 31/01 A3021 RMK AO1 T03060011
ROUNDUP     |KRPX 312115Z AUTO 25016KT 40SM 34/M01 A3002 RMK AO1 T03441005
MALTA       |KM75 312115Z AUTO 00000KT 40SM 33/10 A3001 RMK AO1 T03330100






000
SXUS55 KMSO 312113
OSOMSO
MONTANA AWOS SUMMARY
NATIONAL WEATHER SERVICE MISSOULA MT
312 PM MDT FRI JUL 31 2015

Montana AWOS Reports

PLAINS      |KS34 312055Z AUTO 00000KT 25SM 36/02 A3007 RMK AO1 T03610022






000
SXUS55 KMSO 312113
OSOMSO
MONTANA AWOS SUMMARY
NATIONAL WEATHER SERVICE MISSOULA MT
312 PM MDT FRI JUL 31 2015

Montana AWOS Reports

PLAINS      |KS34 312055Z AUTO 00000KT 25SM 36/02 A3007 RMK AO1 T03610022






000
SXUS55 KMSO 312103
OSOMSO
MONTANA AWOS SUMMARY
NATIONAL WEATHER SERVICE MISSOULA MT
303 PM MDT FRI JUL 31 2015

Montana AWOS Reports

EKALAKA     |K97M 312055Z AUTO 00000KT 40SM 32/03 A3012 RMK AO1 T03220033
LAUREL      |K6S8 312055Z AUTO 20008KT 150V250 40SM 35/02 A3010 RMK AO1 T03500022
TWIN BRIDGES|K7S1 312055Z AUTO 17009KT 40SM 31/03 A3021 RMK AO1 T03060028
ROUNDUP     |KRPX 312055Z AUTO 30009G16KT 40SM 34/01 A3002 RMK AO1 T03390006
MALTA       |KM75 312055Z AUTO 00000KT 40SM 33/09 A3001 RMK AO1 T03280094
SCOBEY      |K9S2 312055Z AUTO 00000KT 40SM 31/08 A3009 RMK AO1 T03060078






000
SXUS55 KMSO 312044
OSOMSO
MONTANA AWOS SUMMARY
NATIONAL WEATHER SERVICE MISSOULA MT
243 PM MDT FRI JUL 31 2015

Montana AWOS Reports

LAUREL      |K6S8 312035Z AUTO 20005KT 40SM 34/04 A3011 RMK AO1 T03390039
TWIN BRIDGES|K7S1 312035Z AUTO 15006KT 40SM 31/01 A3022 RMK AO1 T03060011
ROUNDUP     |KRPX 312035Z AUTO 25010KT 40SM 34/02 A3003 RMK AO1 T03390017
MALTA       |KM75 312035Z AUTO 00000KT 40SM 33/11 A3002 RMK AO1 T03280106






000
SXUS55 KMSO 312044
OSOMSO
MONTANA AWOS SUMMARY
NATIONAL WEATHER SERVICE MISSOULA MT
243 PM MDT FRI JUL 31 2015

Montana AWOS Reports

LAUREL      |K6S8 312035Z AUTO 20005KT 40SM 34/04 A3011 RMK AO1 T03390039
TWIN BRIDGES|K7S1 312035Z AUTO 15006KT 40SM 31/01 A3022 RMK AO1 T03060011
ROUNDUP     |KRPX 312035Z AUTO 25010KT 40SM 34/02 A3003 RMK AO1 T03390017
MALTA       |KM75 312035Z AUTO 00000KT 40SM 33/11 A3002 RMK AO1 T03280106






000
SXUS55 KMSO 312033
OSOMSO
MONTANA AWOS SUMMARY
NATIONAL WEATHER SERVICE MISSOULA MT
233 PM MDT FRI JUL 31 2015

Montana AWOS Reports

MALTA       |KM75 312015Z AUTO 00000KT 40SM 33/10 A3003 RMK AO1 T03280100






000
SXUS55 KMSO 312023
OSOMSO
MONTANA AWOS SUMMARY
NATIONAL WEATHER SERVICE MISSOULA MT
223 PM MDT FRI JUL 31 2015

Montana AWOS Reports

LAUREL      |K6S8 312015Z AUTO 21006KT 40SM 34/04 A3011 RMK AO1 T03390039
TWIN BRIDGES|K7S1 312015Z AUTO 14007KT 40SM 30/01 A3022 RMK AO1 T03000006
ROUNDUP     |KRPX 312015Z AUTO 22010G15KT 40SM 33/03 A3003 RMK AO1 T03330033






000
SXUS55 KMSO 312023
OSOMSO
MONTANA AWOS SUMMARY
NATIONAL WEATHER SERVICE MISSOULA MT
223 PM MDT FRI JUL 31 2015

Montana AWOS Reports

LAUREL      |K6S8 312015Z AUTO 21006KT 40SM 34/04 A3011 RMK AO1 T03390039
TWIN BRIDGES|K7S1 312015Z AUTO 14007KT 40SM 30/01 A3022 RMK AO1 T03000006
ROUNDUP     |KRPX 312015Z AUTO 22010G15KT 40SM 33/03 A3003 RMK AO1 T03330033






000
SXUS55 KMSO 312013
OSOMSO
MONTANA AWOS SUMMARY
NATIONAL WEATHER SERVICE MISSOULA MT
212 PM MDT FRI JUL 31 2015

Montana AWOS Reports

SCOBEY      |K9S2 311955Z AUTO 00000KT 40SM 30/07 A3011 RMK AO1 T03000072
EKALAKA     |K97M 311955Z AUTO 00000KT 40SM 32/04 A3014 RMK AO1 T03170044
PLAINS      |KS34 311955Z AUTO 00000KT 25SM 35/04 A3010 RMK AO1 T03500044






000
SXUS55 KMSO 312003
OSOMSO
MONTANA AWOS SUMMARY
NATIONAL WEATHER SERVICE MISSOULA MT
203 PM MDT FRI JUL 31 2015

Montana AWOS Reports

LAUREL      |K6S8 311955Z AUTO 00000KT 40SM 33/05 A3012 RMK AO1 T03330050
TWIN BRIDGES|K7S1 311955Z AUTO 13005KT 40SM 30/01 A3023 RMK AO1 T03000006
ROUNDUP     |KRPX 311955Z AUTO 20006KT 40SM 33/04 A3004 RMK AO1 T03280039
MALTA       |KM75 311955Z AUTO 00000KT 40SM 32/10 A3003 RMK AO1 T03220100






000
SXUS55 KMSO 312003
OSOMSO
MONTANA AWOS SUMMARY
NATIONAL WEATHER SERVICE MISSOULA MT
203 PM MDT FRI JUL 31 2015

Montana AWOS Reports

LAUREL      |K6S8 311955Z AUTO 00000KT 40SM 33/05 A3012 RMK AO1 T03330050
TWIN BRIDGES|K7S1 311955Z AUTO 13005KT 40SM 30/01 A3023 RMK AO1 T03000006
ROUNDUP     |KRPX 311955Z AUTO 20006KT 40SM 33/04 A3004 RMK AO1 T03280039
MALTA       |KM75 311955Z AUTO 00000KT 40SM 32/10 A3003 RMK AO1 T03220100






000
SXUS55 KMSO 311953
OSOMSO
MONTANA AWOS SUMMARY
NATIONAL WEATHER SERVICE MISSOULA MT
153 PM MDT FRI JUL 31 2015

Montana AWOS Reports

ROUNDUP     |KRPX 311935Z AUTO 25007KT 40SM 32/05 A3005 RMK AO1 T03220050
MALTA       |KM75 311935Z AUTO 00000KT 40SM 32/11 A3004 RMK AO1 T03170106






000
SXUS55 KMSO 311953
OSOMSO
MONTANA AWOS SUMMARY
NATIONAL WEATHER SERVICE MISSOULA MT
153 PM MDT FRI JUL 31 2015

Montana AWOS Reports

ROUNDUP     |KRPX 311935Z AUTO 25007KT 40SM 32/05 A3005 RMK AO1 T03220050
MALTA       |KM75 311935Z AUTO 00000KT 40SM 32/11 A3004 RMK AO1 T03170106






000
SXUS55 KMSO 311943
OSOMSO
MONTANA AWOS SUMMARY
NATIONAL WEATHER SERVICE MISSOULA MT
142 PM MDT FRI JUL 31 2015

Montana AWOS Reports

LAUREL      |K6S8 311935Z AUTO 22005KT 40SM 33/06 A3013 RMK AO1 T03280061
TWIN BRIDGES|K7S1 311935Z AUTO 00000KT 40SM 29/05 A3023 RMK AO1 T02940050






000
SXUS55 KMSO 311923
OSOMSO
MONTANA AWOS SUMMARY
NATIONAL WEATHER SERVICE MISSOULA MT
123 PM MDT FRI JUL 31 2015

Montana AWOS Reports

TWIN BRIDGES|K7S1 311915Z AUTO 13006KT 40SM 28/06 A3024 RMK AO1 T02830056
LAUREL      |K6S8 311915Z AUTO VRB05KT 40SM 32/06 A3014 RMK AO1 T03220056
ROUNDUP     |KRPX 311915Z AUTO 00000KT 40SM 32/04 A3005 RMK AO1 T03170044
MALTA       |KM75 311915Z AUTO 00000KT 40SM 31/10 A3004 RMK AO1 T03110100






000
SXUS55 KMSO 311913
OSOMSO
MONTANA AWOS SUMMARY
NATIONAL WEATHER SERVICE MISSOULA MT
113 PM MDT FRI JUL 31 2015

Montana AWOS Reports

SCOBEY      |K9S2 311855Z AUTO 02004KT 40SM 28/08 A3012 RMK AO1 T02830078
EKALAKA     |K97M 311855Z AUTO 12005KT 40SM 32/03 A3017 RMK AO1 T03170033






000
SXUS55 KMSO 311903
OSOMSO
MONTANA AWOS SUMMARY
NATIONAL WEATHER SERVICE MISSOULA MT
102 PM MDT FRI JUL 31 2015

Montana AWOS Reports

TWIN BRIDGES|K7S1 311855Z AUTO 13006KT 40SM 28/06 A3024 RMK AO1 T02780061
ROUNDUP     |KRPX 311855Z AUTO 00000KT 40SM 31/06 A3006 RMK AO1 T03110056






000
SXUS55 KMSO 311843
OSOMSO
MONTANA AWOS SUMMARY
NATIONAL WEATHER SERVICE MISSOULA MT
1243 PM MDT FRI JUL 31 2015

Montana AWOS Reports

TWIN BRIDGES|K7S1 311835Z AUTO 14006KT 40SM 27/06 A3025 RMK AO1 T02670061
LAUREL      |K6S8 311835Z AUTO 22007KT 40SM 31/06 A3015 RMK AO1 T03110056
ROUNDUP     |KRPX 311835Z AUTO 18006KT 40SM 31/07 A3007 RMK AO1 T03060067
MALTA       |KM75 311835Z AUTO 00000KT 40SM 30/09 A3006 RMK AO1 T03000094






000
SXUS55 KMSO 311823
OSOMSO
MONTANA AWOS SUMMARY
NATIONAL WEATHER SERVICE MISSOULA MT
1222 PM MDT FRI JUL 31 2015

Montana AWOS Reports

LAUREL      |K6S8 311815Z AUTO 23005KT 40SM 30/04 A3016 RMK AO1 T03000044
TWIN BRIDGES|K7S1 311815Z AUTO 18008KT 40SM 26/06 A3026 RMK AO1 T02610061
ROUNDUP     |KRPX 311815Z AUTO 18004KT 40SM 29/06 A3007 RMK AO1 T02940061
MALTA       |KM75 311815Z AUTO 00000KT 40SM 30/09 A3006 RMK AO1 T03000094






000
SXUS55 KMSO 311823
OSOMSO
MONTANA AWOS SUMMARY
NATIONAL WEATHER SERVICE MISSOULA MT
1222 PM MDT FRI JUL 31 2015

Montana AWOS Reports

LAUREL      |K6S8 311815Z AUTO 23005KT 40SM 30/04 A3016 RMK AO1 T03000044
TWIN BRIDGES|K7S1 311815Z AUTO 18008KT 40SM 26/06 A3026 RMK AO1 T02610061
ROUNDUP     |KRPX 311815Z AUTO 18004KT 40SM 29/06 A3007 RMK AO1 T02940061
MALTA       |KM75 311815Z AUTO 00000KT 40SM 30/09 A3006 RMK AO1 T03000094






000
SXUS55 KMSO 311813
OSOMSO
MONTANA AWOS SUMMARY
NATIONAL WEATHER SERVICE MISSOULA MT
1213 PM MDT FRI JUL 31 2015

Montana AWOS Reports

LAUREL      |K6S8 311755Z AUTO 00000KT 40SM 29/06 A3017 RMK AO1 T02890061
ROUNDUP     |KRPX 311755Z AUTO 22005KT 40SM 29/06 A3008 RMK AO1 T02890056
MALTA       |KM75 311755Z AUTO 00000KT 40SM 29/09 A3007 RMK AO1 T02940094
SCOBEY      |K9S2 311755Z AUTO 00000KT 40SM 27/09 A3014 RMK AO1 T02720089
PLAINS      |KS34 311755Z AUTO 00000KT 15SM 28/04 A3015 RMK AO1 T02830044
EKALAKA     |K97M 311755Z AUTO 04005KT 40SM 30/03 A3018 RMK AO1 T03000028






000
SXUS55 KMSO 311803
OSOMSO
MONTANA AWOS SUMMARY
NATIONAL WEATHER SERVICE MISSOULA MT
1203 PM MDT FRI JUL 31 2015

Montana AWOS Reports

TWIN BRIDGES|K7S1 311755Z AUTO 15006KT 40SM 25/04 A3026 RMK AO1 T02500044






000
SXUS55 KMSO 311803
OSOMSO
MONTANA AWOS SUMMARY
NATIONAL WEATHER SERVICE MISSOULA MT
1203 PM MDT FRI JUL 31 2015

Montana AWOS Reports

TWIN BRIDGES|K7S1 311755Z AUTO 15006KT 40SM 25/04 A3026 RMK AO1 T02500044






000
SXUS55 KMSO 311743
OSOMSO
MONTANA AWOS SUMMARY
NATIONAL WEATHER SERVICE MISSOULA MT
1143 AM MDT FRI JUL 31 2015

Montana AWOS Reports

LAUREL      |K6S8 311735Z AUTO 17004KT 40SM 28/07 A3017 RMK AO1 T02780072
TWIN BRIDGES|K7S1 311735Z AUTO 19006KT 40SM 24/06 A3026 RMK AO1 T02440056
ROUNDUP     |KRPX 311735Z AUTO 00000KT 40SM 28/06 A3009 RMK AO1 T02780061
MALTA       |KM75 311735Z AUTO 00000KT 40SM 29/10 A3007 RMK AO1 T02890100






000
SXUS55 KMSO 311743
OSOMSO
MONTANA AWOS SUMMARY
NATIONAL WEATHER SERVICE MISSOULA MT
1143 AM MDT FRI JUL 31 2015

Montana AWOS Reports

LAUREL      |K6S8 311735Z AUTO 17004KT 40SM 28/07 A3017 RMK AO1 T02780072
TWIN BRIDGES|K7S1 311735Z AUTO 19006KT 40SM 24/06 A3026 RMK AO1 T02440056
ROUNDUP     |KRPX 311735Z AUTO 00000KT 40SM 28/06 A3009 RMK AO1 T02780061
MALTA       |KM75 311735Z AUTO 00000KT 40SM 29/10 A3007 RMK AO1 T02890100






000
SXUS55 KMSO 311723
OSOMSO
MONTANA AWOS SUMMARY
NATIONAL WEATHER SERVICE MISSOULA MT
1123 AM MDT FRI JUL 31 2015

Montana AWOS Reports

LAUREL      |K6S8 311715Z AUTO 00000KT 40SM 27/06 A3018 RMK AO1 T02720061
TWIN BRIDGES|K7S1 311715Z AUTO 16005KT 40SM 24/05 A3027 RMK AO1 T02390050
ROUNDUP     |KRPX 311715Z AUTO 19005KT 40SM 27/06 A3009 RMK AO1 T02670061
MALTA       |KM75 311715Z AUTO 00000KT 40SM 29/09 A3008 RMK AO1 T02890094






000
SXUS55 KMSO 311723
OSOMSO
MONTANA AWOS SUMMARY
NATIONAL WEATHER SERVICE MISSOULA MT
1123 AM MDT FRI JUL 31 2015

Montana AWOS Reports

LAUREL      |K6S8 311715Z AUTO 00000KT 40SM 27/06 A3018 RMK AO1 T02720061
TWIN BRIDGES|K7S1 311715Z AUTO 16005KT 40SM 24/05 A3027 RMK AO1 T02390050
ROUNDUP     |KRPX 311715Z AUTO 19005KT 40SM 27/06 A3009 RMK AO1 T02670061
MALTA       |KM75 311715Z AUTO 00000KT 40SM 29/09 A3008 RMK AO1 T02890094






000
SXUS55 KMSO 311703
OSOMSO
MONTANA AWOS SUMMARY
NATIONAL WEATHER SERVICE MISSOULA MT
1103 AM MDT FRI JUL 31 2015

Montana AWOS Reports

LAUREL      |K6S8 311655Z AUTO 00000KT 40SM 26/06 A3018 RMK AO1 T02610056
TWIN BRIDGES|K7S1 311655Z AUTO 15005KT 40SM 23/06 A3027 RMK AO1 T02280061
ROUNDUP     |KRPX 311655Z AUTO 19006KT 40SM 26/06 A3009 RMK AO1 T02610056
MALTA       |KM75 311655Z AUTO 00000KT 40SM 28/09 A3008 RMK AO1 T02780094
SCOBEY      |K9S2 311655Z AUTO 00000KT 40SM 24/11 A3015 RMK AO1 T02440106
EKALAKA     |K97M 311655Z AUTO 13004KT 40SM 29/03 A3019 RMK AO1 T02940033






000
SXUS55 KMSO 311644
OSOMSO
MONTANA AWOS SUMMARY
NATIONAL WEATHER SERVICE MISSOULA MT
1043 AM MDT FRI JUL 31 2015

Montana AWOS Reports

LAUREL      |K6S8 311635Z AUTO 17005KT 40SM 25/05 A3019 RMK AO1 T02500050
TWIN BRIDGES|K7S1 311635Z AUTO 17006KT 40SM 22/07 A3027 RMK AO1 T02170067
ROUNDUP     |KRPX 311635Z AUTO 00000KT 40SM 25/05 A3010 RMK AO1 T02500050
MALTA       |KM75 311635Z AUTO 00000KT 40SM 27/13 A3008 RMK AO1 T02720128






000
SXUS55 KMSO 311644
OSOMSO
MONTANA AWOS SUMMARY
NATIONAL WEATHER SERVICE MISSOULA MT
1043 AM MDT FRI JUL 31 2015

Montana AWOS Reports

LAUREL      |K6S8 311635Z AUTO 17005KT 40SM 25/05 A3019 RMK AO1 T02500050
TWIN BRIDGES|K7S1 311635Z AUTO 17006KT 40SM 22/07 A3027 RMK AO1 T02170067
ROUNDUP     |KRPX 311635Z AUTO 00000KT 40SM 25/05 A3010 RMK AO1 T02500050
MALTA       |KM75 311635Z AUTO 00000KT 40SM 27/13 A3008 RMK AO1 T02720128






000
SXUS55 KMSO 311633
OSOMSO
MONTANA AWOS SUMMARY
NATIONAL WEATHER SERVICE MISSOULA MT
1032 AM MDT FRI JUL 31 2015

Montana AWOS Reports

MALTA       |KM75 311615Z AUTO 00000KT 40SM 26/13 A3009 RMK AO1 T02610128






000
SXUS55 KMSO 311623
OSOMSO
MONTANA AWOS SUMMARY
NATIONAL WEATHER SERVICE MISSOULA MT
1022 AM MDT FRI JUL 31 2015

Montana AWOS Reports

LAUREL      |K6S8 311615Z AUTO 21007KT 180V240 40SM 24/06 A3019 RMK AO1 T02440056
TWIN BRIDGES|K7S1 311615Z AUTO 18005KT 40SM 21/06 A3028 RMK AO1 T02110056
ROUNDUP     |KRPX 311615Z AUTO 18004KT 40SM 24/06 A3010 RMK AO1 T02390056






000
SXUS55 KMSO 311623
OSOMSO
MONTANA AWOS SUMMARY
NATIONAL WEATHER SERVICE MISSOULA MT
1022 AM MDT FRI JUL 31 2015

Montana AWOS Reports

LAUREL      |K6S8 311615Z AUTO 21007KT 180V240 40SM 24/06 A3019 RMK AO1 T02440056
TWIN BRIDGES|K7S1 311615Z AUTO 18005KT 40SM 21/06 A3028 RMK AO1 T02110056
ROUNDUP     |KRPX 311615Z AUTO 18004KT 40SM 24/06 A3010 RMK AO1 T02390056






000
SXUS55 KMSO 311604
OSOMSO
MONTANA AWOS SUMMARY
NATIONAL WEATHER SERVICE MISSOULA MT
1003 AM MDT FRI JUL 31 2015

Montana AWOS Reports

LAUREL      |K6S8 311555Z AUTO 18005KT 40SM 23/06 A3020 RMK AO1 T02330056
TWIN BRIDGES|K7S1 311555Z AUTO 19006KT 40SM 20/05 A3028 RMK AO1 T02000050
ROUNDUP     |KRPX 311555Z AUTO 20004KT 40SM 23/07 A3010 RMK AO1 T02330072
MALTA       |KM75 311555Z AUTO 05004KT 40SM 25/12 A3009 RMK AO1 T02500117
SCOBEY      |K9S2 311555Z AUTO 34005KT 40SM 22/11 A3016 RMK AO1 T02220111
EKALAKA     |K97M 311555Z AUTO 00000KT 40SM 28/04 A3020 RMK AO1 T02830039
PLAINS      |KS34 311555Z AUTO 00000KT 25SM 21/04 A3019 RMK AO1 T02060039






000
SXUS55 KMSO 311604
OSOMSO
MONTANA AWOS SUMMARY
NATIONAL WEATHER SERVICE MISSOULA MT
1003 AM MDT FRI JUL 31 2015

Montana AWOS Reports

LAUREL      |K6S8 311555Z AUTO 18005KT 40SM 23/06 A3020 RMK AO1 T02330056
TWIN BRIDGES|K7S1 311555Z AUTO 19006KT 40SM 20/05 A3028 RMK AO1 T02000050
ROUNDUP     |KRPX 311555Z AUTO 20004KT 40SM 23/07 A3010 RMK AO1 T02330072
MALTA       |KM75 311555Z AUTO 05004KT 40SM 25/12 A3009 RMK AO1 T02500117
SCOBEY      |K9S2 311555Z AUTO 34005KT 40SM 22/11 A3016 RMK AO1 T02220111
EKALAKA     |K97M 311555Z AUTO 00000KT 40SM 28/04 A3020 RMK AO1 T02830039
PLAINS      |KS34 311555Z AUTO 00000KT 25SM 21/04 A3019 RMK AO1 T02060039






000
SXUS55 KMSO 311553
OSOMSO
MONTANA AWOS SUMMARY
NATIONAL WEATHER SERVICE MISSOULA MT
953 AM MDT FRI JUL 31 2015

Montana AWOS Reports

MALTA       |KM75 311535Z AUTO 00000KT 40SM 24/14 A3010 RMK AO1 T02390139






000
SXUS55 KMSO 311553
OSOMSO
MONTANA AWOS SUMMARY
NATIONAL WEATHER SERVICE MISSOULA MT
953 AM MDT FRI JUL 31 2015

Montana AWOS Reports

MALTA       |KM75 311535Z AUTO 00000KT 40SM 24/14 A3010 RMK AO1 T02390139






000
SXUS55 KMSO 311543
OSOMSO
MONTANA AWOS SUMMARY
NATIONAL WEATHER SERVICE MISSOULA MT
942 AM MDT FRI JUL 31 2015

Montana AWOS Reports

LAUREL      |K6S8 311535Z AUTO 20006KT 25SM 22/05 A3020 RMK AO1 T02220050
ROUNDUP     |KRPX 311535Z AUTO 00000KT 40SM 22/07 A3011 RMK AO1 T02170072






000
SXUS55 KMSO 311543
OSOMSO
MONTANA AWOS SUMMARY
NATIONAL WEATHER SERVICE MISSOULA MT
942 AM MDT FRI JUL 31 2015

Montana AWOS Reports

LAUREL      |K6S8 311535Z AUTO 20006KT 25SM 22/05 A3020 RMK AO1 T02220050
ROUNDUP     |KRPX 311535Z AUTO 00000KT 40SM 22/07 A3011 RMK AO1 T02170072






000
SXUS55 KMSO 311523
OSOMSO
MONTANA AWOS SUMMARY
NATIONAL WEATHER SERVICE MISSOULA MT
923 AM MDT FRI JUL 31 2015

Montana AWOS Reports

MALTA       |KM75 311515Z AUTO 04006KT 40SM 22/13 A3010 RMK AO1 T02220133






000
SXUS55 KMSO 311514
OSOMSO
MONTANA AWOS SUMMARY
NATIONAL WEATHER SERVICE MISSOULA MT
913 AM MDT FRI JUL 31 2015

Montana AWOS Reports

SCOBEY      |K9S2 311455Z AUTO 00000KT 40SM 18/12 A3017 RMK AO1 T01830122






000
SXUS55 KMSO 311514
OSOMSO
MONTANA AWOS SUMMARY
NATIONAL WEATHER SERVICE MISSOULA MT
913 AM MDT FRI JUL 31 2015

Montana AWOS Reports

SCOBEY      |K9S2 311455Z AUTO 00000KT 40SM 18/12 A3017 RMK AO1 T01830122






000
SXUS55 KMSO 311503
OSOMSO
MONTANA AWOS SUMMARY
NATIONAL WEATHER SERVICE MISSOULA MT
902 AM MDT FRI JUL 31 2015

Montana AWOS Reports

LAUREL      |K6S8 311455Z AUTO 00000KT 40SM 19/07 A3021 RMK AO1 T01940072
ROUNDUP     |KRPX 311455Z AUTO 19005KT 40SM 19/06 A3012 RMK AO1 T01890061
MALTA       |KM75 311455Z AUTO 00000KT 40SM 21/13 A3011 RMK AO1 T02060128






000
SXUS55 KMSO 311453
OSOMSO
MONTANA AWOS SUMMARY
NATIONAL WEATHER SERVICE MISSOULA MT
852 AM MDT FRI JUL 31 2015

Montana AWOS Reports

EKALAKA     |K97M 311355Z AUTO 12006KT 40SM 23/08 A3021 RMK AO1 T02330083






000
SXUS55 KMSO 311453
OSOMSO
MONTANA AWOS SUMMARY
NATIONAL WEATHER SERVICE MISSOULA MT
852 AM MDT FRI JUL 31 2015

Montana AWOS Reports

EKALAKA     |K97M 311355Z AUTO 12006KT 40SM 23/08 A3021 RMK AO1 T02330083






000
SXUS55 KMSO 311443
OSOMSO
MONTANA AWOS SUMMARY
NATIONAL WEATHER SERVICE MISSOULA MT
843 AM MDT FRI JUL 31 2015

Montana AWOS Reports

LAUREL      |K6S8 311435Z AUTO 20004KT 40SM 19/07 A3021 RMK AO1 T01890072
TWIN BRIDGES|K7S1 311435Z AUTO 14006KT 40SM 16/07 A3029 RMK AO1 T01560072
SCOBEY      |K9S2 311355Z AUTO 00000KT 2 1/2SM HZ 14/11 A3017 RMK AO1 T01440106
ROUNDUP     |KRPX 311435Z AUTO 19006KT 40SM 17/06 A3012 RMK AO1 T01720061
MALTA       |KM75 311435Z AUTO 04006KT 40SM 19/13 A3011 RMK AO1 T01940128






000
SXUS55 KMSO 311443
OSOMSO
MONTANA AWOS SUMMARY
NATIONAL WEATHER SERVICE MISSOULA MT
843 AM MDT FRI JUL 31 2015

Montana AWOS Reports

LAUREL      |K6S8 311435Z AUTO 20004KT 40SM 19/07 A3021 RMK AO1 T01890072
TWIN BRIDGES|K7S1 311435Z AUTO 14006KT 40SM 16/07 A3029 RMK AO1 T01560072
SCOBEY      |K9S2 311355Z AUTO 00000KT 2 1/2SM HZ 14/11 A3017 RMK AO1 T01440106
ROUNDUP     |KRPX 311435Z AUTO 19006KT 40SM 17/06 A3012 RMK AO1 T01720061
MALTA       |KM75 311435Z AUTO 04006KT 40SM 19/13 A3011 RMK AO1 T01940128






000
SXUS55 KMSO 311423
OSOMSO
MONTANA AWOS SUMMARY
NATIONAL WEATHER SERVICE MISSOULA MT
823 AM MDT FRI JUL 31 2015

Montana AWOS Reports

LAUREL      |K6S8 311415Z AUTO 00000KT 40SM 17/07 A3021 RMK AO1 T01670067
TWIN BRIDGES|K7S1 311415Z AUTO 13007KT 40SM 14/06 A3029 RMK AO1 T01440061
ROUNDUP     |KRPX 311415Z AUTO 00000KT 40SM 16/06 A3012 RMK AO1 T01610061
MALTA       |KM75 311415Z AUTO 04005KT 40SM 19/13 A3011 RMK AO1 T01890128






000
SXUS55 KMSO 311413
OSOMSO
MONTANA AWOS SUMMARY
NATIONAL WEATHER SERVICE MISSOULA MT
812 AM MDT FRI JUL 31 2015

Montana AWOS Reports

PLAINS      |KS34 311355Z AUTO 00000KT 15SM 11/03 A3020 RMK AO1 T01110033






000
SXUS55 KMSO 311413
OSOMSO
MONTANA AWOS SUMMARY
NATIONAL WEATHER SERVICE MISSOULA MT
812 AM MDT FRI JUL 31 2015

Montana AWOS Reports

PLAINS      |KS34 311355Z AUTO 00000KT 15SM 11/03 A3020 RMK AO1 T01110033






000
SXUS55 KMSO 311403
OSOMSO
MONTANA AWOS SUMMARY
NATIONAL WEATHER SERVICE MISSOULA MT
803 AM MDT FRI JUL 31 2015

Montana AWOS Reports

LAUREL      |K6S8 311355Z AUTO 00000KT 40SM 16/06 A3021 RMK AO1 T01560061
TWIN BRIDGES|K7S1 311355Z AUTO 12005KT 40SM 13/06 A3029 RMK AO1 T01330056
ROUNDUP     |KRPX 311355Z AUTO 21006KT 40SM 15/06 A3012 RMK AO1 T01500061
MALTA       |KM75 311355Z AUTO 05005KT 40SM 18/12 A3011 RMK AO1 T01780122






000
SXUS55 KMSO 311343
OSOMSO
MONTANA AWOS SUMMARY
NATIONAL WEATHER SERVICE MISSOULA MT
743 AM MDT FRI JUL 31 2015

Montana AWOS Reports

LAUREL      |K6S8 311335Z AUTO 00000KT 40SM 14/06 A3021 RMK AO1 T01440061
TWIN BRIDGES|K7S1 311335Z AUTO 12005KT 40SM 12/05 A3029 RMK AO1 T01170050
ROUNDUP     |KRPX 311335Z AUTO 20007KT 40SM 14/06 A3012 RMK AO1 T01390056
MALTA       |KM75 311335Z AUTO 00000KT 40SM 17/12 A3011 RMK AO1 T01670122






000
SXUS55 KMSO 311324
OSOMSO
MONTANA AWOS SUMMARY
NATIONAL WEATHER SERVICE MISSOULA MT
723 AM MDT FRI JUL 31 2015

Montana AWOS Reports

LAUREL      |K6S8 311315Z AUTO 00000KT 40SM 14/06 A3021 RMK AO1 T01440061
TWIN BRIDGES|K7S1 311315Z AUTO 00000KT 40SM 11/05 A3028 RMK AO1 T01060050
ROUNDUP     |KRPX 311315Z AUTO 20005KT 40SM 13/05 A3012 RMK AO1 T01280050
MALTA       |KM75 311315Z AUTO 00000KT 40SM 15/12 A3011 RMK AO1 T01500117






000
SXUS55 KMSO 311324
OSOMSO
MONTANA AWOS SUMMARY
NATIONAL WEATHER SERVICE MISSOULA MT
723 AM MDT FRI JUL 31 2015

Montana AWOS Reports

LAUREL      |K6S8 311315Z AUTO 00000KT 40SM 14/06 A3021 RMK AO1 T01440061
TWIN BRIDGES|K7S1 311315Z AUTO 00000KT 40SM 11/05 A3028 RMK AO1 T01060050
ROUNDUP     |KRPX 311315Z AUTO 20005KT 40SM 13/05 A3012 RMK AO1 T01280050
MALTA       |KM75 311315Z AUTO 00000KT 40SM 15/12 A3011 RMK AO1 T01500117






000
SXUS55 KMSO 311303
OSOMSO
MONTANA AWOS SUMMARY
NATIONAL WEATHER SERVICE MISSOULA MT
703 AM MDT FRI JUL 31 2015

Montana AWOS Reports

EKALAKA     |K97M 311255Z AUTO 12006KT 40SM 18/08 A3021 RMK AO1 T01830078
PLAINS      |KS34 311255Z AUTO 00000KT 25SM 09/03 A3019 RMK AO1 T00890028
LAUREL      |K6S8 311255Z AUTO 00000KT 40SM 13/06 A3021 RMK AO1 T01280056
TWIN BRIDGES|K7S1 311255Z AUTO 00000KT 40SM 08/04 A3028 RMK AO1 T00830039
ROUNDUP     |KRPX 311255Z AUTO 20007KT 40SM 12/05 A3012 RMK AO1 T01220050
MALTA       |KM75 311255Z AUTO 00000KT 40SM 13/11 A3012 RMK AO1 T01330106
SCOBEY      |K9S2 311255Z AUTO 00000KT 40SM 12/09 A3017 RMK AO1 T01170094






000
SXUS55 KMSO 311244
OSOMSO
MONTANA AWOS SUMMARY
NATIONAL WEATHER SERVICE MISSOULA MT
643 AM MDT FRI JUL 31 2015

Montana AWOS Reports

LAUREL      |K6S8 311235Z AUTO 00000KT 40SM 12/05 A3021 RMK AO1 T01170050
TWIN BRIDGES|K7S1 311235Z AUTO 00000KT 40SM 08/04 A3028 RMK AO1 T00830039
ROUNDUP     |KRPX 311235Z AUTO 20006KT 40SM 12/04 A3013 RMK AO1 T01170044
MALTA       |KM75 311235Z AUTO 00000KT 40SM 13/10 A3012 RMK AO1 T01280100






000
SXUS55 KMSO 311244
OSOMSO
MONTANA AWOS SUMMARY
NATIONAL WEATHER SERVICE MISSOULA MT
643 AM MDT FRI JUL 31 2015

Montana AWOS Reports

LAUREL      |K6S8 311235Z AUTO 00000KT 40SM 12/05 A3021 RMK AO1 T01170050
TWIN BRIDGES|K7S1 311235Z AUTO 00000KT 40SM 08/04 A3028 RMK AO1 T00830039
ROUNDUP     |KRPX 311235Z AUTO 20006KT 40SM 12/04 A3013 RMK AO1 T01170044
MALTA       |KM75 311235Z AUTO 00000KT 40SM 13/10 A3012 RMK AO1 T01280100






000
SXUS55 KMSO 311223
OSOMSO
MONTANA AWOS SUMMARY
NATIONAL WEATHER SERVICE MISSOULA MT
622 AM MDT FRI JUL 31 2015

Montana AWOS Reports

LAUREL      |K6S8 311215Z AUTO 00000KT 40SM 11/04 A3020 RMK AO1 T01110044
TWIN BRIDGES|K7S1 311215Z AUTO 00000KT 40SM 08/04 A3028 RMK AO1 T00780039
ROUNDUP     |KRPX 311215Z AUTO 21005KT 40SM 12/04 A3013 RMK AO1 T01170044
MALTA       |KM75 311215Z AUTO 00000KT 40SM 12/09 A3012 RMK AO1 T01220094






000
SXUS55 KMSO 311204
OSOMSO
MONTANA AWOS SUMMARY
NATIONAL WEATHER SERVICE MISSOULA MT
603 AM MDT FRI JUL 31 2015

Montana AWOS Reports

LAUREL      |K6S8 311155Z AUTO 00000KT 40SM 12/04 A3020 RMK AO1 T01170044
ROUNDUP     |KRPX 311155Z AUTO 00000KT 40SM 11/04 A3012 RMK AO1 T01110044
MALTA       |KM75 311155Z AUTO 00000KT 40SM 12/09 A3012 RMK AO1 T01220094
EKALAKA     |K97M 311155Z AUTO 13006KT 40SM 17/07 A3021 RMK AO1 T01670072
PLAINS      |KS34 311155Z AUTO 00000KT 25SM 09/03 A3019 RMK AO1 T00940033
SCOBEY      |K9S2 311155Z AUTO 25SM 09/07 A3016 RMK AO1 T00940072






000
SXUS55 KMSO 311143
OSOMSO
MONTANA AWOS SUMMARY
NATIONAL WEATHER SERVICE MISSOULA MT
543 AM MDT FRI JUL 31 2015

Montana AWOS Reports

LAUREL      |K6S8 311135Z AUTO 00000KT 40SM 13/03 A3020 RMK AO1 T01280028
TWIN BRIDGES|K7S1 311135Z AUTO 00000KT 40SM 11/04 A3027 RMK AO1 T01060044
ROUNDUP     |KRPX 311135Z AUTO 21005KT 40SM 12/05 A3012 RMK AO1 T01220050
MALTA       |KM75 311135Z AUTO 00000KT 40SM 12/09 A3012 RMK AO1 T01220094






000
SXUS55 KMSO 311143
OSOMSO
MONTANA AWOS SUMMARY
NATIONAL WEATHER SERVICE MISSOULA MT
543 AM MDT FRI JUL 31 2015

Montana AWOS Reports

LAUREL      |K6S8 311135Z AUTO 00000KT 40SM 13/03 A3020 RMK AO1 T01280028
TWIN BRIDGES|K7S1 311135Z AUTO 00000KT 40SM 11/04 A3027 RMK AO1 T01060044
ROUNDUP     |KRPX 311135Z AUTO 21005KT 40SM 12/05 A3012 RMK AO1 T01220050
MALTA       |KM75 311135Z AUTO 00000KT 40SM 12/09 A3012 RMK AO1 T01220094






000
SXUS55 KMSO 311123
OSOMSO
MONTANA AWOS SUMMARY
NATIONAL WEATHER SERVICE MISSOULA MT
523 AM MDT FRI JUL 31 2015

Montana AWOS Reports

LAUREL      |K6S8 311115Z AUTO 00000KT 40SM 13/02 A3020 RMK AO1 T01280022
TWIN BRIDGES|K7S1 311115Z AUTO 11004KT 40SM 12/04 A3027 RMK AO1 T01170044
ROUNDUP     |KRPX 311115Z AUTO 00000KT 40SM 12/04 A3012 RMK AO1 T01220039
MALTA       |KM75 311115Z AUTO 00000KT 40SM 12/09 A3012 RMK AO1 T01220094






000
SXUS55 KMSO 311123
OSOMSO
MONTANA AWOS SUMMARY
NATIONAL WEATHER SERVICE MISSOULA MT
523 AM MDT FRI JUL 31 2015

Montana AWOS Reports

LAUREL      |K6S8 311115Z AUTO 00000KT 40SM 13/02 A3020 RMK AO1 T01280022
TWIN BRIDGES|K7S1 311115Z AUTO 11004KT 40SM 12/04 A3027 RMK AO1 T01170044
ROUNDUP     |KRPX 311115Z AUTO 00000KT 40SM 12/04 A3012 RMK AO1 T01220039
MALTA       |KM75 311115Z AUTO 00000KT 40SM 12/09 A3012 RMK AO1 T01220094






000
SXUS55 KMSO 311103
OSOMSO
MONTANA AWOS SUMMARY
NATIONAL WEATHER SERVICE MISSOULA MT
503 AM MDT FRI JUL 31 2015

Montana AWOS Reports

PLAINS      |KS34 311055Z AUTO 00000KT 25SM 11/03 A3018 RMK AO1 T01060028
LAUREL      |K6S8 311055Z AUTO 00000KT 40SM 14/03 A3020 RMK AO1 T01390033
TWIN BRIDGES|K7S1 311055Z AUTO 10004KT 40SM 12/06 A3027 RMK AO1 T01170056
ROUNDUP     |KRPX 311055Z AUTO 00000KT 40SM 14/04 A3013 RMK AO1 T01390044
MALTA       |KM75 311055Z AUTO 00000KT 40SM 12/09 A3012 RMK AO1 T01220089
SCOBEY      |K9S2 311055Z AUTO 00000KT 25SM 10/07 A3016 RMK AO1 T01000072
EKALAKA     |K97M 311055Z AUTO 00000KT 40SM 12/05 A3021 RMK AO1 T01170050






000
SXUS55 KMSO 311103
OSOMSO
MONTANA AWOS SUMMARY
NATIONAL WEATHER SERVICE MISSOULA MT
503 AM MDT FRI JUL 31 2015

Montana AWOS Reports

PLAINS      |KS34 311055Z AUTO 00000KT 25SM 11/03 A3018 RMK AO1 T01060028
LAUREL      |K6S8 311055Z AUTO 00000KT 40SM 14/03 A3020 RMK AO1 T01390033
TWIN BRIDGES|K7S1 311055Z AUTO 10004KT 40SM 12/06 A3027 RMK AO1 T01170056
ROUNDUP     |KRPX 311055Z AUTO 00000KT 40SM 14/04 A3013 RMK AO1 T01390044
MALTA       |KM75 311055Z AUTO 00000KT 40SM 12/09 A3012 RMK AO1 T01220089
SCOBEY      |K9S2 311055Z AUTO 00000KT 25SM 10/07 A3016 RMK AO1 T01000072
EKALAKA     |K97M 311055Z AUTO 00000KT 40SM 12/05 A3021 RMK AO1 T01170050






000
SXUS55 KMSO 311043
OSOMSO
MONTANA AWOS SUMMARY
NATIONAL WEATHER SERVICE MISSOULA MT
443 AM MDT FRI JUL 31 2015

Montana AWOS Reports

LAUREL      |K6S8 311035Z AUTO 00000KT 40SM 13/03 A3020 RMK AO1 T01330028
TWIN BRIDGES|K7S1 311035Z AUTO 00000KT 40SM 11/05 A3027 RMK AO1 T01060050
ROUNDUP     |KRPX 311035Z AUTO 00000KT 40SM 14/04 A3013 RMK AO1 T01440039
MALTA       |KM75 311035Z AUTO 00000KT 40SM 12/09 A3012 RMK AO1 T01220089






000
SXUS55 KMSO 311043
OSOMSO
MONTANA AWOS SUMMARY
NATIONAL WEATHER SERVICE MISSOULA MT
443 AM MDT FRI JUL 31 2015

Montana AWOS Reports

LAUREL      |K6S8 311035Z AUTO 00000KT 40SM 13/03 A3020 RMK AO1 T01330028
TWIN BRIDGES|K7S1 311035Z AUTO 00000KT 40SM 11/05 A3027 RMK AO1 T01060050
ROUNDUP     |KRPX 311035Z AUTO 00000KT 40SM 14/04 A3013 RMK AO1 T01440039
MALTA       |KM75 311035Z AUTO 00000KT 40SM 12/09 A3012 RMK AO1 T01220089






000
SXUS55 KMSO 311023
OSOMSO
MONTANA AWOS SUMMARY
NATIONAL WEATHER SERVICE MISSOULA MT
423 AM MDT FRI JUL 31 2015

Montana AWOS Reports

LAUREL      |K6S8 311015Z AUTO 00000KT 40SM 16/03 A3020 RMK AO1 T01560033
TWIN BRIDGES|K7S1 311015Z AUTO 00000KT 40SM 12/06 A3027 RMK AO1 T01170056
ROUNDUP     |KRPX 311015Z AUTO 40SM 15/04 A3013 RMK AO1 T01500039
MALTA       |KM75 311015Z AUTO 00000KT 40SM 13/09 A3013 RMK AO1 T01280094






000
SXUS55 KMSO 311003
OSOMSO
MONTANA AWOS SUMMARY
NATIONAL WEATHER SERVICE MISSOULA MT
403 AM MDT FRI JUL 31 2015

Montana AWOS Reports

LAUREL      |K6S8 310955Z AUTO 40SM 16/03 A3019 RMK AO1 T01610033
TWIN BRIDGES|K7S1 310955Z AUTO 00000KT 40SM 11/05 A3026 RMK AO1 T01110050
ROUNDUP     |KRPX 310955Z AUTO 40SM 16/03 A3013 RMK AO1 T01610033
MALTA       |KM75 310955Z AUTO 00000KT 40SM 13/09 A3013 RMK AO1 T01280094
SCOBEY      |K9S2 310955Z AUTO 25SM 11/08 A3016 RMK AO1 T01110078
PLAINS      |KS34 310955Z AUTO 00000KT 25SM 12/03 A3017 RMK AO1 T01170028






000
SXUS55 KMSO 310943
OSOMSO
MONTANA AWOS SUMMARY
NATIONAL WEATHER SERVICE MISSOULA MT
343 AM MDT FRI JUL 31 2015

Montana AWOS Reports

LAUREL      |K6S8 310935Z AUTO 40SM 17/03 A3020 RMK AO1 T01670033
TWIN BRIDGES|K7S1 310935Z AUTO 00000KT 40SM 12/06 A3026 RMK AO1 T01170061
ROUNDUP     |KRPX 310935Z AUTO 40SM 16/03 A3013 RMK AO1 T01610028
MALTA       |KM75 310935Z AUTO 00000KT 40SM 13/09 A3012 RMK AO1 T01280094






000
SXUS55 KMSO 310943
OSOMSO
MONTANA AWOS SUMMARY
NATIONAL WEATHER SERVICE MISSOULA MT
343 AM MDT FRI JUL 31 2015

Montana AWOS Reports

LAUREL      |K6S8 310935Z AUTO 40SM 17/03 A3020 RMK AO1 T01670033
TWIN BRIDGES|K7S1 310935Z AUTO 00000KT 40SM 12/06 A3026 RMK AO1 T01170061
ROUNDUP     |KRPX 310935Z AUTO 40SM 16/03 A3013 RMK AO1 T01610028
MALTA       |KM75 310935Z AUTO 00000KT 40SM 13/09 A3012 RMK AO1 T01280094






000
SXUS55 KMSO 310923
OSOMSO
MONTANA AWOS SUMMARY
NATIONAL WEATHER SERVICE MISSOULA MT
323 AM MDT FRI JUL 31 2015

Montana AWOS Reports

LAUREL      |K6S8 310915Z AUTO 40SM 16/03 A3020 RMK AO1 T01610028
TWIN BRIDGES|K7S1 310915Z AUTO 00000KT 40SM 12/06 A3026 RMK AO1 T01220061
ROUNDUP     |KRPX 310915Z AUTO 40SM 17/03 A3013 RMK AO1 T01670028
MALTA       |KM75 310915Z AUTO 00000KT 40SM 13/10 A3012 RMK AO1 T01330100






000
SXUS55 KMSO 310903
OSOMSO
MONTANA AWOS SUMMARY
NATIONAL WEATHER SERVICE MISSOULA MT
303 AM MDT FRI JUL 31 2015

Montana AWOS Reports

TWIN BRIDGES|K7S1 310855Z AUTO 00000KT 40SM 12/06 A3026 RMK AO1 T01220061
LAUREL      |K6S8 310855Z AUTO 00000KT 40SM 17/03 A3020 RMK AO1 T01670028
ROUNDUP     |KRPX 310855Z AUTO 00000KT 40SM 17/03 A3014 RMK AO1 T01670028
MALTA       |KM75 310855Z AUTO 00000KT 40SM 14/10 A3012 RMK AO1 T01390100
SCOBEY      |K9S2 310855Z AUTO 40SM 12/08 A3015 RMK AO1 T01220078
EKALAKA     |K97M 310855Z AUTO 14005KT 40SM 19/05 A3022 RMK AO1 T01890050
PLAINS      |KS34 310855Z AUTO 00000KT 25SM 12/03 A3017 RMK AO1 T01220028






000
SXUS55 KMSO 310903
OSOMSO
MONTANA AWOS SUMMARY
NATIONAL WEATHER SERVICE MISSOULA MT
303 AM MDT FRI JUL 31 2015

Montana AWOS Reports

TWIN BRIDGES|K7S1 310855Z AUTO 00000KT 40SM 12/06 A3026 RMK AO1 T01220061
LAUREL      |K6S8 310855Z AUTO 00000KT 40SM 17/03 A3020 RMK AO1 T01670028
ROUNDUP     |KRPX 310855Z AUTO 00000KT 40SM 17/03 A3014 RMK AO1 T01670028
MALTA       |KM75 310855Z AUTO 00000KT 40SM 14/10 A3012 RMK AO1 T01390100
SCOBEY      |K9S2 310855Z AUTO 40SM 12/08 A3015 RMK AO1 T01220078
EKALAKA     |K97M 310855Z AUTO 14005KT 40SM 19/05 A3022 RMK AO1 T01890050
PLAINS      |KS34 310855Z AUTO 00000KT 25SM 12/03 A3017 RMK AO1 T01220028






000
SXUS55 KMSO 310843
OSOMSO
MONTANA AWOS SUMMARY
NATIONAL WEATHER SERVICE MISSOULA MT
243 AM MDT FRI JUL 31 2015

Montana AWOS Reports

LAUREL      |K6S8 310835Z AUTO 00000KT 40SM 17/03 A3020 RMK AO1 T01670028
TWIN BRIDGES|K7S1 310835Z AUTO 00000KT 40SM 13/06 A3026 RMK AO1 T01280061
ROUNDUP     |KRPX 310835Z AUTO 00000KT 40SM 17/02 A3014 RMK AO1 T01720022
MALTA       |KM75 310835Z AUTO 00000KT 40SM 14/10 A3012 RMK AO1 T01440100






000
SXUS55 KMSO 310843
OSOMSO
MONTANA AWOS SUMMARY
NATIONAL WEATHER SERVICE MISSOULA MT
243 AM MDT FRI JUL 31 2015

Montana AWOS Reports

LAUREL      |K6S8 310835Z AUTO 00000KT 40SM 17/03 A3020 RMK AO1 T01670028
TWIN BRIDGES|K7S1 310835Z AUTO 00000KT 40SM 13/06 A3026 RMK AO1 T01280061
ROUNDUP     |KRPX 310835Z AUTO 00000KT 40SM 17/02 A3014 RMK AO1 T01720022
MALTA       |KM75 310835Z AUTO 00000KT 40SM 14/10 A3012 RMK AO1 T01440100






000
SXUS55 KMSO 310823
OSOMSO
MONTANA AWOS SUMMARY
NATIONAL WEATHER SERVICE MISSOULA MT
223 AM MDT FRI JUL 31 2015

Montana AWOS Reports

LAUREL      |K6S8 310815Z AUTO 40SM 17/02 A3020 RMK AO1 T01720022
TWIN BRIDGES|K7S1 310815Z AUTO 00000KT 40SM 13/06 A3026 RMK AO1 T01280061
ROUNDUP     |KRPX 310815Z AUTO 00000KT 40SM 17/02 A3014 RMK AO1 T01720022
MALTA       |KM75 310815Z AUTO 00000KT 40SM 14/11 A3012 RMK AO1 T01440106






000
SXUS55 KMSO 310823
OSOMSO
MONTANA AWOS SUMMARY
NATIONAL WEATHER SERVICE MISSOULA MT
223 AM MDT FRI JUL 31 2015

Montana AWOS Reports

LAUREL      |K6S8 310815Z AUTO 40SM 17/02 A3020 RMK AO1 T01720022
TWIN BRIDGES|K7S1 310815Z AUTO 00000KT 40SM 13/06 A3026 RMK AO1 T01280061
ROUNDUP     |KRPX 310815Z AUTO 00000KT 40SM 17/02 A3014 RMK AO1 T01720022
MALTA       |KM75 310815Z AUTO 00000KT 40SM 14/11 A3012 RMK AO1 T01440106






000
SXUS55 KMSO 310813
OSOMSO
MONTANA AWOS SUMMARY
NATIONAL WEATHER SERVICE MISSOULA MT
213 AM MDT FRI JUL 31 2015

Montana AWOS Reports

EKALAKA     |K97M 310755Z AUTO 13005KT 40SM 16/05 A3021 RMK AO1 T01560050
PLAINS      |KS34 310755Z AUTO 00000KT 25SM 14/04 A3016 RMK AO1 T01390044
SCOBEY      |K9S2 310755Z AUTO 40SM 14/09 A3015 RMK AO1 T01390094






000
SXUS55 KMSO 310803
OSOMSO
MONTANA AWOS SUMMARY
NATIONAL WEATHER SERVICE MISSOULA MT
202 AM MDT FRI JUL 31 2015

Montana AWOS Reports

LAUREL      |K6S8 310755Z AUTO 40SM 18/03 A3020 RMK AO1 T01830028
TWIN BRIDGES|K7S1 310755Z AUTO 11004KT 40SM 13/06 A3026 RMK AO1 T01280056
ROUNDUP     |KRPX 310755Z AUTO 00000KT 40SM 18/03 A3014 RMK AO1 T01780033
MALTA       |KM75 310755Z AUTO 00000KT 40SM 14/10 A3012 RMK AO1 T01440100






000
SXUS55 KMSO 310743
OSOMSO
MONTANA AWOS SUMMARY
NATIONAL WEATHER SERVICE MISSOULA MT
143 AM MDT FRI JUL 31 2015

Montana AWOS Reports

LAUREL      |K6S8 310735Z AUTO 40SM 19/03 A3020 RMK AO1 T01940033
TWIN BRIDGES|K7S1 310735Z AUTO 00000KT 40SM 13/06 A3025 RMK AO1 T01330061
ROUNDUP     |KRPX 310735Z AUTO 00000KT 40SM 18/02 A3014 RMK AO1 T01830017
MALTA       |KM75 310735Z AUTO 00000KT 40SM 15/11 A3013 RMK AO1 T01500111






000
SXUS55 KMSO 310733
OSOMSO
MONTANA AWOS SUMMARY
NATIONAL WEATHER SERVICE MISSOULA MT
133 AM MDT FRI JUL 31 2015

Montana AWOS Reports

MALTA       |KM75 310715Z AUTO 00000KT 40SM 15/10 A3013 RMK AO1 T01500100
SCOBEY      |K9S2 310655Z AUTO 40SM 14/09 A3016 RMK AO1 T01390094






000
SXUS55 KMSO 310723
OSOMSO
MONTANA AWOS SUMMARY
NATIONAL WEATHER SERVICE MISSOULA MT
123 AM MDT FRI JUL 31 2015

Montana AWOS Reports

LAUREL      |K6S8 310715Z AUTO 40SM 21/04 A3020 RMK AO1 T02060039
TWIN BRIDGES|K7S1 310715Z AUTO 00000KT 40SM 15/06 A3025 RMK AO1 T01500056
ROUNDUP     |KRPX 310715Z AUTO 00000KT 40SM 18/02 A3014 RMK AO1 T01830017






000
SXUS55 KMSO 310714
OSOMSO
MONTANA AWOS SUMMARY
NATIONAL WEATHER SERVICE MISSOULA MT
113 AM MDT FRI JUL 31 2015

Montana AWOS Reports

EKALAKA     |K97M 310655Z AUTO 00000KT 40SM 15/04 A3022 RMK AO1 T01500044






000
SXUS55 KMSO 310714
OSOMSO
MONTANA AWOS SUMMARY
NATIONAL WEATHER SERVICE MISSOULA MT
113 AM MDT FRI JUL 31 2015

Montana AWOS Reports

EKALAKA     |K97M 310655Z AUTO 00000KT 40SM 15/04 A3022 RMK AO1 T01500044






000
SXUS55 KMSO 310703
OSOMSO
MONTANA AWOS SUMMARY
NATIONAL WEATHER SERVICE MISSOULA MT
103 AM MDT FRI JUL 31 2015

Montana AWOS Reports

MALTA       |KM75 310655Z AUTO 00000KT 40SM 16/11 A3013 RMK AO1 T01560106
LAUREL      |K6S8 310655Z AUTO 00000KT 40SM 21/04 A3020 RMK AO1 T02110039
TWIN BRIDGES|K7S1 310655Z AUTO 00000KT 40SM 14/07 A3025 RMK AO1 T01440067
ROUNDUP     |KRPX 310655Z AUTO 00000KT 40SM 19/02 A3014 RMK AO1 T01890022






000
SXUS55 KMSO 310643
OSOMSO
MONTANA AWOS SUMMARY
NATIONAL WEATHER SERVICE MISSOULA MT
1243 AM MDT FRI JUL 31 2015

Montana AWOS Reports

TWIN BRIDGES|K7S1 310635Z AUTO 00000KT 40SM 16/07 A3025 RMK AO1 T01610067
MALTA       |KM75 310635Z AUTO 00000KT 40SM 16/11 A3013 RMK AO1 T01610106
LAUREL      |K6S8 310635Z AUTO 34005KT 40SM 21/03 A3020 RMK AO1 T02110033
ROUNDUP     |KRPX 310635Z AUTO 00000KT 40SM 18/02 A3014 RMK AO1 T01830017






000
SXUS55 KMSO 310633
OSOMSO
MONTANA AWOS SUMMARY
NATIONAL WEATHER SERVICE MISSOULA MT
1233 AM MDT FRI JUL 31 2015

Montana AWOS Reports

TWIN BRIDGES|K7S1 310615Z AUTO 00000KT 40SM 16/06 A3025 RMK AO1 T01610061






000
SXUS55 KMSO 310623
OSOMSO
MONTANA AWOS SUMMARY
NATIONAL WEATHER SERVICE MISSOULA MT
1223 AM MDT FRI JUL 31 2015

Montana AWOS Reports

LAUREL      |K6S8 310615Z AUTO 34004KT 40SM 22/03 A3020 RMK AO1 T02170033
ROUNDUP     |KRPX 310615Z AUTO 00000KT 40SM 20/01 A3013 RMK AO1 T02000011
MALTA       |KM75 310615Z AUTO 00000KT 40SM 17/11 A3013 RMK AO1 T01670106






000
SXUS55 KMSO 310623
OSOMSO
MONTANA AWOS SUMMARY
NATIONAL WEATHER SERVICE MISSOULA MT
1223 AM MDT FRI JUL 31 2015

Montana AWOS Reports

LAUREL      |K6S8 310615Z AUTO 34004KT 40SM 22/03 A3020 RMK AO1 T02170033
ROUNDUP     |KRPX 310615Z AUTO 00000KT 40SM 20/01 A3013 RMK AO1 T02000011
MALTA       |KM75 310615Z AUTO 00000KT 40SM 17/11 A3013 RMK AO1 T01670106






000
SXUS55 KMSO 310603
OSOMSO
MONTANA AWOS SUMMARY
NATIONAL WEATHER SERVICE MISSOULA MT
1203 AM MDT FRI JUL 31 2015

Montana AWOS Reports

LAUREL      |K6S8 310555Z AUTO 00000KT 40SM 22/03 A3020 RMK AO1 T02170033
TWIN BRIDGES|K7S1 310555Z AUTO 00000KT 40SM 17/07 A3024 RMK AO1 T01670067
ROUNDUP     |KRPX 310555Z AUTO 00000KT 40SM 21/01 A3013 RMK AO1 T02060011
MALTA       |KM75 310555Z AUTO 00000KT 40SM 19/12 A3013 RMK AO1 T01890117
SCOBEY      |K9S2 310555Z AUTO 00000KT 40SM 14/10 A3015 RMK AO1 T01390100
EKALAKA     |K97M 310555Z AUTO 13004KT 40SM 21/04 A3021 RMK AO1 T02060039
PLAINS      |KS34 310555Z AUTO 00000KT 25SM 17/03 A3015 RMK AO1 T01720028






000
SXUS55 KMSO 310603
OSOMSO
MONTANA AWOS SUMMARY
NATIONAL WEATHER SERVICE MISSOULA MT
1203 AM MDT FRI JUL 31 2015

Montana AWOS Reports

LAUREL      |K6S8 310555Z AUTO 00000KT 40SM 22/03 A3020 RMK AO1 T02170033
TWIN BRIDGES|K7S1 310555Z AUTO 00000KT 40SM 17/07 A3024 RMK AO1 T01670067
ROUNDUP     |KRPX 310555Z AUTO 00000KT 40SM 21/01 A3013 RMK AO1 T02060011
MALTA       |KM75 310555Z AUTO 00000KT 40SM 19/12 A3013 RMK AO1 T01890117
SCOBEY      |K9S2 310555Z AUTO 00000KT 40SM 14/10 A3015 RMK AO1 T01390100
EKALAKA     |K97M 310555Z AUTO 13004KT 40SM 21/04 A3021 RMK AO1 T02060039
PLAINS      |KS34 310555Z AUTO 00000KT 25SM 17/03 A3015 RMK AO1 T01720028






000
SXUS55 KMSO 310553
OSOMSO
MONTANA AWOS SUMMARY
NATIONAL WEATHER SERVICE MISSOULA MT
1152 PM MDT THU JUL 30 2015

Montana AWOS Reports

LAUREL      |K6S8 310535Z AUTO 34004KT 40SM 22/03 A3019 RMK AO1 T02170028
TWIN BRIDGES|K7S1 310535Z AUTO 00000KT 40SM 17/06 A3024 RMK AO1 T01670056
ROUNDUP     |KRPX 310535Z AUTO 00000KT 40SM 21/01 A3013 RMK AO1 T02110011
MALTA       |KM75 310535Z AUTO 00000KT 40SM 20/11 A3012 RMK AO1 T02000111






000
SXUS55 KMSO 310553
OSOMSO
MONTANA AWOS SUMMARY
NATIONAL WEATHER SERVICE MISSOULA MT
1152 PM MDT THU JUL 30 2015

Montana AWOS Reports

LAUREL      |K6S8 310535Z AUTO 34004KT 40SM 22/03 A3019 RMK AO1 T02170028
TWIN BRIDGES|K7S1 310535Z AUTO 00000KT 40SM 17/06 A3024 RMK AO1 T01670056
ROUNDUP     |KRPX 310535Z AUTO 00000KT 40SM 21/01 A3013 RMK AO1 T02110011
MALTA       |KM75 310535Z AUTO 00000KT 40SM 20/11 A3012 RMK AO1 T02000111






000
SXUS55 KMSO 310533
OSOMSO
MONTANA AWOS SUMMARY
NATIONAL WEATHER SERVICE MISSOULA MT
1133 PM MDT THU JUL 30 2015

Montana AWOS Reports

LAUREL      |K6S8 310515Z AUTO 34005KT 40SM 22/03 A3019 RMK AO1 T02220033
ROUNDUP     |KRPX 310515Z AUTO 00000KT 40SM 22/02 A3013 RMK AO1 T02170017
MALTA       |KM75 310515Z AUTO 00000KT 40SM 20/11 A3011 RMK AO1 T02000111
EKALAKA     |K97M 310455Z AUTO 00000KT 40SM 21/04 A3021 RMK AO1 T02060039






000
SXUS55 KMSO 310523
OSOMSO
MONTANA AWOS SUMMARY
NATIONAL WEATHER SERVICE MISSOULA MT
1123 PM MDT THU JUL 30 2015

Montana AWOS Reports

TWIN BRIDGES|K7S1 310515Z AUTO 00000KT 40SM 17/07 A3024 RMK AO1 T01670072
SCOBEY      |K9S2 310455Z AUTO 40SM 15/09 A3015 RMK AO1 T01500089






000
SXUS55 KMSO 310523
OSOMSO
MONTANA AWOS SUMMARY
NATIONAL WEATHER SERVICE MISSOULA MT
1123 PM MDT THU JUL 30 2015

Montana AWOS Reports

TWIN BRIDGES|K7S1 310515Z AUTO 00000KT 40SM 17/07 A3024 RMK AO1 T01670072
SCOBEY      |K9S2 310455Z AUTO 40SM 15/09 A3015 RMK AO1 T01500089






000
SXUS55 KMSO 310513
OSOMSO
MONTANA AWOS SUMMARY
NATIONAL WEATHER SERVICE MISSOULA MT
1113 PM MDT THU JUL 30 2015

Montana AWOS Reports

PLAINS      |KS34 310455Z AUTO 00000KT 25SM 21/04 A3014 RMK AO1 T02060044






000
SXUS55 KMSO 310513
OSOMSO
MONTANA AWOS SUMMARY
NATIONAL WEATHER SERVICE MISSOULA MT
1113 PM MDT THU JUL 30 2015

Montana AWOS Reports

PLAINS      |KS34 310455Z AUTO 00000KT 25SM 21/04 A3014 RMK AO1 T02060044






000
SXUS55 KMSO 310503
OSOMSO
MONTANA AWOS SUMMARY
NATIONAL WEATHER SERVICE MISSOULA MT
1103 PM MDT THU JUL 30 2015

Montana AWOS Reports

TWIN BRIDGES|K7S1 310455Z AUTO 00000KT 40SM 17/07 A3023 RMK AO1 T01670067
ROUNDUP     |KRPX 310455Z AUTO 00000KT 40SM 21/01 A3013 RMK AO1 T02110011
LAUREL      |K6S8 310455Z AUTO 00000KT 40SM 22/02 A3019 RMK AO1 T02220022
MALTA       |KM75 310455Z AUTO 00000KT 40SM 19/11 A3011 RMK AO1 T01890106






000
SXUS55 KMSO 310453
OSOMSO
MONTANA AWOS SUMMARY
NATIONAL WEATHER SERVICE MISSOULA MT
1052 PM MDT THU JUL 30 2015

Montana AWOS Reports

LAUREL      |K6S8 310435Z AUTO 00000KT 40SM 22/02 A3019 RMK AO1 T02220022
ROUNDUP     |KRPX 310435Z AUTO 00000KT 40SM 22/02 A3013 RMK AO1 T02170022
MALTA       |KM75 310435Z AUTO 00000KT 40SM 18/12 A3011 RMK AO1 T01830117






000
SXUS55 KMSO 310443
OSOMSO
MONTANA AWOS SUMMARY
NATIONAL WEATHER SERVICE MISSOULA MT
1043 PM MDT THU JUL 30 2015

Montana AWOS Reports

TWIN BRIDGES|K7S1 310435Z AUTO 33004KT 40SM 17/08 A3023 RMK AO1 T01720083






    US Dept of Commerce
    National Oceanic and Atmospheric Administration
    National Weather Service
    1325 East West Highway
    Silver Spring, MD 20910
    Page Author: NWS Internet Services Team
Disclaimer
Information Quality
Credits
Glossary
Privacy Policy
Freedom of Information Act (FOIA)
About Us
Career Opportunities